<?xml version='1.0' encoding='UTF-8'?>
<gpx version="1.1" creator="https://www.komoot.de" xmlns="http://www.topografix.com/GPX/1/1" xmlns:xsi="http://www.w3.org/2001/XMLSchema-instance" xsi:schemaLocation="http://www.topografix.com/GPX/1/1 http://www.topografix.com/GPX/1/1/gpx.xsd">
  <metadata>
    <name>ADFC Tour zur Bunthäuser Spitze</name>
    <author>
      <link href="https://www.komoot.de">
        <text>komoot</text>
        <type>text/html</type>
      </link>
    </author>
  </metadata>
  <wpt lat="53.422979" lon="10.106935">
    <name>Paus</name>
    <sym>Flag, Blue</sym>
  </wpt>
  <wpt lat="53.422838" lon="10.106418">
    <name>Rastplatz Wölfenburg und Informationspunkt Elbmarsch</name>
    <sym>Picnic Area</sym>
  </wpt>
  <wpt lat="53.458826" lon="10.013902">
    <name>Eisvogel</name>
    <sym>Restaurant</sym>
  </wpt>
  <wpt lat="53.417277" lon="10.046513">
    <name>Pause</name>
    <sym>Flag, Blue</sym>
  </wpt>
  <trk>
    <name>ADFC Tour zur Bunthäuser Spitze</name>
    <type>e_touring_bicycle</type>
    <trkseg>
      <trkpt lat="53.363283" lon="10.205996">
        <ele>6.965706</ele>
        <time>2026-08-27T16:16:31.696Z</time>
      </trkpt>
      <trkpt lat="53.363287" lon="10.205993">
        <ele>6.965706</ele>
        <time>2026-08-27T16:16:31.807Z</time>
      </trkpt>
      <trkpt lat="53.363358" lon="10.205850">
        <ele>6.965706</ele>
        <time>2026-08-27T16:16:34.829Z</time>
      </trkpt>
      <trkpt lat="53.363536" lon="10.205326">
        <ele>6.965706</ele>
        <time>2026-08-27T16:16:44.733Z</time>
      </trkpt>
      <trkpt lat="53.364027" lon="10.204526">
        <ele>6.835394</ele>
        <time>2026-08-27T16:17:03.624Z</time>
      </trkpt>
      <trkpt lat="53.364073" lon="10.204619">
        <ele>6.799363</ele>
        <time>2026-08-27T16:17:05.620Z</time>
      </trkpt>
      <trkpt lat="53.364153" lon="10.204754">
        <ele>6.742612</ele>
        <time>2026-08-27T16:17:08.028Z</time>
      </trkpt>
      <trkpt lat="53.364441" lon="10.205109">
        <ele>6.563900</ele>
        <time>2026-08-27T16:17:15.550Z</time>
      </trkpt>
      <trkpt lat="53.364462" lon="10.205025">
        <ele>6.536735</ele>
        <time>2026-08-27T16:17:16.969Z</time>
      </trkpt>
      <trkpt lat="53.364487" lon="10.204924">
        <ele>6.504119</ele>
        <time>2026-08-27T16:17:18.710Z</time>
      </trkpt>
      <trkpt lat="53.364535" lon="10.204720">
        <ele>6.438710</ele>
        <time>2026-08-27T16:17:21.397Z</time>
      </trkpt>
      <trkpt lat="53.364564" lon="10.204580">
        <ele>6.394506</ele>
        <time>2026-08-27T16:17:23.745Z</time>
      </trkpt>
      <trkpt lat="53.364554" lon="10.204471">
        <ele>6.361612</ele>
        <time>2026-08-27T16:17:25.479Z</time>
      </trkpt>
      <trkpt lat="53.364678" lon="10.203943">
        <ele>6.192361</ele>
        <time>2026-08-27T16:17:34.579Z</time>
      </trkpt>
      <trkpt lat="53.364877" lon="10.203430">
        <ele>6.023985</ele>
        <time>2026-08-27T16:17:44.327Z</time>
      </trkpt>
      <trkpt lat="53.364916" lon="10.203350">
        <ele>6.000841</ele>
        <time>2026-08-27T16:17:45.542Z</time>
      </trkpt>
      <trkpt lat="53.364944" lon="10.203302">
        <ele>5.985803</ele>
        <time>2026-08-27T16:17:46.339Z</time>
      </trkpt>
      <trkpt lat="53.365085" lon="10.203032">
        <ele>5.905422</ele>
        <time>2026-08-27T16:17:50.576Z</time>
      </trkpt>
      <trkpt lat="53.365136" lon="10.202924">
        <ele>5.874567</ele>
        <time>2026-08-27T16:17:52.191Z</time>
      </trkpt>
      <trkpt lat="53.365694" lon="10.201934">
        <ele>5.569481</ele>
        <time>2026-08-27T16:18:08.723Z</time>
      </trkpt>
      <trkpt lat="53.366081" lon="10.201269">
        <ele>5.362932</ele>
        <time>2026-08-27T16:18:20.494Z</time>
      </trkpt>
      <trkpt lat="53.366124" lon="10.201386">
        <ele>5.333739</ele>
        <time>2026-08-27T16:18:22.755Z</time>
      </trkpt>
      <trkpt lat="53.366192" lon="10.201419">
        <ele>5.308534</ele>
        <time>2026-08-27T16:18:24.689Z</time>
      </trkpt>
      <trkpt lat="53.366293" lon="10.201389">
        <ele>5.272015</ele>
        <time>2026-08-27T16:18:27.532Z</time>
      </trkpt>
      <trkpt lat="53.366381" lon="10.201364">
        <ele>5.240237</ele>
        <time>2026-08-27T16:18:29.594Z</time>
      </trkpt>
      <trkpt lat="53.366527" lon="10.201255">
        <ele>5.183332</ele>
        <time>2026-08-27T16:18:33.272Z</time>
      </trkpt>
      <trkpt lat="53.367043" lon="10.201448">
        <ele>4.995100</ele>
        <time>2026-08-27T16:18:45.438Z</time>
      </trkpt>
      <trkpt lat="53.367907" lon="10.201660">
        <ele>4.638052</ele>
        <time>2026-08-27T16:19:04.904Z</time>
      </trkpt>
      <trkpt lat="53.368198" lon="10.201777">
        <ele>4.457842</ele>
        <time>2026-08-27T16:19:11.621Z</time>
      </trkpt>
      <trkpt lat="53.368270" lon="10.201790">
        <ele>4.414234</ele>
        <time>2026-08-27T16:19:13.237Z</time>
      </trkpt>
      <trkpt lat="53.368491" lon="10.201829">
        <ele>4.280414</ele>
        <time>2026-08-27T16:19:18.200Z</time>
      </trkpt>
      <trkpt lat="53.368829" lon="10.201791">
        <ele>4.076416</ele>
        <time>2026-08-27T16:19:25.764Z</time>
      </trkpt>
      <trkpt lat="53.369117" lon="10.201690">
        <ele>3.899229</ele>
        <time>2026-08-27T16:19:32.304Z</time>
      </trkpt>
      <trkpt lat="53.369551" lon="10.201747">
        <ele>3.654601</ele>
        <time>2026-08-27T16:19:42.099Z</time>
      </trkpt>
      <trkpt lat="53.369687" lon="10.201731">
        <ele>3.619262</ele>
        <time>2026-08-27T16:19:45.215Z</time>
      </trkpt>
      <trkpt lat="53.369866" lon="10.201564">
        <ele>3.566159</ele>
        <time>2026-08-27T16:19:49.918Z</time>
      </trkpt>
      <trkpt lat="53.370277" lon="10.200794">
        <ele>3.406376</ele>
        <time>2026-08-27T16:20:04.074Z</time>
      </trkpt>
      <trkpt lat="53.370526" lon="10.200487">
        <ele>3.326251</ele>
        <time>2026-08-27T16:20:11.205Z</time>
      </trkpt>
      <trkpt lat="53.370790" lon="10.200394">
        <ele>3.256325</ele>
        <time>2026-08-27T16:20:17.443Z</time>
      </trkpt>
      <trkpt lat="53.371916" lon="10.200170">
        <ele>3.149487</ele>
        <time>2026-08-27T16:20:43.749Z</time>
      </trkpt>
      <trkpt lat="53.372790" lon="10.199813">
        <ele>3.100013</ele>
        <time>2026-08-27T16:21:04.741Z</time>
      </trkpt>
      <trkpt lat="53.375376" lon="10.199599">
        <ele>3.081449</ele>
        <time>2026-08-27T16:22:05.290Z</time>
      </trkpt>
      <trkpt lat="53.375935" lon="10.200257">
        <ele>3.065888</ele>
        <time>2026-08-27T16:22:21.176Z</time>
      </trkpt>
      <trkpt lat="53.376097" lon="10.200546">
        <ele>3.060498</ele>
        <time>2026-08-27T16:22:26.677Z</time>
      </trkpt>
      <trkpt lat="53.376187" lon="10.201292">
        <ele>3.041362</ele>
        <time>2026-08-27T16:22:37.223Z</time>
      </trkpt>
      <trkpt lat="53.376303" lon="10.201630">
        <ele>3.030809</ele>
        <time>2026-08-27T16:22:42.638Z</time>
      </trkpt>
      <trkpt lat="53.376556" lon="10.201793">
        <ele>3.018513</ele>
        <time>2026-08-27T16:22:48.953Z</time>
      </trkpt>
      <trkpt lat="53.377190" lon="10.201765">
        <ele>2.989741</ele>
        <time>2026-08-27T16:23:03.709Z</time>
      </trkpt>
      <trkpt lat="53.377642" lon="10.202123">
        <ele>2.968085</ele>
        <time>2026-08-27T16:23:15.369Z</time>
      </trkpt>
      <trkpt lat="53.378142" lon="10.202416">
        <ele>2.946426</ele>
        <time>2026-08-27T16:23:27.667Z</time>
      </trkpt>
      <trkpt lat="53.378309" lon="10.202442">
        <ele>2.939568</ele>
        <time>2026-08-27T16:23:31.560Z</time>
      </trkpt>
      <trkpt lat="53.378503" lon="10.202398">
        <ele>2.931563</ele>
        <time>2026-08-27T16:23:36.126Z</time>
      </trkpt>
      <trkpt lat="53.378777" lon="10.202154">
        <ele>2.918877</ele>
        <time>2026-08-27T16:23:43.352Z</time>
      </trkpt>
      <trkpt lat="53.378996" lon="10.201814">
        <ele>2.906671</ele>
        <time>2026-08-27T16:23:50.341Z</time>
      </trkpt>
      <trkpt lat="53.379458" lon="10.200858">
        <ele>2.994488</ele>
        <time>2026-08-27T16:24:07.532Z</time>
      </trkpt>
      <trkpt lat="53.379531" lon="10.200731">
        <ele>3.008807</ele>
        <time>2026-08-27T16:24:10.004Z</time>
      </trkpt>
      <trkpt lat="53.379633" lon="10.200634">
        <ele>3.024769</ele>
        <time>2026-08-27T16:24:12.758Z</time>
      </trkpt>
      <trkpt lat="53.379838" lon="10.200605">
        <ele>3.052771</ele>
        <time>2026-08-27T16:24:17.620Z</time>
      </trkpt>
      <trkpt lat="53.380351" lon="10.200761">
        <ele>3.123736</ele>
        <time>2026-08-27T16:24:29.986Z</time>
      </trkpt>
      <trkpt lat="53.381193" lon="10.201003">
        <ele>3.235822</ele>
        <time>2026-08-27T16:24:50.214Z</time>
      </trkpt>
      <trkpt lat="53.382493" lon="10.201180">
        <ele>3.411542</ele>
        <time>2026-08-27T16:25:20.831Z</time>
      </trkpt>
      <trkpt lat="53.382785" lon="10.201220">
        <ele>3.460115</ele>
        <time>2026-08-27T16:25:27.704Z</time>
      </trkpt>
      <trkpt lat="53.382939" lon="10.201311">
        <ele>3.487186</ele>
        <time>2026-08-27T16:25:31.564Z</time>
      </trkpt>
      <trkpt lat="53.383399" lon="10.201872">
        <ele>3.581494</ele>
        <time>2026-08-27T16:25:45.025Z</time>
      </trkpt>
      <trkpt lat="53.383543" lon="10.201980">
        <ele>3.607648</ele>
        <time>2026-08-27T16:25:48.764Z</time>
      </trkpt>
      <trkpt lat="53.383670" lon="10.202021">
        <ele>3.629091</ele>
        <time>2026-08-27T16:25:51.816Z</time>
      </trkpt>
      <trkpt lat="53.383832" lon="10.202009">
        <ele>3.655975</ele>
        <time>2026-08-27T16:25:55.664Z</time>
      </trkpt>
      <trkpt lat="53.384051" lon="10.201923">
        <ele>3.701093</ele>
        <time>2026-08-27T16:26:00.483Z</time>
      </trkpt>
      <trkpt lat="53.384239" lon="10.201757">
        <ele>3.757875</ele>
        <time>2026-08-27T16:26:05.045Z</time>
      </trkpt>
      <trkpt lat="53.384321" lon="10.201447">
        <ele>3.811928</ele>
        <time>2026-08-27T16:26:09.404Z</time>
      </trkpt>
      <trkpt lat="53.384630" lon="10.199841">
        <ele>4.080902</ele>
        <time>2026-08-27T16:26:31.061Z</time>
      </trkpt>
      <trkpt lat="53.384721" lon="10.199503">
        <ele>4.140010</ele>
        <time>2026-08-27T16:26:35.857Z</time>
      </trkpt>
      <trkpt lat="53.384772" lon="10.199401">
        <ele>4.161262</ele>
        <time>2026-08-27T16:26:37.586Z</time>
      </trkpt>
      <trkpt lat="53.384931" lon="10.199242">
        <ele>4.232875</ele>
        <time>2026-08-27T16:26:41.630Z</time>
      </trkpt>
      <trkpt lat="53.385036" lon="10.199216">
        <ele>4.273931</ele>
        <time>2026-08-27T16:26:43.966Z</time>
      </trkpt>
      <trkpt lat="53.385138" lon="10.199236">
        <ele>4.313656</ele>
        <time>2026-08-27T16:26:46.238Z</time>
      </trkpt>
      <trkpt lat="53.385642" lon="10.199595">
        <ele>4.525475</ele>
        <time>2026-08-27T16:26:58.277Z</time>
      </trkpt>
      <trkpt lat="53.385708" lon="10.199618">
        <ele>4.551551</ele>
        <time>2026-08-27T16:26:59.771Z</time>
      </trkpt>
      <trkpt lat="53.386174" lon="10.199470">
        <ele>4.735013</ele>
        <time>2026-08-27T16:27:10.124Z</time>
      </trkpt>
      <trkpt lat="53.388013" lon="10.199241">
        <ele>4.731696</ele>
        <time>2026-08-27T16:27:49.013Z</time>
      </trkpt>
      <trkpt lat="53.388324" lon="10.199221">
        <ele>4.690290</ele>
        <time>2026-08-27T16:27:55.332Z</time>
      </trkpt>
      <trkpt lat="53.388637" lon="10.199306">
        <ele>4.542895</ele>
        <time>2026-08-27T16:28:01.699Z</time>
      </trkpt>
      <trkpt lat="53.389030" lon="10.199585">
        <ele>4.344509</ele>
        <time>2026-08-27T16:28:10.247Z</time>
      </trkpt>
      <trkpt lat="53.389632" lon="10.199917">
        <ele>4.049921</ele>
        <time>2026-08-27T16:28:22.953Z</time>
      </trkpt>
      <trkpt lat="53.390234" lon="10.200124">
        <ele>3.871651</ele>
        <time>2026-08-27T16:28:35.463Z</time>
      </trkpt>
      <trkpt lat="53.390898" lon="10.200072">
        <ele>3.866380</ele>
        <time>2026-08-27T16:28:49.490Z</time>
      </trkpt>
      <trkpt lat="53.391498" lon="10.199911">
        <ele>3.861562</ele>
        <time>2026-08-27T16:29:02.570Z</time>
      </trkpt>
      <trkpt lat="53.392040" lon="10.199574">
        <ele>3.771307</ele>
        <time>2026-08-27T16:29:14.861Z</time>
      </trkpt>
      <trkpt lat="53.392232" lon="10.199236">
        <ele>3.685948</ele>
        <time>2026-08-27T16:29:20.659Z</time>
      </trkpt>
      <trkpt lat="53.392306" lon="10.199025">
        <ele>3.641187</ele>
        <time>2026-08-27T16:29:23.645Z</time>
      </trkpt>
      <trkpt lat="53.392342" lon="10.198800">
        <ele>3.598589</ele>
        <time>2026-08-27T16:29:26.816Z</time>
      </trkpt>
      <trkpt lat="53.392377" lon="10.197728">
        <ele>3.402274</ele>
        <time>2026-08-27T16:29:41.288Z</time>
      </trkpt>
      <trkpt lat="53.392410" lon="10.197264">
        <ele>3.316827</ele>
        <time>2026-08-27T16:29:47.505Z</time>
      </trkpt>
      <trkpt lat="53.392395" lon="10.195921">
        <ele>3.038551</ele>
        <time>2026-08-27T16:30:05.574Z</time>
      </trkpt>
      <trkpt lat="53.392332" lon="10.194868">
        <ele>2.818316</ele>
        <time>2026-08-27T16:30:20.051Z</time>
      </trkpt>
      <trkpt lat="53.392157" lon="10.193096">
        <ele>2.610187</ele>
        <time>2026-08-27T16:30:44.925Z</time>
      </trkpt>
      <trkpt lat="53.392184" lon="10.192084">
        <ele>2.547656</ele>
        <time>2026-08-27T16:30:58.917Z</time>
      </trkpt>
      <trkpt lat="53.392162" lon="10.191824">
        <ele>2.531446</ele>
        <time>2026-08-27T16:31:02.546Z</time>
      </trkpt>
      <trkpt lat="53.392109" lon="10.191683">
        <ele>2.521158</ele>
        <time>2026-08-27T16:31:04.845Z</time>
      </trkpt>
      <trkpt lat="53.391980" lon="10.191470">
        <ele>2.502418</ele>
        <time>2026-08-27T16:31:09.024Z</time>
      </trkpt>
      <trkpt lat="53.391354" lon="10.190563">
        <ele>2.655292</ele>
        <time>2026-08-27T16:31:28.207Z</time>
      </trkpt>
      <trkpt lat="53.391245" lon="10.190265">
        <ele>2.700485</ele>
        <time>2026-08-27T16:31:33.105Z</time>
      </trkpt>
      <trkpt lat="53.391221" lon="10.190072">
        <ele>2.725973</ele>
        <time>2026-08-27T16:31:35.875Z</time>
      </trkpt>
      <trkpt lat="53.391226" lon="10.189886">
        <ele>2.750043</ele>
        <time>2026-08-27T16:31:38.506Z</time>
      </trkpt>
      <trkpt lat="53.391310" lon="10.189469">
        <ele>2.806944</ele>
        <time>2026-08-27T16:31:44.804Z</time>
      </trkpt>
      <trkpt lat="53.391569" lon="10.188634">
        <ele>2.976202</ele>
        <time>2026-08-27T16:31:58.420Z</time>
      </trkpt>
      <trkpt lat="53.391711" lon="10.188308">
        <ele>3.083771</ele>
        <time>2026-08-27T16:32:04.269Z</time>
      </trkpt>
      <trkpt lat="53.391818" lon="10.188131">
        <ele>3.150928</ele>
        <time>2026-08-27T16:32:07.903Z</time>
      </trkpt>
      <trkpt lat="53.391924" lon="10.188001">
        <ele>3.209606</ele>
        <time>2026-08-27T16:32:11.082Z</time>
      </trkpt>
      <trkpt lat="53.392061" lon="10.187896">
        <ele>3.276910</ele>
        <time>2026-08-27T16:32:14.722Z</time>
      </trkpt>
      <trkpt lat="53.392253" lon="10.187799">
        <ele>3.366508</ele>
        <time>2026-08-27T16:32:19.111Z</time>
      </trkpt>
      <trkpt lat="53.392410" lon="10.187602">
        <ele>3.454123</ele>
        <time>2026-08-27T16:32:23.363Z</time>
      </trkpt>
      <trkpt lat="53.392464" lon="10.187376">
        <ele>3.518995</ele>
        <time>2026-08-27T16:32:26.517Z</time>
      </trkpt>
      <trkpt lat="53.392465" lon="10.187233">
        <ele>3.557100</ele>
        <time>2026-08-27T16:32:28.382Z</time>
      </trkpt>
      <trkpt lat="53.392336" lon="10.186235">
        <ele>3.723187</ele>
        <time>2026-08-27T16:32:41.268Z</time>
      </trkpt>
      <trkpt lat="53.392263" lon="10.186092">
        <ele>3.735835</ele>
        <time>2026-08-27T16:32:43.597Z</time>
      </trkpt>
      <trkpt lat="53.391983" lon="10.185804">
        <ele>3.772846</ele>
        <time>2026-08-27T16:32:50.578Z</time>
      </trkpt>
      <trkpt lat="53.391822" lon="10.185445">
        <ele>3.803028</ele>
        <time>2026-08-27T16:32:56.274Z</time>
      </trkpt>
      <trkpt lat="53.391749" lon="10.185188">
        <ele>3.822155</ele>
        <time>2026-08-27T16:32:59.892Z</time>
      </trkpt>
      <trkpt lat="53.391724" lon="10.184965">
        <ele>3.837401</ele>
        <time>2026-08-27T16:33:02.787Z</time>
      </trkpt>
      <trkpt lat="53.391793" lon="10.184451">
        <ele>3.872803</ele>
        <time>2026-08-27T16:33:09.529Z</time>
      </trkpt>
      <trkpt lat="53.391753" lon="10.184032">
        <ele>3.881398</ele>
        <time>2026-08-27T16:33:14.950Z</time>
      </trkpt>
      <trkpt lat="53.391638" lon="10.183541">
        <ele>3.853882</ele>
        <time>2026-08-27T16:33:21.655Z</time>
      </trkpt>
      <trkpt lat="53.390855" lon="10.181350">
        <ele>3.717280</ele>
        <time>2026-08-27T16:33:53.271Z</time>
      </trkpt>
      <trkpt lat="53.390908" lon="10.181184">
        <ele>3.704736</ele>
        <time>2026-08-27T16:33:55.588Z</time>
      </trkpt>
      <trkpt lat="53.391080" lon="10.180666">
        <ele>3.665238</ele>
        <time>2026-08-27T16:34:02.965Z</time>
      </trkpt>
      <trkpt lat="53.391531" lon="10.179748">
        <ele>3.586002</ele>
        <time>2026-08-27T16:34:17.727Z</time>
      </trkpt>
      <trkpt lat="53.391771" lon="10.179399">
        <ele>3.550514</ele>
        <time>2026-08-27T16:34:24.401Z</time>
      </trkpt>
      <trkpt lat="53.391560" lon="10.178684">
        <ele>3.510690</ele>
        <time>2026-08-27T16:34:34.839Z</time>
      </trkpt>
      <trkpt lat="53.391641" lon="10.178454">
        <ele>3.499771</ele>
        <time>2026-08-27T16:34:38.179Z</time>
      </trkpt>
      <trkpt lat="53.391926" lon="10.177957">
        <ele>3.471586</ele>
        <time>2026-08-27T16:34:46.782Z</time>
      </trkpt>
      <trkpt lat="53.392171" lon="10.177545">
        <ele>3.447802</ele>
        <time>2026-08-27T16:34:53.999Z</time>
      </trkpt>
      <trkpt lat="53.392374" lon="10.176650">
        <ele>3.408661</ele>
        <time>2026-08-27T16:35:05.904Z</time>
      </trkpt>
      <trkpt lat="53.392508" lon="10.176136">
        <ele>3.402946</ele>
        <time>2026-08-27T16:35:13.037Z</time>
      </trkpt>
      <trkpt lat="53.392628" lon="10.175915">
        <ele>3.399945</ele>
        <time>2026-08-27T16:35:16.806Z</time>
      </trkpt>
      <trkpt lat="53.392761" lon="10.175688">
        <ele>3.396750</ele>
        <time>2026-08-27T16:35:20.810Z</time>
      </trkpt>
      <trkpt lat="53.392835" lon="10.175550">
        <ele>3.394886</ele>
        <time>2026-08-27T16:35:23.118Z</time>
      </trkpt>
      <trkpt lat="53.392888" lon="10.175451">
        <ele>3.393550</ele>
        <time>2026-08-27T16:35:24.776Z</time>
      </trkpt>
      <trkpt lat="53.393132" lon="10.174997">
        <ele>3.387413</ele>
        <time>2026-08-27T16:35:32.370Z</time>
      </trkpt>
      <trkpt lat="53.393208" lon="10.174857">
        <ele>3.385512</ele>
        <time>2026-08-27T16:35:34.699Z</time>
      </trkpt>
      <trkpt lat="53.393740" lon="10.174177">
        <ele>3.394983</ele>
        <time>2026-08-27T16:35:48.839Z</time>
      </trkpt>
      <trkpt lat="53.393810" lon="10.174087">
        <ele>3.401163</ele>
        <time>2026-08-27T16:35:50.736Z</time>
      </trkpt>
      <trkpt lat="53.394042" lon="10.173812">
        <ele>3.421068</ele>
        <time>2026-08-27T16:35:56.760Z</time>
      </trkpt>
      <trkpt lat="53.394466" lon="10.173368">
        <ele>3.456090</ele>
        <time>2026-08-27T16:36:07.276Z</time>
      </trkpt>
      <trkpt lat="53.394586" lon="10.173307">
        <ele>3.464875</ele>
        <time>2026-08-27T16:36:09.961Z</time>
      </trkpt>
      <trkpt lat="53.394707" lon="10.173349">
        <ele>3.473532</ele>
        <time>2026-08-27T16:36:12.610Z</time>
      </trkpt>
      <trkpt lat="53.394992" lon="10.172094">
        <ele>3.536478</ele>
        <time>2026-08-27T16:36:29.817Z</time>
      </trkpt>
      <trkpt lat="53.395148" lon="10.171489">
        <ele>3.571447</ele>
        <time>2026-08-27T16:36:38.050Z</time>
      </trkpt>
      <trkpt lat="53.395260" lon="10.171053">
        <ele>3.596632</ele>
        <time>2026-08-27T16:36:44.016Z</time>
      </trkpt>
      <trkpt lat="53.395588" lon="10.170012">
        <ele>3.659094</ele>
        <time>2026-08-27T16:36:58.921Z</time>
      </trkpt>
      <trkpt lat="53.395782" lon="10.169446">
        <ele>3.722180</ele>
        <time>2026-08-27T16:37:07.236Z</time>
      </trkpt>
      <trkpt lat="53.396004" lon="10.168823">
        <ele>3.797915</ele>
        <time>2026-08-27T16:37:16.569Z</time>
      </trkpt>
      <trkpt lat="53.396121" lon="10.168502">
        <ele>3.837174</ele>
        <time>2026-08-27T16:37:21.423Z</time>
      </trkpt>
      <trkpt lat="53.396406" lon="10.167731">
        <ele>3.931834</ele>
        <time>2026-08-27T16:37:33.012Z</time>
      </trkpt>
      <trkpt lat="53.396827" lon="10.166589">
        <ele>3.972147</ele>
        <time>2026-08-27T16:37:49.978Z</time>
      </trkpt>
      <trkpt lat="53.396957" lon="10.166237">
        <ele>3.968923</ele>
        <time>2026-08-27T16:37:55.164Z</time>
      </trkpt>
      <trkpt lat="53.397170" lon="10.165661">
        <ele>3.963647</ele>
        <time>2026-08-27T16:38:03.620Z</time>
      </trkpt>
      <trkpt lat="53.397824" lon="10.164076">
        <ele>3.948528</ele>
        <time>2026-08-27T16:38:27.776Z</time>
      </trkpt>
      <trkpt lat="53.398092" lon="10.163426">
        <ele>3.942274</ele>
        <time>2026-08-27T16:38:37.713Z</time>
      </trkpt>
      <trkpt lat="53.398453" lon="10.162551">
        <ele>3.933854</ele>
        <time>2026-08-27T16:38:50.982Z</time>
      </trkpt>
      <trkpt lat="53.398831" lon="10.161610">
        <ele>4.092831</ele>
        <time>2026-08-27T16:39:05.291Z</time>
      </trkpt>
      <trkpt lat="53.399081" lon="10.160967">
        <ele>4.235784</ele>
        <time>2026-08-27T16:39:15.135Z</time>
      </trkpt>
      <trkpt lat="53.399657" lon="10.159684">
        <ele>4.505190</ele>
        <time>2026-08-27T16:39:36.231Z</time>
      </trkpt>
      <trkpt lat="53.400052" lon="10.158938">
        <ele>4.557710</ele>
        <time>2026-08-27T16:39:49.272Z</time>
      </trkpt>
      <trkpt lat="53.400252" lon="10.158587">
        <ele>4.583267</ele>
        <time>2026-08-27T16:39:55.449Z</time>
      </trkpt>
      <trkpt lat="53.400890" lon="10.157526">
        <ele>4.601137</ele>
        <time>2026-08-27T16:40:14.024Z</time>
      </trkpt>
      <trkpt lat="53.401319" lon="10.156811">
        <ele>4.335770</ele>
        <time>2026-08-27T16:40:26.010Z</time>
      </trkpt>
      <trkpt lat="53.401965" lon="10.155751">
        <ele>3.939238</ele>
        <time>2026-08-27T16:40:44.406Z</time>
      </trkpt>
      <trkpt lat="53.402333" lon="10.155129">
        <ele>3.804205</ele>
        <time>2026-08-27T16:40:55.050Z</time>
      </trkpt>
      <trkpt lat="53.402852" lon="10.154258">
        <ele>3.680296</ele>
        <time>2026-08-27T16:41:10.247Z</time>
      </trkpt>
      <trkpt lat="53.403069" lon="10.153940">
        <ele>3.631663</ele>
        <time>2026-08-27T16:41:16.272Z</time>
      </trkpt>
      <trkpt lat="53.403887" lon="10.152873">
        <ele>3.598831</ele>
        <time>2026-08-27T16:41:37.981Z</time>
      </trkpt>
      <trkpt lat="53.404465" lon="10.152119">
        <ele>3.646106</ele>
        <time>2026-08-27T16:41:53.674Z</time>
      </trkpt>
      <trkpt lat="53.404659" lon="10.151865">
        <ele>3.661995</ele>
        <time>2026-08-27T16:41:58.937Z</time>
      </trkpt>
      <trkpt lat="53.405024" lon="10.151365">
        <ele>3.721618</ele>
        <time>2026-08-27T16:42:08.942Z</time>
      </trkpt>
      <trkpt lat="53.405214" lon="10.151059">
        <ele>3.768234</ele>
        <time>2026-08-27T16:42:14.508Z</time>
      </trkpt>
      <trkpt lat="53.405363" lon="10.150760">
        <ele>3.809351</ele>
        <time>2026-08-27T16:42:19.509Z</time>
      </trkpt>
      <trkpt lat="53.405473" lon="10.150490">
        <ele>3.843854</ele>
        <time>2026-08-27T16:42:23.754Z</time>
      </trkpt>
      <trkpt lat="53.405735" lon="10.149736">
        <ele>3.935933</ele>
        <time>2026-08-27T16:42:34.997Z</time>
      </trkpt>
      <trkpt lat="53.405926" lon="10.149168">
        <ele>3.990475</ele>
        <time>2026-08-27T16:42:43.272Z</time>
      </trkpt>
      <trkpt lat="53.405967" lon="10.149071">
        <ele>3.986395</ele>
        <time>2026-08-27T16:42:44.763Z</time>
      </trkpt>
      <trkpt lat="53.406118" lon="10.148783">
        <ele>3.973234</ele>
        <time>2026-08-27T16:42:49.641Z</time>
      </trkpt>
      <trkpt lat="53.406975" lon="10.147785">
        <ele>3.913182</ele>
        <time>2026-08-27T16:43:11.575Z</time>
      </trkpt>
      <trkpt lat="53.407121" lon="10.147609">
        <ele>3.902833</ele>
        <time>2026-08-27T16:43:15.250Z</time>
      </trkpt>
      <trkpt lat="53.407166" lon="10.147554">
        <ele>3.899629</ele>
        <time>2026-08-27T16:43:16.380Z</time>
      </trkpt>
      <trkpt lat="53.407374" lon="10.147291">
        <ele>3.870089</ele>
        <time>2026-08-27T16:43:21.694Z</time>
      </trkpt>
      <trkpt lat="53.407636" lon="10.146967">
        <ele>3.804422</ele>
        <time>2026-08-27T16:43:28.365Z</time>
      </trkpt>
      <trkpt lat="53.407975" lon="10.146546">
        <ele>3.719329</ele>
        <time>2026-08-27T16:43:37.031Z</time>
      </trkpt>
      <trkpt lat="53.408242" lon="10.146226">
        <ele>3.653128</ele>
        <time>2026-08-27T16:43:43.787Z</time>
      </trkpt>
      <trkpt lat="53.408577" lon="10.145833">
        <ele>3.570658</ele>
        <time>2026-08-27T16:43:52.283Z</time>
      </trkpt>
      <trkpt lat="53.408936" lon="10.145448">
        <ele>3.571733</ele>
        <time>2026-08-27T16:44:01.262Z</time>
      </trkpt>
      <trkpt lat="53.409485" lon="10.144936">
        <ele>3.702223</ele>
        <time>2026-08-27T16:44:14.775Z</time>
      </trkpt>
      <trkpt lat="53.410223" lon="10.144393">
        <ele>3.869635</ele>
        <time>2026-08-27T16:44:32.291Z</time>
      </trkpt>
      <trkpt lat="53.410535" lon="10.144229">
        <ele>3.866438</ele>
        <time>2026-08-27T16:44:39.380Z</time>
      </trkpt>
      <trkpt lat="53.410693" lon="10.144145">
        <ele>3.833456</ele>
        <time>2026-08-27T16:44:42.923Z</time>
      </trkpt>
      <trkpt lat="53.411020" lon="10.143972">
        <ele>3.765225</ele>
        <time>2026-08-27T16:44:50.095Z</time>
      </trkpt>
      <trkpt lat="53.411301" lon="10.143864">
        <ele>3.707858</ele>
        <time>2026-08-27T16:44:55.969Z</time>
      </trkpt>
      <trkpt lat="53.411607" lon="10.143809">
        <ele>3.646617</ele>
        <time>2026-08-27T16:45:02.167Z</time>
      </trkpt>
      <trkpt lat="53.412356" lon="10.143835">
        <ele>3.523033</ele>
        <time>2026-08-27T16:45:17.297Z</time>
      </trkpt>
      <trkpt lat="53.412594" lon="10.143878">
        <ele>3.501932</ele>
        <time>2026-08-27T16:45:22.167Z</time>
      </trkpt>
      <trkpt lat="53.413307" lon="10.144112">
        <ele>3.437890</ele>
        <time>2026-08-27T16:45:37.279Z</time>
      </trkpt>
      <trkpt lat="53.413544" lon="10.144074">
        <ele>3.416903</ele>
        <time>2026-08-27T16:45:42.374Z</time>
      </trkpt>
      <trkpt lat="53.413811" lon="10.143885">
        <ele>3.391358</ele>
        <time>2026-08-27T16:45:48.672Z</time>
      </trkpt>
      <trkpt lat="53.414125" lon="10.143529">
        <ele>3.515946</ele>
        <time>2026-08-27T16:45:56.930Z</time>
      </trkpt>
      <trkpt lat="53.414316" lon="10.143275">
        <ele>3.621083</ele>
        <time>2026-08-27T16:46:02.237Z</time>
      </trkpt>
      <trkpt lat="53.414746" lon="10.142542">
        <ele>3.885521</ele>
        <time>2026-08-27T16:46:15.422Z</time>
      </trkpt>
      <trkpt lat="53.415323" lon="10.141492">
        <ele>4.292352</ele>
        <time>2026-08-27T16:46:34.264Z</time>
      </trkpt>
      <trkpt lat="53.415403" lon="10.141346">
        <ele>4.365294</ele>
        <time>2026-08-27T16:46:36.886Z</time>
      </trkpt>
      <trkpt lat="53.415382" lon="10.141265">
        <ele>4.397781</ele>
        <time>2026-08-27T16:46:38.060Z</time>
      </trkpt>
      <trkpt lat="53.415394" lon="10.141115">
        <ele>4.453444</ele>
        <time>2026-08-27T16:46:40.041Z</time>
      </trkpt>
      <trkpt lat="53.415565" lon="10.140668">
        <ele>4.648797</ele>
        <time>2026-08-27T16:46:47.047Z</time>
      </trkpt>
      <trkpt lat="53.415641" lon="10.140474">
        <ele>4.734180</ele>
        <time>2026-08-27T16:46:50.111Z</time>
      </trkpt>
      <trkpt lat="53.415896" lon="10.139803">
        <ele>5.026864</ele>
        <time>2026-08-27T16:47:00.683Z</time>
      </trkpt>
      <trkpt lat="53.415977" lon="10.139462">
        <ele>5.161871</ele>
        <time>2026-08-27T16:47:05.692Z</time>
      </trkpt>
      <trkpt lat="53.416080" lon="10.138995">
        <ele>5.266306</ele>
        <time>2026-08-27T16:47:12.414Z</time>
      </trkpt>
      <trkpt lat="53.416346" lon="10.138179">
        <ele>5.246661</ele>
        <time>2026-08-27T16:47:24.774Z</time>
      </trkpt>
      <trkpt lat="53.416488" lon="10.137666">
        <ele>5.234715</ele>
        <time>2026-08-27T16:47:32.200Z</time>
      </trkpt>
      <trkpt lat="53.416621" lon="10.137147">
        <ele>5.222782</ele>
        <time>2026-08-27T16:47:39.518Z</time>
      </trkpt>
      <trkpt lat="53.416702" lon="10.136695">
        <ele>5.212813</ele>
        <time>2026-08-27T16:47:45.508Z</time>
      </trkpt>
      <trkpt lat="53.416820" lon="10.135758">
        <ele>4.811459</ele>
        <time>2026-08-27T16:47:57.310Z</time>
      </trkpt>
      <trkpt lat="53.416894" lon="10.135393">
        <ele>4.585569</ele>
        <time>2026-08-27T16:48:01.992Z</time>
      </trkpt>
      <trkpt lat="53.415633" lon="10.134348">
        <ele>3.258956</ele>
        <time>2026-08-27T16:48:28.810Z</time>
      </trkpt>
      <trkpt lat="53.415531" lon="10.134262">
        <ele>3.173403</ele>
        <time>2026-08-27T16:48:31.018Z</time>
      </trkpt>
      <trkpt lat="53.415195" lon="10.133943">
        <ele>2.884069</ele>
        <time>2026-08-27T16:48:38.576Z</time>
      </trkpt>
      <trkpt lat="53.414870" lon="10.133501">
        <ele>2.570530</ele>
        <time>2026-08-27T16:48:46.925Z</time>
      </trkpt>
      <trkpt lat="53.413366" lon="10.131184">
        <ele>1.425397</ele>
        <time>2026-08-27T16:49:29.965Z</time>
      </trkpt>
      <trkpt lat="53.412425" lon="10.129995">
        <ele>1.022641</ele>
        <time>2026-08-27T16:49:54.915Z</time>
      </trkpt>
      <trkpt lat="53.411582" lon="10.129082">
        <ele>0.747331</ele>
        <time>2026-08-27T16:50:16.558Z</time>
      </trkpt>
      <trkpt lat="53.410416" lon="10.127667">
        <ele>0.709021</ele>
        <time>2026-08-27T16:50:48.172Z</time>
      </trkpt>
      <trkpt lat="53.410840" lon="10.126447">
        <ele>0.700692</ele>
        <time>2026-08-27T16:51:06.681Z</time>
      </trkpt>
      <trkpt lat="53.410877" lon="10.126216">
        <ele>0.700902</ele>
        <time>2026-08-27T16:51:09.813Z</time>
      </trkpt>
      <trkpt lat="53.410832" lon="10.124700">
        <ele>0.702240</ele>
        <time>2026-08-27T16:51:29.617Z</time>
      </trkpt>
      <trkpt lat="53.410861" lon="10.124084">
        <ele>0.705815</ele>
        <time>2026-08-27T16:51:37.700Z</time>
      </trkpt>
      <trkpt lat="53.410863" lon="10.124038">
        <ele>0.706837</ele>
        <time>2026-08-27T16:51:38.298Z</time>
      </trkpt>
      <trkpt lat="53.411005" lon="10.123356">
        <ele>0.722844</ele>
        <time>2026-08-27T16:51:47.779Z</time>
      </trkpt>
      <trkpt lat="53.411642" lon="10.121402">
        <ele>0.767819</ele>
        <time>2026-08-27T16:52:17.018Z</time>
      </trkpt>
      <trkpt lat="53.411713" lon="10.121365">
        <ele>0.766060</ele>
        <time>2026-08-27T16:52:18.646Z</time>
      </trkpt>
      <trkpt lat="53.412916" lon="10.122781">
        <ele>0.731288</ele>
        <time>2026-08-27T16:52:50.779Z</time>
      </trkpt>
      <trkpt lat="53.414033" lon="10.120229">
        <ele>0.824691</ele>
        <time>2026-08-27T16:53:32.270Z</time>
      </trkpt>
      <trkpt lat="53.414365" lon="10.119470">
        <ele>0.830029</ele>
        <time>2026-08-27T16:53:44.779Z</time>
      </trkpt>
      <trkpt lat="53.415036" lon="10.120214">
        <ele>0.829905</ele>
        <time>2026-08-27T16:54:02.512Z</time>
      </trkpt>
      <trkpt lat="53.415566" lon="10.119119">
        <ele>0.822433</ele>
        <time>2026-08-27T16:54:20.762Z</time>
      </trkpt>
      <trkpt lat="53.416184" lon="10.118677">
        <ele>0.806578</ele>
        <time>2026-08-27T16:54:35.296Z</time>
      </trkpt>
      <trkpt lat="53.416336" lon="10.118428">
        <ele>0.801564</ele>
        <time>2026-08-27T16:54:39.949Z</time>
      </trkpt>
      <trkpt lat="53.416549" lon="10.117680">
        <ele>0.789904</ele>
        <time>2026-08-27T16:54:50.855Z</time>
      </trkpt>
      <trkpt lat="53.416731" lon="10.117402">
        <ele>0.826979</ele>
        <time>2026-08-27T16:54:56.343Z</time>
      </trkpt>
      <trkpt lat="53.416983" lon="10.117149">
        <ele>0.910673</ele>
        <time>2026-08-27T16:55:02.905Z</time>
      </trkpt>
      <trkpt lat="53.417207" lon="10.116820">
        <ele>0.995515</ele>
        <time>2026-08-27T16:55:09.573Z</time>
      </trkpt>
      <trkpt lat="53.417473" lon="10.116290">
        <ele>1.113205</ele>
        <time>2026-08-27T16:55:18.843Z</time>
      </trkpt>
      <trkpt lat="53.417536" lon="10.116014">
        <ele>1.163405</ele>
        <time>2026-08-27T16:55:22.808Z</time>
      </trkpt>
      <trkpt lat="53.417582" lon="10.115187">
        <ele>1.305811</ele>
        <time>2026-08-27T16:55:33.925Z</time>
      </trkpt>
      <trkpt lat="53.417623" lon="10.114904">
        <ele>1.369873</ele>
        <time>2026-08-27T16:55:37.826Z</time>
      </trkpt>
      <trkpt lat="53.417878" lon="10.114183">
        <ele>1.554288</ele>
        <time>2026-08-27T16:55:49.146Z</time>
      </trkpt>
      <trkpt lat="53.418441" lon="10.114800">
        <ele>1.802473</ele>
        <time>2026-08-27T16:56:04.354Z</time>
      </trkpt>
      <trkpt lat="53.418816" lon="10.114841">
        <ele>1.941170</ele>
        <time>2026-08-27T16:56:12.776Z</time>
      </trkpt>
      <trkpt lat="53.419054" lon="10.114933">
        <ele>1.998430</ele>
        <time>2026-08-27T16:56:18.045Z</time>
      </trkpt>
      <trkpt lat="53.419489" lon="10.115279">
        <ele>2.089541</ele>
        <time>2026-08-27T16:56:28.297Z</time>
      </trkpt>
      <trkpt lat="53.419547" lon="10.115189">
        <ele>2.104492</ele>
        <time>2026-08-27T16:56:29.960Z</time>
      </trkpt>
      <trkpt lat="53.419610" lon="10.114852">
        <ele>2.144329</ele>
        <time>2026-08-27T16:56:34.404Z</time>
      </trkpt>
      <trkpt lat="53.419885" lon="10.114758">
        <ele>2.197445</ele>
        <time>2026-08-27T16:56:40.278Z</time>
      </trkpt>
      <trkpt lat="53.420027" lon="10.114614">
        <ele>2.228847</ele>
        <time>2026-08-27T16:56:43.795Z</time>
      </trkpt>
      <trkpt lat="53.420162" lon="10.114802">
        <ele>2.262050</ele>
        <time>2026-08-27T16:56:47.536Z</time>
      </trkpt>
      <trkpt lat="53.420290" lon="10.114931">
        <ele>2.290310</ele>
        <time>2026-08-27T16:56:50.760Z</time>
      </trkpt>
      <trkpt lat="53.421868" lon="10.116397">
        <ele>3.342393</ele>
        <time>2026-08-27T16:57:30.844Z</time>
      </trkpt>
      <trkpt lat="53.421963" lon="10.116045">
        <ele>3.378952</ele>
        <time>2026-08-27T16:57:35.915Z</time>
      </trkpt>
      <trkpt lat="53.422085" lon="10.115947">
        <ele>3.375134</ele>
        <time>2026-08-27T16:57:38.857Z</time>
      </trkpt>
      <trkpt lat="53.422521" lon="10.113807">
        <ele>3.337092</ele>
        <time>2026-08-27T16:58:06.863Z</time>
      </trkpt>
      <trkpt lat="53.422584" lon="10.113498">
        <ele>3.328996</ele>
        <time>2026-08-27T16:58:10.814Z</time>
      </trkpt>
      <trkpt lat="53.422713" lon="10.112878">
        <ele>3.292917</ele>
        <time>2026-08-27T16:58:18.789Z</time>
      </trkpt>
      <trkpt lat="53.422956" lon="10.111709">
        <ele>3.224898</ele>
        <time>2026-08-27T16:58:33.970Z</time>
      </trkpt>
      <trkpt lat="53.423280" lon="10.110158">
        <ele>3.283196</ele>
        <time>2026-08-27T16:58:55.806Z</time>
      </trkpt>
      <trkpt lat="53.423376" lon="10.109574">
        <ele>3.402937</ele>
        <time>2026-08-27T16:59:04.008Z</time>
      </trkpt>
      <trkpt lat="53.423422" lon="10.108919">
        <ele>3.533295</ele>
        <time>2026-08-27T16:59:12.923Z</time>
      </trkpt>
      <trkpt lat="53.423403" lon="10.108232">
        <ele>3.669229</ele>
        <time>2026-08-27T16:59:22.142Z</time>
      </trkpt>
      <trkpt lat="53.423303" lon="10.107562">
        <ele>3.747984</ele>
        <time>2026-08-27T16:59:31.374Z</time>
      </trkpt>
      <trkpt lat="53.423123" lon="10.107574">
        <ele>3.726014</ele>
        <time>2026-08-27T16:59:35.287Z</time>
      </trkpt>
      <trkpt lat="53.423054" lon="10.107333">
        <ele>3.706584</ele>
        <time>2026-08-27T16:59:38.698Z</time>
      </trkpt>
      <trkpt lat="53.422979" lon="10.106935">
        <ele>3.676248</ele>
        <time>2026-08-27T16:59:43.945Z</time>
      </trkpt>
      <trkpt lat="53.422921" lon="10.106627">
        <ele>3.652774</ele>
        <time>2026-08-27T16:59:47.916Z</time>
      </trkpt>
      <trkpt lat="53.422915" lon="10.106444">
        <ele>3.639454</ele>
        <time>2026-08-27T16:59:50.145Z</time>
      </trkpt>
      <trkpt lat="53.422838" lon="10.106415">
        <ele>3.629830</ele>
        <time>2026-08-27T16:59:51.740Z</time>
      </trkpt>
      <trkpt lat="53.422915" lon="10.106444">
        <ele>3.620206</ele>
        <time>2026-08-27T16:59:53.345Z</time>
      </trkpt>
      <trkpt lat="53.423119" lon="10.106360">
        <ele>3.594589</ele>
        <time>2026-08-27T16:59:57.563Z</time>
      </trkpt>
      <trkpt lat="53.423119" lon="10.105525">
        <ele>3.514047</ele>
        <time>2026-08-27T17:00:08.179Z</time>
      </trkpt>
      <trkpt lat="53.423175" lon="10.105005">
        <ele>3.401249</ele>
        <time>2026-08-27T17:00:14.949Z</time>
      </trkpt>
      <trkpt lat="53.423264" lon="10.104534">
        <ele>3.295775</ele>
        <time>2026-08-27T17:00:21.234Z</time>
      </trkpt>
      <trkpt lat="53.423436" lon="10.103942">
        <ele>3.155187</ele>
        <time>2026-08-27T17:00:29.478Z</time>
      </trkpt>
      <trkpt lat="53.423515" lon="10.103696">
        <ele>3.095536</ele>
        <time>2026-08-27T17:00:33.001Z</time>
      </trkpt>
      <trkpt lat="53.423563" lon="10.103561">
        <ele>3.061979</ele>
        <time>2026-08-27T17:00:34.993Z</time>
      </trkpt>
      <trkpt lat="53.423789" lon="10.103138">
        <ele>2.940707</ele>
        <time>2026-08-27T17:00:42.249Z</time>
      </trkpt>
      <trkpt lat="53.424043" lon="10.102793">
        <ele>2.859757</ele>
        <time>2026-08-27T17:00:49.299Z</time>
      </trkpt>
      <trkpt lat="53.424350" lon="10.102474">
        <ele>2.791694</ele>
        <time>2026-08-27T17:00:57.128Z</time>
      </trkpt>
      <trkpt lat="53.425112" lon="10.101906">
        <ele>2.634529</ele>
        <time>2026-08-27T17:01:15.117Z</time>
      </trkpt>
      <trkpt lat="53.425628" lon="10.101579">
        <ele>2.581064</ele>
        <time>2026-08-27T17:01:27.092Z</time>
      </trkpt>
      <trkpt lat="53.426330" lon="10.101135">
        <ele>2.675680</ele>
        <time>2026-08-27T17:01:43.572Z</time>
      </trkpt>
      <trkpt lat="53.427442" lon="10.100594">
        <ele>2.871692</ele>
        <time>2026-08-27T17:02:09.439Z</time>
      </trkpt>
      <trkpt lat="53.427914" lon="10.100392">
        <ele>3.023363</ele>
        <time>2026-08-27T17:02:20.621Z</time>
      </trkpt>
      <trkpt lat="53.428000" lon="10.100355">
        <ele>3.051007</ele>
        <time>2026-08-27T17:02:22.622Z</time>
      </trkpt>
      <trkpt lat="53.428519" lon="10.100134">
        <ele>3.217729</ele>
        <time>2026-08-27T17:02:34.614Z</time>
      </trkpt>
      <trkpt lat="53.428569" lon="10.100113">
        <ele>3.233778</ele>
        <time>2026-08-27T17:02:35.747Z</time>
      </trkpt>
      <trkpt lat="53.428589" lon="10.100105">
        <ele>3.240180</ele>
        <time>2026-08-27T17:02:36.193Z</time>
      </trkpt>
      <trkpt lat="53.428909" lon="10.099985">
        <ele>3.342276</ele>
        <time>2026-08-27T17:02:43.444Z</time>
      </trkpt>
      <trkpt lat="53.429740" lon="10.099756">
        <ele>3.170532</ele>
        <time>2026-08-27T17:03:01.037Z</time>
      </trkpt>
      <trkpt lat="53.430492" lon="10.099638">
        <ele>3.008258</ele>
        <time>2026-08-27T17:03:16.351Z</time>
      </trkpt>
      <trkpt lat="53.431111" lon="10.099600">
        <ele>2.978877</ele>
        <time>2026-08-27T17:03:29.062Z</time>
      </trkpt>
      <trkpt lat="53.431913" lon="10.099581">
        <ele>3.014121</ele>
        <time>2026-08-27T17:03:45.956Z</time>
      </trkpt>
      <trkpt lat="53.432108" lon="10.099550">
        <ele>3.022728</ele>
        <time>2026-08-27T17:03:50.150Z</time>
      </trkpt>
      <trkpt lat="53.432360" lon="10.099424">
        <ele>3.034282</ele>
        <time>2026-08-27T17:03:55.901Z</time>
      </trkpt>
      <trkpt lat="53.432550" lon="10.099274">
        <ele>3.077320</ele>
        <time>2026-08-27T17:04:00.518Z</time>
      </trkpt>
      <trkpt lat="53.432744" lon="10.099030">
        <ele>3.200361</ele>
        <time>2026-08-27T17:04:05.845Z</time>
      </trkpt>
      <trkpt lat="53.433066" lon="10.098558">
        <ele>3.417339</ele>
        <time>2026-08-27T17:04:15.258Z</time>
      </trkpt>
      <trkpt lat="53.433331" lon="10.098203">
        <ele>3.589424</ele>
        <time>2026-08-27T17:04:22.752Z</time>
      </trkpt>
      <trkpt lat="53.433322" lon="10.097955">
        <ele>3.664553</ele>
        <time>2026-08-27T17:04:26.008Z</time>
      </trkpt>
      <trkpt lat="53.433344" lon="10.097857">
        <ele>3.696220</ele>
        <time>2026-08-27T17:04:27.374Z</time>
      </trkpt>
      <trkpt lat="53.433576" lon="10.097482">
        <ele>3.859691</ele>
        <time>2026-08-27T17:04:34.452Z</time>
      </trkpt>
      <trkpt lat="53.434003" lon="10.096649">
        <ele>4.026209</ele>
        <time>2026-08-27T17:04:48.702Z</time>
      </trkpt>
      <trkpt lat="53.434459" lon="10.095974">
        <ele>4.120558</ele>
        <time>2026-08-27T17:05:01.767Z</time>
      </trkpt>
      <trkpt lat="53.434563" lon="10.095934">
        <ele>4.137115</ele>
        <time>2026-08-27T17:05:04.067Z</time>
      </trkpt>
      <trkpt lat="53.434679" lon="10.095889">
        <ele>4.155591</ele>
        <time>2026-08-27T17:05:06.610Z</time>
      </trkpt>
      <trkpt lat="53.434727" lon="10.095833">
        <ele>4.164662</ele>
        <time>2026-08-27T17:05:07.869Z</time>
      </trkpt>
      <trkpt lat="53.434795" lon="10.095642">
        <ele>4.185233</ele>
        <time>2026-08-27T17:05:10.677Z</time>
      </trkpt>
      <trkpt lat="53.434940" lon="10.095688">
        <ele>4.208133</ele>
        <time>2026-08-27T17:05:13.786Z</time>
      </trkpt>
      <trkpt lat="53.435170" lon="10.095644">
        <ele>4.208248</ele>
        <time>2026-08-27T17:05:18.531Z</time>
      </trkpt>
      <trkpt lat="53.435363" lon="10.095650">
        <ele>4.146765</ele>
        <time>2026-08-27T17:05:22.412Z</time>
      </trkpt>
      <trkpt lat="53.435460" lon="10.095706">
        <ele>4.114093</ele>
        <time>2026-08-27T17:05:24.469Z</time>
      </trkpt>
      <trkpt lat="53.435556" lon="10.095820">
        <ele>4.076638</ele>
        <time>2026-08-27T17:05:26.810Z</time>
      </trkpt>
      <trkpt lat="53.435827" lon="10.096366">
        <ele>3.941790</ele>
        <time>2026-08-27T17:05:35.370Z</time>
      </trkpt>
      <trkpt lat="53.436209" lon="10.096100">
        <ele>3.810065</ele>
        <time>2026-08-27T17:05:43.821Z</time>
      </trkpt>
      <trkpt lat="53.436584" lon="10.095839">
        <ele>3.680763</ele>
        <time>2026-08-27T17:05:52.147Z</time>
      </trkpt>
      <trkpt lat="53.436847" lon="10.095656">
        <ele>3.661208</ele>
        <time>2026-08-27T17:05:58.085Z</time>
      </trkpt>
      <trkpt lat="53.436833" lon="10.095504">
        <ele>3.661955</ele>
        <time>2026-08-27T17:06:00.016Z</time>
      </trkpt>
      <trkpt lat="53.436845" lon="10.095350">
        <ele>3.662709</ele>
        <time>2026-08-27T17:06:01.960Z</time>
      </trkpt>
      <trkpt lat="53.436911" lon="10.095179">
        <ele>3.663697</ele>
        <time>2026-08-27T17:06:04.518Z</time>
      </trkpt>
      <trkpt lat="53.437029" lon="10.094803">
        <ele>3.665760</ele>
        <time>2026-08-27T17:06:09.934Z</time>
      </trkpt>
      <trkpt lat="53.437152" lon="10.094432">
        <ele>3.667821</ele>
        <time>2026-08-27T17:06:15.319Z</time>
      </trkpt>
      <trkpt lat="53.437419" lon="10.094026">
        <ele>3.670756</ele>
        <time>2026-08-27T17:06:22.991Z</time>
      </trkpt>
      <trkpt lat="53.437574" lon="10.093804">
        <ele>3.672416</ele>
        <time>2026-08-27T17:06:27.310Z</time>
      </trkpt>
      <trkpt lat="53.437869" lon="10.093379">
        <ele>3.641091</ele>
        <time>2026-08-27T17:06:35.606Z</time>
      </trkpt>
      <trkpt lat="53.438101" lon="10.093119">
        <ele>3.590917</ele>
        <time>2026-08-27T17:06:41.447Z</time>
      </trkpt>
      <trkpt lat="53.438304" lon="10.093006">
        <ele>3.552450</ele>
        <time>2026-08-27T17:06:45.849Z</time>
      </trkpt>
      <trkpt lat="53.438615" lon="10.092886">
        <ele>3.495053</ele>
        <time>2026-08-27T17:06:52.394Z</time>
      </trkpt>
      <trkpt lat="53.438738" lon="10.092772">
        <ele>3.469781</ele>
        <time>2026-08-27T17:06:55.279Z</time>
      </trkpt>
      <trkpt lat="53.438977" lon="10.092297">
        <ele>3.403163</ele>
        <time>2026-08-27T17:07:08.112Z</time>
      </trkpt>
      <trkpt lat="53.439636" lon="10.090991">
        <ele>3.350194</ele>
        <time>2026-08-27T17:07:43.399Z</time>
      </trkpt>
      <trkpt lat="53.440426" lon="10.089417">
        <ele>3.358867</ele>
        <time>2026-08-27T17:08:25.778Z</time>
      </trkpt>
      <trkpt lat="53.440519" lon="10.089174">
        <ele>3.369145</ele>
        <time>2026-08-27T17:08:31.722Z</time>
      </trkpt>
      <trkpt lat="53.440598" lon="10.088842">
        <ele>3.381867</ele>
        <time>2026-08-27T17:08:36.424Z</time>
      </trkpt>
      <trkpt lat="53.440603" lon="10.088580">
        <ele>3.391194</ele>
        <time>2026-08-27T17:08:39.865Z</time>
      </trkpt>
      <trkpt lat="53.440531" lon="10.088201">
        <ele>3.405350</ele>
        <time>2026-08-27T17:08:45.070Z</time>
      </trkpt>
      <trkpt lat="53.440478" lon="10.087988">
        <ele>3.413564</ele>
        <time>2026-08-27T17:08:48.081Z</time>
      </trkpt>
      <trkpt lat="53.440442" lon="10.087580">
        <ele>3.428241</ele>
        <time>2026-08-27T17:08:53.426Z</time>
      </trkpt>
      <trkpt lat="53.440464" lon="10.087012">
        <ele>3.448495</ele>
        <time>2026-08-27T17:09:00.824Z</time>
      </trkpt>
      <trkpt lat="53.440486" lon="10.086004">
        <ele>3.510609</ele>
        <time>2026-08-27T17:09:14.246Z</time>
      </trkpt>
      <trkpt lat="53.440585" lon="10.084278">
        <ele>3.631564</ele>
        <time>2026-08-27T17:09:37.442Z</time>
      </trkpt>
      <trkpt lat="53.440622" lon="10.083673">
        <ele>3.628447</ele>
        <time>2026-08-27T17:09:45.366Z</time>
      </trkpt>
      <trkpt lat="53.440667" lon="10.083309">
        <ele>3.466054</ele>
        <time>2026-08-27T17:09:50.085Z</time>
      </trkpt>
      <trkpt lat="53.440869" lon="10.082501">
        <ele>3.083271</ele>
        <time>2026-08-27T17:10:01.030Z</time>
      </trkpt>
      <trkpt lat="53.441004" lon="10.081995">
        <ele>2.841079</ele>
        <time>2026-08-27T17:10:07.794Z</time>
      </trkpt>
      <trkpt lat="53.440977" lon="10.081811">
        <ele>2.758301</ele>
        <time>2026-08-27T17:10:10.063Z</time>
      </trkpt>
      <trkpt lat="53.440926" lon="10.081737">
        <ele>2.708866</ele>
        <time>2026-08-27T17:10:11.410Z</time>
      </trkpt>
      <trkpt lat="53.440599" lon="10.081487">
        <ele>2.445364</ele>
        <time>2026-08-27T17:10:18.563Z</time>
      </trkpt>
      <trkpt lat="53.439660" lon="10.081021">
        <ele>1.619658</ele>
        <time>2026-08-27T17:10:37.273Z</time>
      </trkpt>
      <trkpt lat="53.439320" lon="10.080689">
        <ele>1.281244</ele>
        <time>2026-08-27T17:10:44.980Z</time>
      </trkpt>
      <trkpt lat="53.439092" lon="10.080466">
        <ele>1.054214</ele>
        <time>2026-08-27T17:10:50.226Z</time>
      </trkpt>
      <trkpt lat="53.438506" lon="10.080388">
        <ele>0.742767</ele>
        <time>2026-08-27T17:11:02.140Z</time>
      </trkpt>
      <trkpt lat="53.438247" lon="10.080250">
        <ele>0.688743</ele>
        <time>2026-08-27T17:11:07.725Z</time>
      </trkpt>
      <trkpt lat="53.437980" lon="10.080008">
        <ele>0.628417</ele>
        <time>2026-08-27T17:11:14.018Z</time>
      </trkpt>
      <trkpt lat="53.437339" lon="10.074582">
        <ele>0.339347</ele>
        <time>2026-08-27T17:12:23.152Z</time>
      </trkpt>
      <trkpt lat="53.444279" lon="10.064259">
        <ele>0.573738</ele>
        <time>2026-08-27T17:15:38.761Z</time>
      </trkpt>
      <trkpt lat="53.444468" lon="10.063978">
        <ele>0.628230</ele>
        <time>2026-08-27T17:15:44.197Z</time>
      </trkpt>
      <trkpt lat="53.445046" lon="10.064604">
        <ele>0.776695</ele>
        <time>2026-08-27T17:15:59.175Z</time>
      </trkpt>
      <trkpt lat="53.445489" lon="10.064922">
        <ele>0.923791</ele>
        <time>2026-08-27T17:16:09.754Z</time>
      </trkpt>
      <trkpt lat="53.445768" lon="10.065144">
        <ele>1.018798</ele>
        <time>2026-08-27T17:16:16.540Z</time>
      </trkpt>
      <trkpt lat="53.446439" lon="10.065876">
        <ele>1.265032</ele>
        <time>2026-08-27T17:16:33.947Z</time>
      </trkpt>
      <trkpt lat="53.447208" lon="10.066709">
        <ele>1.047297</ele>
        <time>2026-08-27T17:16:52.717Z</time>
      </trkpt>
      <trkpt lat="53.447342" lon="10.066802">
        <ele>0.987678</ele>
        <time>2026-08-27T17:16:55.545Z</time>
      </trkpt>
      <trkpt lat="53.447499" lon="10.066808">
        <ele>0.923106</ele>
        <time>2026-08-27T17:16:58.591Z</time>
      </trkpt>
      <trkpt lat="53.447732" lon="10.066817">
        <ele>0.827275</ele>
        <time>2026-08-27T17:17:03.163Z</time>
      </trkpt>
      <trkpt lat="53.447901" lon="10.066898">
        <ele>0.755010</ele>
        <time>2026-08-27T17:17:06.666Z</time>
      </trkpt>
      <trkpt lat="53.448392" lon="10.067431">
        <ele>0.700117</ele>
        <time>2026-08-27T17:17:18.566Z</time>
      </trkpt>
      <trkpt lat="53.449681" lon="10.068792">
        <ele>1.549342</ele>
        <time>2026-08-27T17:17:52.436Z</time>
      </trkpt>
      <trkpt lat="53.451276" lon="10.070497">
        <ele>3.081637</ele>
        <time>2026-08-27T17:18:34.768Z</time>
      </trkpt>
      <trkpt lat="53.451354" lon="10.070619">
        <ele>3.112328</ele>
        <time>2026-08-27T17:18:37.118Z</time>
      </trkpt>
      <trkpt lat="53.451631" lon="10.070253">
        <ele>3.213812</ele>
        <time>2026-08-27T17:18:44.794Z</time>
      </trkpt>
      <trkpt lat="53.452099" lon="10.069620">
        <ele>3.386835</ele>
        <time>2026-08-27T17:18:57.765Z</time>
      </trkpt>
      <trkpt lat="53.453317" lon="10.067915">
        <ele>3.577059</ele>
        <time>2026-08-27T17:19:31.303Z</time>
      </trkpt>
      <trkpt lat="53.454079" lon="10.066823">
        <ele>3.564672</ele>
        <time>2026-08-27T17:19:52.284Z</time>
      </trkpt>
      <trkpt lat="53.454558" lon="10.065998">
        <ele>3.683565</ele>
        <time>2026-08-27T17:20:06.858Z</time>
      </trkpt>
      <trkpt lat="53.454809" lon="10.065397">
        <ele>3.759309</ele>
        <time>2026-08-27T17:20:16.324Z</time>
      </trkpt>
      <trkpt lat="53.455359" lon="10.064037">
        <ele>3.871703</ele>
        <time>2026-08-27T17:20:37.396Z</time>
      </trkpt>
      <trkpt lat="53.456117" lon="10.062318">
        <ele>3.890607</ele>
        <time>2026-08-27T17:21:04.196Z</time>
      </trkpt>
      <trkpt lat="53.456509" lon="10.061482">
        <ele>3.670694</ele>
        <time>2026-08-27T17:21:17.275Z</time>
      </trkpt>
      <trkpt lat="53.456905" lon="10.060635">
        <ele>3.367276</ele>
        <time>2026-08-27T17:21:30.168Z</time>
      </trkpt>
      <trkpt lat="53.457556" lon="10.059199">
        <ele>3.018969</ele>
        <time>2026-08-27T17:21:51.571Z</time>
      </trkpt>
      <trkpt lat="53.460723" lon="10.052707">
        <ele>2.895919</ele>
        <time>2026-08-27T17:23:37.180Z</time>
      </trkpt>
      <trkpt lat="53.461204" lon="10.051825">
        <ele>3.061174</ele>
        <time>2026-08-27T17:23:52.258Z</time>
      </trkpt>
      <trkpt lat="53.461661" lon="10.051063">
        <ele>3.212712</ele>
        <time>2026-08-27T17:24:06.285Z</time>
      </trkpt>
      <trkpt lat="53.461829" lon="10.050812">
        <ele>3.265625</ele>
        <time>2026-08-27T17:24:11.207Z</time>
      </trkpt>
      <trkpt lat="53.461898" lon="10.050708">
        <ele>3.287441</ele>
        <time>2026-08-27T17:24:13.243Z</time>
      </trkpt>
      <trkpt lat="53.462213" lon="10.050322">
        <ele>3.243404</ele>
        <time>2026-08-27T17:24:21.690Z</time>
      </trkpt>
      <trkpt lat="53.462344" lon="10.050189">
        <ele>3.197304</ele>
        <time>2026-08-27T17:24:24.933Z</time>
      </trkpt>
      <trkpt lat="53.462409" lon="10.050130">
        <ele>3.175053</ele>
        <time>2026-08-27T17:24:26.464Z</time>
      </trkpt>
      <trkpt lat="53.462609" lon="10.049987">
        <ele>3.109589</ele>
        <time>2026-08-27T17:24:30.997Z</time>
      </trkpt>
      <trkpt lat="53.462817" lon="10.049811">
        <ele>3.039447</ele>
        <time>2026-08-27T17:24:35.771Z</time>
      </trkpt>
      <trkpt lat="53.462905" lon="10.049743">
        <ele>3.010274</ele>
        <time>2026-08-27T17:24:37.716Z</time>
      </trkpt>
      <trkpt lat="53.463028" lon="10.049640">
        <ele>2.968882</ele>
        <time>2026-08-27T17:24:40.475Z</time>
      </trkpt>
      <trkpt lat="53.463506" lon="10.049157">
        <ele>2.800883</ele>
        <time>2026-08-27T17:24:51.524Z</time>
      </trkpt>
      <trkpt lat="53.463646" lon="10.049005">
        <ele>2.760515</ele>
        <time>2026-08-27T17:24:54.805Z</time>
      </trkpt>
      <trkpt lat="53.463583" lon="10.048682">
        <ele>2.721561</ele>
        <time>2026-08-27T17:24:58.794Z</time>
      </trkpt>
      <trkpt lat="53.463638" lon="10.048564">
        <ele>2.704386</ele>
        <time>2026-08-27T17:25:00.544Z</time>
      </trkpt>
      <trkpt lat="53.464193" lon="10.047742">
        <ele>2.561943</ele>
        <time>2026-08-27T17:25:15.656Z</time>
      </trkpt>
      <trkpt lat="53.464472" lon="10.047434">
        <ele>2.497673</ele>
        <time>2026-08-27T17:25:22.876Z</time>
      </trkpt>
      <trkpt lat="53.464751" lon="10.047206">
        <ele>2.437944</ele>
        <time>2026-08-27T17:25:29.707Z</time>
      </trkpt>
      <trkpt lat="53.464998" lon="10.047039">
        <ele>2.519704</ele>
        <time>2026-08-27T17:25:35.450Z</time>
      </trkpt>
      <trkpt lat="53.465499" lon="10.046791">
        <ele>2.716363</ele>
        <time>2026-08-27T17:25:46.653Z</time>
      </trkpt>
      <trkpt lat="53.465620" lon="10.046722">
        <ele>2.764476</ele>
        <time>2026-08-27T17:25:49.432Z</time>
      </trkpt>
      <trkpt lat="53.465655" lon="10.046702">
        <ele>2.778396</ele>
        <time>2026-08-27T17:25:50.233Z</time>
      </trkpt>
      <trkpt lat="53.465772" lon="10.046768">
        <ele>2.824867</ele>
        <time>2026-08-27T17:25:52.960Z</time>
      </trkpt>
      <trkpt lat="53.466040" lon="10.046433">
        <ele>2.950648</ele>
        <time>2026-08-27T17:26:00.298Z</time>
      </trkpt>
      <trkpt lat="53.466302" lon="10.046022">
        <ele>3.085623</ele>
        <time>2026-08-27T17:26:08.113Z</time>
      </trkpt>
      <trkpt lat="53.466553" lon="10.045570">
        <ele>3.127542</ele>
        <time>2026-08-27T17:26:16.086Z</time>
      </trkpt>
      <trkpt lat="53.466458" lon="10.045406">
        <ele>3.135828</ele>
        <time>2026-08-27T17:26:19.012Z</time>
      </trkpt>
      <trkpt lat="53.466437" lon="10.045315">
        <ele>3.139363</ele>
        <time>2026-08-27T17:26:20.250Z</time>
      </trkpt>
      <trkpt lat="53.466463" lon="10.044727">
        <ele>3.160715</ele>
        <time>2026-08-27T17:26:27.835Z</time>
      </trkpt>
      <trkpt lat="53.466533" lon="10.043965">
        <ele>3.188637</ele>
        <time>2026-08-27T17:26:37.562Z</time>
      </trkpt>
      <trkpt lat="53.466754" lon="10.042071">
        <ele>3.116522</ele>
        <time>2026-08-27T17:27:01.007Z</time>
      </trkpt>
      <trkpt lat="53.467301" lon="10.039021">
        <ele>2.951645</ele>
        <time>2026-08-27T17:27:40.875Z</time>
      </trkpt>
      <trkpt lat="53.467495" lon="10.038009">
        <ele>2.960401</ele>
        <time>2026-08-27T17:27:54.404Z</time>
      </trkpt>
      <trkpt lat="53.467726" lon="10.036965">
        <ele>2.991101</ele>
        <time>2026-08-27T17:28:08.279Z</time>
      </trkpt>
      <trkpt lat="53.467928" lon="10.036293">
        <ele>3.035054</ele>
        <time>2026-08-27T17:28:17.606Z</time>
      </trkpt>
      <trkpt lat="53.468018" lon="10.036066">
        <ele>3.050978</ele>
        <time>2026-08-27T17:28:20.964Z</time>
      </trkpt>
      <trkpt lat="53.468042" lon="10.036001">
        <ele>3.055444</ele>
        <time>2026-08-27T17:28:21.914Z</time>
      </trkpt>
      <trkpt lat="53.469102" lon="10.034202">
        <ele>3.245463</ele>
        <time>2026-08-27T17:28:54.473Z</time>
      </trkpt>
      <trkpt lat="53.469353" lon="10.033812">
        <ele>3.302298</ele>
        <time>2026-08-27T17:29:02.001Z</time>
      </trkpt>
      <trkpt lat="53.469482" lon="10.033546">
        <ele>3.336248</ele>
        <time>2026-08-27T17:29:06.376Z</time>
      </trkpt>
      <trkpt lat="53.469582" lon="10.033183">
        <ele>3.375827</ele>
        <time>2026-08-27T17:29:11.355Z</time>
      </trkpt>
      <trkpt lat="53.469643" lon="10.032987">
        <ele>3.397713</ele>
        <time>2026-08-27T17:29:14.098Z</time>
      </trkpt>
      <trkpt lat="53.469704" lon="10.032891">
        <ele>3.411607</ele>
        <time>2026-08-27T17:29:15.846Z</time>
      </trkpt>
      <trkpt lat="53.469641" lon="10.032661">
        <ele>3.436660</ele>
        <time>2026-08-27T17:29:19.025Z</time>
      </trkpt>
      <trkpt lat="53.469629" lon="10.032487">
        <ele>3.440107</ele>
        <time>2026-08-27T17:29:21.233Z</time>
      </trkpt>
      <trkpt lat="53.469689" lon="10.031417">
        <ele>3.428766</ele>
        <time>2026-08-27T17:29:34.331Z</time>
      </trkpt>
      <trkpt lat="53.469775" lon="10.030590">
        <ele>3.419908</ele>
        <time>2026-08-27T17:29:44.724Z</time>
      </trkpt>
      <trkpt lat="53.469873" lon="10.030326">
        <ele>3.416625</ele>
        <time>2026-08-27T17:29:48.639Z</time>
      </trkpt>
      <trkpt lat="53.470095" lon="10.029911">
        <ele>3.410738</ele>
        <time>2026-08-27T17:29:55.845Z</time>
      </trkpt>
      <trkpt lat="53.470311" lon="10.029450">
        <ele>3.492200</ele>
        <time>2026-08-27T17:30:03.543Z</time>
      </trkpt>
      <trkpt lat="53.470441" lon="10.029032">
        <ele>3.574221</ele>
        <time>2026-08-27T17:30:09.648Z</time>
      </trkpt>
      <trkpt lat="53.470503" lon="10.028736">
        <ele>3.628793</ele>
        <time>2026-08-27T17:30:13.699Z</time>
      </trkpt>
      <trkpt lat="53.470512" lon="10.028569">
        <ele>3.657956</ele>
        <time>2026-08-27T17:30:15.855Z</time>
      </trkpt>
      <trkpt lat="53.470470" lon="10.027976">
        <ele>3.761814</ele>
        <time>2026-08-27T17:30:23.513Z</time>
      </trkpt>
      <trkpt lat="53.470480" lon="10.026413">
        <ele>4.168755</ele>
        <time>2026-08-27T17:30:43.371Z</time>
      </trkpt>
      <trkpt lat="53.470530" lon="10.026084">
        <ele>4.308740</ele>
        <time>2026-08-27T17:30:47.728Z</time>
      </trkpt>
      <trkpt lat="53.470588" lon="10.025859">
        <ele>4.409824</ele>
        <time>2026-08-27T17:30:50.944Z</time>
      </trkpt>
      <trkpt lat="53.470810" lon="10.025270">
        <ele>4.697232</ele>
        <time>2026-08-27T17:31:00.207Z</time>
      </trkpt>
      <trkpt lat="53.470923" lon="10.025093">
        <ele>4.804236</ele>
        <time>2026-08-27T17:31:03.679Z</time>
      </trkpt>
      <trkpt lat="53.471077" lon="10.024971">
        <ele>4.922160</ele>
        <time>2026-08-27T17:31:07.507Z</time>
      </trkpt>
      <trkpt lat="53.471053" lon="10.024821">
        <ele>4.986194</ele>
        <time>2026-08-27T17:31:09.578Z</time>
      </trkpt>
      <trkpt lat="53.471144" lon="10.024792">
        <ele>5.050344</ele>
        <time>2026-08-27T17:31:12.184Z</time>
      </trkpt>
      <trkpt lat="53.471154" lon="10.024620">
        <ele>5.121590</ele>
        <time>2026-08-27T17:31:15.062Z</time>
      </trkpt>
      <trkpt lat="53.471199" lon="10.024441">
        <ele>5.195689</ele>
        <time>2026-08-27T17:31:18.307Z</time>
      </trkpt>
      <trkpt lat="53.471306" lon="10.024135">
        <ele>5.299891</ele>
        <time>2026-08-27T17:31:23.095Z</time>
      </trkpt>
      <trkpt lat="53.472195" lon="10.023924">
        <ele>5.742773</ele>
        <time>2026-08-27T17:31:43.156Z</time>
      </trkpt>
      <trkpt lat="53.472750" lon="10.023634">
        <ele>6.029479</ele>
        <time>2026-08-27T17:31:55.334Z</time>
      </trkpt>
      <trkpt lat="53.473031" lon="10.023582">
        <ele>5.973144</ele>
        <time>2026-08-27T17:32:03.007Z</time>
      </trkpt>
      <trkpt lat="53.475949" lon="10.022945">
        <ele>5.021553</ele>
        <time>2026-08-27T17:33:02.313Z</time>
      </trkpt>
      <trkpt lat="53.475964" lon="10.022941">
        <ele>5.019169</ele>
        <time>2026-08-27T17:33:02.732Z</time>
      </trkpt>
      <trkpt lat="53.476222" lon="10.022894">
        <ele>4.978439</ele>
        <time>2026-08-27T17:33:09.999Z</time>
      </trkpt>
      <trkpt lat="53.477238" lon="10.022751">
        <ele>4.920059</ele>
        <time>2026-08-27T17:33:32.557Z</time>
      </trkpt>
      <trkpt lat="53.478169" lon="10.022789">
        <ele>4.886047</ele>
        <time>2026-08-27T17:33:51.356Z</time>
      </trkpt>
      <trkpt lat="53.478391" lon="10.022923">
        <ele>4.755521</ele>
        <time>2026-08-27T17:33:55.915Z</time>
      </trkpt>
      <trkpt lat="53.478437" lon="10.023181">
        <ele>4.657713</ele>
        <time>2026-08-27T17:33:59.017Z</time>
      </trkpt>
      <trkpt lat="53.478449" lon="10.023467">
        <ele>4.553594</ele>
        <time>2026-08-27T17:34:02.334Z</time>
      </trkpt>
      <trkpt lat="53.478511" lon="10.023964">
        <ele>4.369185</ele>
        <time>2026-08-27T17:34:08.279Z</time>
      </trkpt>
      <trkpt lat="53.478546" lon="10.024205">
        <ele>4.279097</ele>
        <time>2026-08-27T17:34:11.223Z</time>
      </trkpt>
      <trkpt lat="53.478751" lon="10.027646">
        <ele>3.374104</ele>
        <time>2026-08-27T17:34:53.159Z</time>
      </trkpt>
      <trkpt lat="53.478761" lon="10.028350">
        <ele>3.235754</ele>
        <time>2026-08-27T17:35:01.777Z</time>
      </trkpt>
      <trkpt lat="53.478650" lon="10.031242">
        <ele>2.963813</ele>
        <time>2026-08-27T17:35:37.656Z</time>
      </trkpt>
      <trkpt lat="53.478531" lon="10.032225">
        <ele>2.976544</ele>
        <time>2026-08-27T17:35:50.257Z</time>
      </trkpt>
      <trkpt lat="53.478338" lon="10.033220">
        <ele>3.042034</ele>
        <time>2026-08-27T17:36:03.520Z</time>
      </trkpt>
      <trkpt lat="53.478241" lon="10.033640">
        <ele>3.070227</ele>
        <time>2026-08-27T17:36:09.247Z</time>
      </trkpt>
      <trkpt lat="53.477299" lon="10.037017">
        <ele>3.518487</ele>
        <time>2026-08-27T17:36:56.870Z</time>
      </trkpt>
      <trkpt lat="53.477156" lon="10.037429">
        <ele>3.554254</ele>
        <time>2026-08-27T17:37:03.006Z</time>
      </trkpt>
      <trkpt lat="53.476973" lon="10.037834">
        <ele>3.577482</ele>
        <time>2026-08-27T17:37:09.545Z</time>
      </trkpt>
      <trkpt lat="53.476802" lon="10.038135">
        <ele>3.596490</ele>
        <time>2026-08-27T17:37:14.862Z</time>
      </trkpt>
      <trkpt lat="53.476582" lon="10.038436">
        <ele>3.618265</ele>
        <time>2026-08-27T17:37:20.921Z</time>
      </trkpt>
      <trkpt lat="53.476067" lon="10.039044">
        <ele>3.666574</ele>
        <time>2026-08-27T17:37:34.136Z</time>
      </trkpt>
      <trkpt lat="53.475598" lon="10.039635">
        <ele>3.612633</ele>
        <time>2026-08-27T17:37:46.257Z</time>
      </trkpt>
      <trkpt lat="53.475436" lon="10.039948">
        <ele>3.576594</ele>
        <time>2026-08-27T17:37:51.355Z</time>
      </trkpt>
      <trkpt lat="53.475164" lon="10.040873">
        <ele>3.486954</ele>
        <time>2026-08-27T17:38:04.089Z</time>
      </trkpt>
      <trkpt lat="53.473871" lon="10.043755">
        <ele>3.343400</ele>
        <time>2026-08-27T17:38:49.178Z</time>
      </trkpt>
      <trkpt lat="53.473593" lon="10.044232">
        <ele>3.284859</ele>
        <time>2026-08-27T17:38:57.463Z</time>
      </trkpt>
      <trkpt lat="53.473522" lon="10.044368">
        <ele>3.262618</ele>
        <time>2026-08-27T17:38:59.693Z</time>
      </trkpt>
      <trkpt lat="53.472924" lon="10.045748">
        <ele>3.052747</ele>
        <time>2026-08-27T17:39:20.689Z</time>
      </trkpt>
      <trkpt lat="53.472800" lon="10.046095">
        <ele>3.002985</ele>
        <time>2026-08-27T17:39:25.637Z</time>
      </trkpt>
      <trkpt lat="53.472073" lon="10.047730">
        <ele>2.820470</ele>
        <time>2026-08-27T17:39:50.729Z</time>
      </trkpt>
      <trkpt lat="53.472070" lon="10.047735">
        <ele>2.819877</ele>
        <time>2026-08-27T17:39:50.814Z</time>
      </trkpt>
      <trkpt lat="53.471718" lon="10.048510">
        <ele>2.738408</ele>
        <time>2026-08-27T17:40:02.979Z</time>
      </trkpt>
      <trkpt lat="53.471461" lon="10.048979">
        <ele>2.725519</ele>
        <time>2026-08-27T17:40:10.999Z</time>
      </trkpt>
      <trkpt lat="53.470557" lon="10.050171">
        <ele>2.797159</ele>
        <time>2026-08-27T17:40:35.444Z</time>
      </trkpt>
      <trkpt lat="53.470036" lon="10.050833">
        <ele>2.882870</ele>
        <time>2026-08-27T17:40:49.285Z</time>
      </trkpt>
      <trkpt lat="53.469625" lon="10.051196">
        <ele>3.014736</ele>
        <time>2026-08-27T17:40:59.198Z</time>
      </trkpt>
      <trkpt lat="53.469302" lon="10.051414">
        <ele>3.113590</ele>
        <time>2026-08-27T17:41:06.674Z</time>
      </trkpt>
      <trkpt lat="53.469208" lon="10.051468">
        <ele>3.141803</ele>
        <time>2026-08-27T17:41:08.820Z</time>
      </trkpt>
      <trkpt lat="53.469116" lon="10.051523">
        <ele>3.169535</ele>
        <time>2026-08-27T17:41:10.931Z</time>
      </trkpt>
      <trkpt lat="53.468807" lon="10.051771">
        <ele>3.266787</ele>
        <time>2026-08-27T17:41:18.375Z</time>
      </trkpt>
      <trkpt lat="53.468454" lon="10.052171">
        <ele>3.410990</ele>
        <time>2026-08-27T17:41:27.700Z</time>
      </trkpt>
      <trkpt lat="53.468125" lon="10.052707">
        <ele>3.599767</ele>
        <time>2026-08-27T17:41:37.817Z</time>
      </trkpt>
      <trkpt lat="53.467026" lon="10.054497">
        <ele>4.122827</ele>
        <time>2026-08-27T17:42:11.115Z</time>
      </trkpt>
      <trkpt lat="53.466868" lon="10.054702">
        <ele>4.147452</ele>
        <time>2026-08-27T17:42:15.345Z</time>
      </trkpt>
      <trkpt lat="53.466660" lon="10.054974">
        <ele>4.179965</ele>
        <time>2026-08-27T17:42:20.959Z</time>
      </trkpt>
      <trkpt lat="53.466304" lon="10.055338">
        <ele>4.231370</ele>
        <time>2026-08-27T17:42:29.795Z</time>
      </trkpt>
      <trkpt lat="53.465152" lon="10.056463">
        <ele>4.209367</ele>
        <time>2026-08-27T17:42:57.771Z</time>
      </trkpt>
      <trkpt lat="53.464919" lon="10.056733">
        <ele>4.177190</ele>
        <time>2026-08-27T17:43:03.649Z</time>
      </trkpt>
      <trkpt lat="53.464638" lon="10.057205">
        <ele>4.132019</ele>
        <time>2026-08-27T17:43:11.897Z</time>
      </trkpt>
      <trkpt lat="53.464299" lon="10.057862">
        <ele>4.113667</ele>
        <time>2026-08-27T17:43:22.620Z</time>
      </trkpt>
      <trkpt lat="53.462948" lon="10.060913">
        <ele>4.307398</ele>
        <time>2026-08-27T17:44:11.066Z</time>
      </trkpt>
      <trkpt lat="53.462838" lon="10.061204">
        <ele>4.315415</ele>
        <time>2026-08-27T17:44:15.365Z</time>
      </trkpt>
      <trkpt lat="53.462805" lon="10.061442">
        <ele>4.321098</ele>
        <time>2026-08-27T17:44:18.422Z</time>
      </trkpt>
      <trkpt lat="53.462811" lon="10.061635">
        <ele>4.325593</ele>
        <time>2026-08-27T17:44:20.841Z</time>
      </trkpt>
      <trkpt lat="53.462854" lon="10.061870">
        <ele>4.331310</ele>
        <time>2026-08-27T17:44:23.914Z</time>
      </trkpt>
      <trkpt lat="53.462912" lon="10.062006">
        <ele>4.335201</ele>
        <time>2026-08-27T17:44:26.005Z</time>
      </trkpt>
      <trkpt lat="53.462876" lon="10.062083">
        <ele>4.337478</ele>
        <time>2026-08-27T17:44:27.233Z</time>
      </trkpt>
      <trkpt lat="53.462805" lon="10.062132">
        <ele>4.340477</ele>
        <time>2026-08-27T17:44:28.830Z</time>
      </trkpt>
      <trkpt lat="53.462424" lon="10.062258">
        <ele>4.351249</ele>
        <time>2026-08-27T17:44:36.949Z</time>
      </trkpt>
      <trkpt lat="53.462224" lon="10.062200">
        <ele>4.348942</ele>
        <time>2026-08-27T17:44:41.659Z</time>
      </trkpt>
      <trkpt lat="53.462090" lon="10.062073">
        <ele>4.347194</ele>
        <time>2026-08-27T17:44:45.205Z</time>
      </trkpt>
      <trkpt lat="53.461544" lon="10.061341">
        <ele>4.339254</ele>
        <time>2026-08-27T17:45:01.441Z</time>
      </trkpt>
      <trkpt lat="53.461417" lon="10.061259">
        <ele>4.337707</ele>
        <time>2026-08-27T17:45:04.619Z</time>
      </trkpt>
      <trkpt lat="53.461331" lon="10.061294">
        <ele>4.336702</ele>
        <time>2026-08-27T17:45:06.706Z</time>
      </trkpt>
      <trkpt lat="53.460697" lon="10.062506">
        <ele>4.215008</ele>
        <time>2026-08-27T17:45:29.336Z</time>
      </trkpt>
      <trkpt lat="53.460613" lon="10.062595">
        <ele>4.193083</ele>
        <time>2026-08-27T17:45:31.523Z</time>
      </trkpt>
      <trkpt lat="53.460444" lon="10.062773">
        <ele>4.149048</ele>
        <time>2026-08-27T17:45:35.899Z</time>
      </trkpt>
      <trkpt lat="53.460266" lon="10.063101">
        <ele>4.090717</ele>
        <time>2026-08-27T17:45:41.619Z</time>
      </trkpt>
      <trkpt lat="53.460098" lon="10.063412">
        <ele>4.035525</ele>
        <time>2026-08-27T17:45:46.962Z</time>
      </trkpt>
      <trkpt lat="53.460039" lon="10.063768">
        <ele>3.986956</ele>
        <time>2026-08-27T17:45:51.633Z</time>
      </trkpt>
      <trkpt lat="53.459349" lon="10.065157">
        <ele>3.286610</ele>
        <time>2026-08-27T17:46:15.391Z</time>
      </trkpt>
      <trkpt lat="53.458897" lon="10.065740">
        <ele>2.847148</ele>
        <time>2026-08-27T17:46:27.811Z</time>
      </trkpt>
      <trkpt lat="53.457975" lon="10.067047">
        <ele>2.272602</ele>
        <time>2026-08-27T17:46:55.089Z</time>
      </trkpt>
      <trkpt lat="53.457643" lon="10.067578">
        <ele>2.118426</ele>
        <time>2026-08-27T17:47:05.530Z</time>
      </trkpt>
      <trkpt lat="53.457319" lon="10.068169">
        <ele>1.957567</ele>
        <time>2026-08-27T17:47:16.543Z</time>
      </trkpt>
      <trkpt lat="53.457035" lon="10.068708">
        <ele>1.968151</ele>
        <time>2026-08-27T17:47:26.544Z</time>
      </trkpt>
      <trkpt lat="53.456925" lon="10.068962">
        <ele>1.980407</ele>
        <time>2026-08-27T17:47:30.889Z</time>
      </trkpt>
      <trkpt lat="53.457035" lon="10.068708">
        <ele>1.992663</ele>
        <time>2026-08-27T17:47:35.263Z</time>
      </trkpt>
      <trkpt lat="53.457319" lon="10.068169">
        <ele>2.020750</ele>
        <time>2026-08-27T17:47:45.305Z</time>
      </trkpt>
      <trkpt lat="53.457643" lon="10.067578">
        <ele>2.052099</ele>
        <time>2026-08-27T17:47:56.632Z</time>
      </trkpt>
      <trkpt lat="53.457975" lon="10.067047">
        <ele>2.234664</ele>
        <time>2026-08-27T17:48:07.558Z</time>
      </trkpt>
      <trkpt lat="53.458897" lon="10.065740">
        <ele>2.878696</ele>
        <time>2026-08-27T17:48:36.527Z</time>
      </trkpt>
      <trkpt lat="53.459349" lon="10.065157">
        <ele>3.228425</ele>
        <time>2026-08-27T17:48:50.465Z</time>
      </trkpt>
      <trkpt lat="53.460039" lon="10.063768">
        <ele>3.964875</ele>
        <time>2026-08-27T17:49:16.659Z</time>
      </trkpt>
      <trkpt lat="53.460098" lon="10.063412">
        <ele>4.115314</ele>
        <time>2026-08-27T17:49:21.633Z</time>
      </trkpt>
      <trkpt lat="53.460266" lon="10.063101">
        <ele>4.251704</ele>
        <time>2026-08-27T17:49:27.252Z</time>
      </trkpt>
      <trkpt lat="53.460444" lon="10.062773">
        <ele>4.256472</ele>
        <time>2026-08-27T17:49:33.118Z</time>
      </trkpt>
      <trkpt lat="53.460613" lon="10.062595">
        <ele>4.260072</ele>
        <time>2026-08-27T17:49:37.510Z</time>
      </trkpt>
      <trkpt lat="53.460697" lon="10.062506">
        <ele>4.261864</ele>
        <time>2026-08-27T17:49:39.666Z</time>
      </trkpt>
      <trkpt lat="53.461331" lon="10.061294">
        <ele>4.279198</ele>
        <time>2026-08-27T17:50:01.922Z</time>
      </trkpt>
      <trkpt lat="53.461417" lon="10.061259">
        <ele>4.280795</ele>
        <time>2026-08-27T17:50:03.972Z</time>
      </trkpt>
      <trkpt lat="53.461544" lon="10.061341">
        <ele>4.282960</ele>
        <time>2026-08-27T17:50:07.142Z</time>
      </trkpt>
      <trkpt lat="53.462090" lon="10.062073">
        <ele>4.150814</ele>
        <time>2026-08-27T17:50:23.494Z</time>
      </trkpt>
      <trkpt lat="53.462224" lon="10.062200">
        <ele>4.121710</ele>
        <time>2026-08-27T17:50:27.037Z</time>
      </trkpt>
      <trkpt lat="53.462424" lon="10.062258">
        <ele>4.083318</ele>
        <time>2026-08-27T17:50:31.686Z</time>
      </trkpt>
      <trkpt lat="53.462805" lon="10.062132">
        <ele>4.009865</ele>
        <time>2026-08-27T17:50:39.645Z</time>
      </trkpt>
      <trkpt lat="53.462876" lon="10.062083">
        <ele>3.995345</ele>
        <time>2026-08-27T17:50:41.197Z</time>
      </trkpt>
      <trkpt lat="53.462912" lon="10.062006">
        <ele>3.984320</ele>
        <time>2026-08-27T17:50:42.406Z</time>
      </trkpt>
      <trkpt lat="53.462986" lon="10.062031">
        <ele>3.970041</ele>
        <time>2026-08-27T17:50:43.948Z</time>
      </trkpt>
      <trkpt lat="53.463428" lon="10.061810">
        <ele>3.867525</ele>
        <time>2026-08-27T17:50:53.398Z</time>
      </trkpt>
      <trkpt lat="53.464397" lon="10.061395">
        <ele>3.630334</ele>
        <time>2026-08-27T17:51:13.953Z</time>
      </trkpt>
      <trkpt lat="53.465408" lon="10.061033">
        <ele>3.518155</ele>
        <time>2026-08-27T17:51:35.497Z</time>
      </trkpt>
      <trkpt lat="53.466690" lon="10.060735">
        <ele>3.523831</ele>
        <time>2026-08-27T17:52:02.912Z</time>
      </trkpt>
      <trkpt lat="53.467656" lon="10.060593">
        <ele>3.556950</ele>
        <time>2026-08-27T17:52:23.813Z</time>
      </trkpt>
      <trkpt lat="53.468651" lon="10.060572">
        <ele>3.540529</ele>
        <time>2026-08-27T17:52:44.563Z</time>
      </trkpt>
      <trkpt lat="53.469434" lon="10.060554">
        <ele>3.383639</ele>
        <time>2026-08-27T17:53:00.540Z</time>
      </trkpt>
      <trkpt lat="53.470035" lon="10.060535">
        <ele>3.263207</ele>
        <time>2026-08-27T17:53:12.897Z</time>
      </trkpt>
      <trkpt lat="53.470496" lon="10.060520">
        <ele>3.219870</ele>
        <time>2026-08-27T17:53:22.617Z</time>
      </trkpt>
      <trkpt lat="53.471516" lon="10.060500">
        <ele>3.206745</ele>
        <time>2026-08-27T17:53:44.221Z</time>
      </trkpt>
      <trkpt lat="53.472538" lon="10.060487">
        <ele>3.242175</ele>
        <time>2026-08-27T17:54:05.772Z</time>
      </trkpt>
      <trkpt lat="53.472891" lon="10.060443">
        <ele>3.271670</ele>
        <time>2026-08-27T17:54:13.268Z</time>
      </trkpt>
      <trkpt lat="53.473372" lon="10.060341">
        <ele>3.312068</ele>
        <time>2026-08-27T17:54:23.586Z</time>
      </trkpt>
      <trkpt lat="53.474265" lon="10.060139">
        <ele>3.377036</ele>
        <time>2026-08-27T17:54:42.873Z</time>
      </trkpt>
      <trkpt lat="53.474761" lon="10.059899">
        <ele>3.408348</ele>
        <time>2026-08-27T17:54:53.779Z</time>
      </trkpt>
      <trkpt lat="53.474992" lon="10.059716">
        <ele>3.423841</ele>
        <time>2026-08-27T17:54:59.176Z</time>
      </trkpt>
      <trkpt lat="53.476256" lon="10.058371">
        <ele>3.483877</ele>
        <time>2026-08-27T17:55:30.660Z</time>
      </trkpt>
      <trkpt lat="53.477161" lon="10.057271">
        <ele>3.572376</ele>
        <time>2026-08-27T17:55:54.281Z</time>
      </trkpt>
      <trkpt lat="53.479762" lon="10.054438">
        <ele>4.396441</ele>
        <time>2026-08-27T17:57:01.467Z</time>
      </trkpt>
      <trkpt lat="53.481069" lon="10.052801">
        <ele>4.579745</ele>
        <time>2026-08-27T17:57:35.801Z</time>
      </trkpt>
      <trkpt lat="53.481723" lon="10.052001">
        <ele>4.611588</ele>
        <time>2026-08-27T17:57:53.168Z</time>
      </trkpt>
      <trkpt lat="53.482200" lon="10.051476">
        <ele>4.604211</ele>
        <time>2026-08-27T17:58:05.382Z</time>
      </trkpt>
      <trkpt lat="53.482788" lon="10.050896">
        <ele>4.595391</ele>
        <time>2026-08-27T17:58:19.618Z</time>
      </trkpt>
      <trkpt lat="53.483437" lon="10.050323">
        <ele>4.432202</ele>
        <time>2026-08-27T17:58:34.580Z</time>
      </trkpt>
      <trkpt lat="53.484226" lon="10.049763">
        <ele>4.187233</ele>
        <time>2026-08-27T17:58:52.093Z</time>
      </trkpt>
      <trkpt lat="53.484983" lon="10.049319">
        <ele>4.099253</ele>
        <time>2026-08-27T17:59:08.724Z</time>
      </trkpt>
      <trkpt lat="53.485278" lon="10.049187">
        <ele>4.114073</ele>
        <time>2026-08-27T17:59:15.178Z</time>
      </trkpt>
      <trkpt lat="53.485942" lon="10.048987">
        <ele>4.146822</ele>
        <time>2026-08-27T17:59:29.612Z</time>
      </trkpt>
      <trkpt lat="53.486408" lon="10.048908">
        <ele>4.173251</ele>
        <time>2026-08-27T17:59:39.671Z</time>
      </trkpt>
      <trkpt lat="53.488584" lon="10.048772">
        <ele>4.278175</ele>
        <time>2026-08-27T18:00:25.960Z</time>
      </trkpt>
      <trkpt lat="53.489284" lon="10.048623">
        <ele>4.172777</ele>
        <time>2026-08-27T18:00:40.565Z</time>
      </trkpt>
      <trkpt lat="53.489999" lon="10.048387">
        <ele>4.049998</ele>
        <time>2026-08-27T18:00:55.623Z</time>
      </trkpt>
      <trkpt lat="53.490356" lon="10.048263">
        <ele>3.936820</ele>
        <time>2026-08-27T18:01:02.989Z</time>
      </trkpt>
      <trkpt lat="53.490597" lon="10.048136">
        <ele>3.858407</ele>
        <time>2026-08-27T18:01:08.092Z</time>
      </trkpt>
      <trkpt lat="53.490574" lon="10.047895">
        <ele>3.813322</ele>
        <time>2026-08-27T18:01:11.029Z</time>
      </trkpt>
      <trkpt lat="53.490571" lon="10.047686">
        <ele>3.774706</ele>
        <time>2026-08-27T18:01:13.554Z</time>
      </trkpt>
      <trkpt lat="53.490595" lon="10.047600">
        <ele>3.757161</ele>
        <time>2026-08-27T18:01:14.702Z</time>
      </trkpt>
      <trkpt lat="53.490688" lon="10.047457">
        <ele>3.718028</ele>
        <time>2026-08-27T18:01:17.258Z</time>
      </trkpt>
      <trkpt lat="53.491097" lon="10.046830">
        <ele>3.546166</ele>
        <time>2026-08-27T18:01:28.661Z</time>
      </trkpt>
      <trkpt lat="53.491468" lon="10.046172">
        <ele>3.526468</ele>
        <time>2026-08-27T18:01:39.962Z</time>
      </trkpt>
      <trkpt lat="53.491593" lon="10.045807">
        <ele>3.530935</ele>
        <time>2026-08-27T18:01:45.309Z</time>
      </trkpt>
      <trkpt lat="53.491714" lon="10.045272">
        <ele>3.537007</ele>
        <time>2026-08-27T18:01:52.538Z</time>
      </trkpt>
      <trkpt lat="53.491845" lon="10.044596">
        <ele>3.544549</ele>
        <time>2026-08-27T18:02:01.510Z</time>
      </trkpt>
      <trkpt lat="53.492069" lon="10.043351">
        <ele>3.616890</ele>
        <time>2026-08-27T18:02:17.978Z</time>
      </trkpt>
      <trkpt lat="53.492124" lon="10.043230">
        <ele>3.630579</ele>
        <time>2026-08-27T18:02:19.874Z</time>
      </trkpt>
      <trkpt lat="53.492208" lon="10.043138">
        <ele>3.645729</ele>
        <time>2026-08-27T18:02:21.993Z</time>
      </trkpt>
      <trkpt lat="53.493353" lon="10.042686">
        <ele>3.822654</ele>
        <time>2026-08-27T18:02:47.096Z</time>
      </trkpt>
      <trkpt lat="53.493621" lon="10.042509">
        <ele>3.836279</ele>
        <time>2026-08-27T18:02:53.326Z</time>
      </trkpt>
      <trkpt lat="53.493750" lon="10.042475">
        <ele>3.842457</ele>
        <time>2026-08-27T18:02:56.164Z</time>
      </trkpt>
      <trkpt lat="53.493991" lon="10.042473">
        <ele>3.853860</ele>
        <time>2026-08-27T18:03:01.332Z</time>
      </trkpt>
      <trkpt lat="53.494789" lon="10.042859">
        <ele>3.893150</ele>
        <time>2026-08-27T18:03:18.904Z</time>
      </trkpt>
      <trkpt lat="53.495005" lon="10.042919">
        <ele>3.903509</ele>
        <time>2026-08-27T18:03:23.488Z</time>
      </trkpt>
      <trkpt lat="53.495246" lon="10.042890">
        <ele>3.878722</ele>
        <time>2026-08-27T18:03:28.536Z</time>
      </trkpt>
      <trkpt lat="53.496226" lon="10.042414">
        <ele>3.695279</ele>
        <time>2026-08-27T18:03:49.463Z</time>
      </trkpt>
      <trkpt lat="53.496450" lon="10.042234">
        <ele>3.650631</ele>
        <time>2026-08-27T18:03:54.556Z</time>
      </trkpt>
      <trkpt lat="53.496945" lon="10.041669">
        <ele>3.660167</ele>
        <time>2026-08-27T18:04:07.105Z</time>
      </trkpt>
      <trkpt lat="53.497232" lon="10.041189">
        <ele>3.795806</ele>
        <time>2026-08-27T18:04:15.784Z</time>
      </trkpt>
      <trkpt lat="53.497732" lon="10.040290">
        <ele>4.041092</ele>
        <time>2026-08-27T18:04:31.638Z</time>
      </trkpt>
      <trkpt lat="53.498517" lon="10.039034">
        <ele>4.199643</ele>
        <time>2026-08-27T18:04:55.842Z</time>
      </trkpt>
      <trkpt lat="53.498640" lon="10.038663">
        <ele>4.204731</ele>
        <time>2026-08-27T18:05:01.273Z</time>
      </trkpt>
      <trkpt lat="53.498663" lon="10.038207">
        <ele>4.210214</ele>
        <time>2026-08-27T18:05:06.940Z</time>
      </trkpt>
      <trkpt lat="53.498684" lon="10.037510">
        <ele>4.218575</ele>
        <time>2026-08-27T18:05:15.270Z</time>
      </trkpt>
      <trkpt lat="53.498665" lon="10.037086">
        <ele>4.178935</ele>
        <time>2026-08-27T18:05:20.232Z</time>
      </trkpt>
      <trkpt lat="53.498603" lon="10.036719">
        <ele>3.951798</ele>
        <time>2026-08-27T18:05:24.630Z</time>
      </trkpt>
      <trkpt lat="53.498521" lon="10.036426">
        <ele>3.759016</ele>
        <time>2026-08-27T18:05:28.260Z</time>
      </trkpt>
      <trkpt lat="53.498477" lon="10.036095">
        <ele>3.557092</ele>
        <time>2026-08-27T18:05:31.971Z</time>
      </trkpt>
      <trkpt lat="53.498505" lon="10.035617">
        <ele>3.271134</ele>
        <time>2026-08-27T18:05:37.164Z</time>
      </trkpt>
      <trkpt lat="53.498516" lon="10.035536">
        <ele>3.221670</ele>
        <time>2026-08-27T18:05:38.078Z</time>
      </trkpt>
      <trkpt lat="53.498569" lon="10.034922">
        <ele>2.852292</ele>
        <time>2026-08-27T18:05:45.154Z</time>
      </trkpt>
      <trkpt lat="53.498592" lon="10.034527">
        <ele>2.616002</ele>
        <time>2026-08-27T18:05:49.832Z</time>
      </trkpt>
      <trkpt lat="53.498624" lon="10.033766">
        <ele>2.355284</ele>
        <time>2026-08-27T18:05:59.041Z</time>
      </trkpt>
      <trkpt lat="53.498639" lon="10.033469">
        <ele>2.309485</ele>
        <time>2026-08-27T18:06:02.674Z</time>
      </trkpt>
      <trkpt lat="53.498782" lon="10.032190">
        <ele>2.109521</ele>
        <time>2026-08-27T18:06:18.712Z</time>
      </trkpt>
      <trkpt lat="53.498823" lon="10.031833">
        <ele>2.053654</ele>
        <time>2026-08-27T18:06:23.196Z</time>
      </trkpt>
      <trkpt lat="53.498965" lon="10.030606">
        <ele>2.017548</ele>
        <time>2026-08-27T18:06:38.685Z</time>
      </trkpt>
      <trkpt lat="53.498995" lon="10.030307">
        <ele>2.046339</ele>
        <time>2026-08-27T18:06:42.497Z</time>
      </trkpt>
      <trkpt lat="53.499041" lon="10.029878">
        <ele>2.087728</ele>
        <time>2026-08-27T18:06:48.039Z</time>
      </trkpt>
      <trkpt lat="53.499134" lon="10.029102">
        <ele>2.162889</ele>
        <time>2026-08-27T18:06:58.179Z</time>
      </trkpt>
      <trkpt lat="53.499243" lon="10.028280">
        <ele>2.242852</ele>
        <time>2026-08-27T18:07:08.995Z</time>
      </trkpt>
      <trkpt lat="53.499332" lon="10.027557">
        <ele>2.232368</ele>
        <time>2026-08-27T18:07:18.551Z</time>
      </trkpt>
      <trkpt lat="53.499373" lon="10.027221">
        <ele>2.226267</ele>
        <time>2026-08-27T18:07:22.982Z</time>
      </trkpt>
      <trkpt lat="53.499460" lon="10.026510">
        <ele>2.213356</ele>
        <time>2026-08-27T18:07:32.145Z</time>
      </trkpt>
      <trkpt lat="53.499468" lon="10.026445">
        <ele>2.212175</ele>
        <time>2026-08-27T18:07:32.980Z</time>
      </trkpt>
      <trkpt lat="53.499501" lon="10.026175">
        <ele>2.207273</ele>
        <time>2026-08-27T18:07:36.369Z</time>
      </trkpt>
      <trkpt lat="53.499603" lon="10.025476">
        <ele>2.194471</ele>
        <time>2026-08-27T18:07:45.042Z</time>
      </trkpt>
      <trkpt lat="53.499173" lon="10.025112">
        <ele>2.089371</ele>
        <time>2026-08-27T18:07:54.820Z</time>
      </trkpt>
      <trkpt lat="53.498708" lon="10.024704">
        <ele>1.946936</ele>
        <time>2026-08-27T18:08:05.397Z</time>
      </trkpt>
      <trkpt lat="53.498750" lon="10.024582">
        <ele>1.924167</ele>
        <time>2026-08-27T18:08:07.089Z</time>
      </trkpt>
      <trkpt lat="53.498796" lon="10.024442">
        <ele>1.898332</ele>
        <time>2026-08-27T18:08:09.002Z</time>
      </trkpt>
      <trkpt lat="53.499087" lon="10.023942">
        <ele>1.785340</ele>
        <time>2026-08-27T18:08:17.554Z</time>
      </trkpt>
      <trkpt lat="53.499359" lon="10.023552">
        <ele>1.716826</ele>
        <time>2026-08-27T18:08:25.174Z</time>
      </trkpt>
      <trkpt lat="53.499471" lon="10.023433">
        <ele>1.751176</ele>
        <time>2026-08-27T18:08:28.841Z</time>
      </trkpt>
      <trkpt lat="53.499663" lon="10.023275">
        <ele>1.806598</ele>
        <time>2026-08-27T18:08:33.511Z</time>
      </trkpt>
      <trkpt lat="53.500021" lon="10.023348">
        <ele>1.900095</ele>
        <time>2026-08-27T18:08:41.329Z</time>
      </trkpt>
      <trkpt lat="53.500114" lon="10.023393">
        <ele>1.925185</ele>
        <time>2026-08-27T18:08:43.415Z</time>
      </trkpt>
      <trkpt lat="53.500636" lon="10.023723">
        <ele>2.069772</ele>
        <time>2026-08-27T18:08:55.489Z</time>
      </trkpt>
      <trkpt lat="53.500757" lon="10.023749">
        <ele>2.101398</ele>
        <time>2026-08-27T18:08:58.157Z</time>
      </trkpt>
      <trkpt lat="53.500888" lon="10.023710">
        <ele>2.135889</ele>
        <time>2026-08-27T18:09:01.036Z</time>
      </trkpt>
      <trkpt lat="53.501077" lon="10.023446">
        <ele>2.194602</ele>
        <time>2026-08-27T18:09:06.337Z</time>
      </trkpt>
      <trkpt lat="53.501324" lon="10.023023">
        <ele>2.270996</ele>
        <time>2026-08-27T18:09:13.870Z</time>
      </trkpt>
      <trkpt lat="53.501515" lon="10.022698">
        <ele>2.329877</ele>
        <time>2026-08-27T18:09:19.700Z</time>
      </trkpt>
      <trkpt lat="53.501931" lon="10.022030">
        <ele>2.454520</ele>
        <time>2026-08-27T18:09:32.019Z</time>
      </trkpt>
      <trkpt lat="53.502091" lon="10.021774">
        <ele>2.502377</ele>
        <time>2026-08-27T18:09:36.734Z</time>
      </trkpt>
      <trkpt lat="53.502376" lon="10.021317">
        <ele>2.590704</ele>
        <time>2026-08-27T18:09:45.227Z</time>
      </trkpt>
      <trkpt lat="53.502726" lon="10.020755">
        <ele>2.706467</ele>
        <time>2026-08-27T18:09:55.684Z</time>
      </trkpt>
      <trkpt lat="53.502768" lon="10.020678">
        <ele>2.721330</ele>
        <time>2026-08-27T18:09:57.029Z</time>
      </trkpt>
      <trkpt lat="53.502917" lon="10.020406">
        <ele>2.773938</ele>
        <time>2026-08-27T18:10:01.825Z</time>
      </trkpt>
      <trkpt lat="53.503431" lon="10.019409">
        <ele>2.961642</ele>
        <time>2026-08-27T18:10:18.638Z</time>
      </trkpt>
      <trkpt lat="53.503539" lon="10.019087">
        <ele>2.990700</ele>
        <time>2026-08-27T18:10:23.365Z</time>
      </trkpt>
      <trkpt lat="53.503562" lon="10.019008">
        <ele>2.991485</ele>
        <time>2026-08-27T18:10:24.482Z</time>
      </trkpt>
      <trkpt lat="53.503681" lon="10.018532">
        <ele>2.996093</ele>
        <time>2026-08-27T18:10:30.988Z</time>
      </trkpt>
      <trkpt lat="53.503861" lon="10.017371">
        <ele>3.006800</ele>
        <time>2026-08-27T18:10:46.141Z</time>
      </trkpt>
      <trkpt lat="53.503955" lon="10.016777">
        <ele>3.012285</ele>
        <time>2026-08-27T18:10:53.756Z</time>
      </trkpt>
      <trkpt lat="53.504017" lon="10.016368">
        <ele>3.016052</ele>
        <time>2026-08-27T18:10:58.999Z</time>
      </trkpt>
      <trkpt lat="53.504046" lon="10.016115">
        <ele>3.013933</ele>
        <time>2026-08-27T18:11:02.178Z</time>
      </trkpt>
      <trkpt lat="53.504022" lon="10.015887">
        <ele>3.011922</ele>
        <time>2026-08-27T18:11:05.031Z</time>
      </trkpt>
      <trkpt lat="53.503856" lon="10.015540">
        <ele>3.008054</ele>
        <time>2026-08-27T18:11:10.510Z</time>
      </trkpt>
      <trkpt lat="53.503677" lon="10.015255">
        <ele>3.004454</ele>
        <time>2026-08-27T18:11:15.623Z</time>
      </trkpt>
      <trkpt lat="53.503514" lon="10.015119">
        <ele>3.001796</ele>
        <time>2026-08-27T18:11:19.405Z</time>
      </trkpt>
      <trkpt lat="53.503324" lon="10.014962">
        <ele>2.998704</ele>
        <time>2026-08-27T18:11:23.826Z</time>
      </trkpt>
      <trkpt lat="53.502680" lon="10.014509">
        <ele>3.007063</ele>
        <time>2026-08-27T18:11:38.814Z</time>
      </trkpt>
      <trkpt lat="53.502018" lon="10.014060">
        <ele>3.141494</ele>
        <time>2026-08-27T18:11:54.236Z</time>
      </trkpt>
      <trkpt lat="53.501675" lon="10.013834">
        <ele>3.210871</ele>
        <time>2026-08-27T18:12:02.120Z</time>
      </trkpt>
      <trkpt lat="53.501590" lon="10.013803">
        <ele>3.227251</ele>
        <time>2026-08-27T18:12:03.977Z</time>
      </trkpt>
      <trkpt lat="53.500654" lon="10.013321">
        <ele>3.415543</ele>
        <time>2026-08-27T18:12:24.737Z</time>
      </trkpt>
      <trkpt lat="53.500442" lon="10.013208">
        <ele>3.459413</ele>
        <time>2026-08-27T18:12:30.941Z</time>
      </trkpt>
      <trkpt lat="53.500440" lon="10.013127">
        <ele>3.468925</ele>
        <time>2026-08-27T18:12:31.996Z</time>
      </trkpt>
      <trkpt lat="53.500406" lon="10.013070">
        <ele>3.478397</ele>
        <time>2026-08-27T18:12:33.044Z</time>
      </trkpt>
      <trkpt lat="53.500358" lon="10.013063">
        <ele>3.487901</ele>
        <time>2026-08-27T18:12:34.090Z</time>
      </trkpt>
      <trkpt lat="53.500310" lon="10.013149">
        <ele>3.501738</ele>
        <time>2026-08-27T18:12:35.618Z</time>
      </trkpt>
      <trkpt lat="53.499743" lon="10.012918">
        <ele>3.616820</ele>
        <time>2026-08-27T18:12:51.821Z</time>
      </trkpt>
      <trkpt lat="53.499657" lon="10.012880">
        <ele>3.634360</ele>
        <time>2026-08-27T18:12:54.278Z</time>
      </trkpt>
      <trkpt lat="53.499585" lon="10.012858">
        <ele>3.648796</ele>
        <time>2026-08-27T18:12:56.285Z</time>
      </trkpt>
      <trkpt lat="53.499433" lon="10.012794">
        <ele>3.679705</ele>
        <time>2026-08-27T18:12:59.593Z</time>
      </trkpt>
      <trkpt lat="53.498655" lon="10.012572">
        <ele>3.510632</ele>
        <time>2026-08-27T18:13:16.151Z</time>
      </trkpt>
      <trkpt lat="53.498365" lon="10.012574">
        <ele>3.445627</ele>
        <time>2026-08-27T18:13:22.178Z</time>
      </trkpt>
      <trkpt lat="53.498119" lon="10.012664">
        <ele>3.389194</ele>
        <time>2026-08-27T18:13:27.320Z</time>
      </trkpt>
      <trkpt lat="53.498032" lon="10.012712">
        <ele>3.368669</ele>
        <time>2026-08-27T18:13:29.205Z</time>
      </trkpt>
      <trkpt lat="53.497971" lon="10.012753">
        <ele>3.353943</ele>
        <time>2026-08-27T18:13:30.496Z</time>
      </trkpt>
      <trkpt lat="53.497866" lon="10.012838">
        <ele>3.327820</ele>
        <time>2026-08-27T18:13:32.864Z</time>
      </trkpt>
      <trkpt lat="53.497750" lon="10.012949">
        <ele>3.297901</ele>
        <time>2026-08-27T18:13:35.536Z</time>
      </trkpt>
      <trkpt lat="53.497530" lon="10.013231">
        <ele>3.144059</ele>
        <time>2026-08-27T18:13:41.048Z</time>
      </trkpt>
      <trkpt lat="53.497256" lon="10.013858">
        <ele>2.825284</ele>
        <time>2026-08-27T18:13:50.437Z</time>
      </trkpt>
      <trkpt lat="53.497228" lon="10.013983">
        <ele>2.770557</ele>
        <time>2026-08-27T18:13:52.033Z</time>
      </trkpt>
      <trkpt lat="53.497078" lon="10.014643">
        <ele>2.481067</ele>
        <time>2026-08-27T18:14:00.380Z</time>
      </trkpt>
      <trkpt lat="53.496975" lon="10.014997">
        <ele>2.319600</ele>
        <time>2026-08-27T18:14:04.857Z</time>
      </trkpt>
      <trkpt lat="53.496801" lon="10.015473">
        <ele>2.090684</ele>
        <time>2026-08-27T18:14:11.195Z</time>
      </trkpt>
      <trkpt lat="53.496620" lon="10.015269">
        <ele>2.031988</ele>
        <time>2026-08-27T18:14:15.442Z</time>
      </trkpt>
      <trkpt lat="53.496158" lon="10.014732">
        <ele>1.996205</ele>
        <time>2026-08-27T18:14:26.934Z</time>
      </trkpt>
      <trkpt lat="53.494981" lon="10.013270">
        <ele>2.082834</ele>
        <time>2026-08-27T18:14:58.540Z</time>
      </trkpt>
      <trkpt lat="53.494376" lon="10.012453">
        <ele>2.407872</ele>
        <time>2026-08-27T18:15:15.688Z</time>
      </trkpt>
      <trkpt lat="53.494271" lon="10.012266">
        <ele>2.471943</ele>
        <time>2026-08-27T18:15:19.076Z</time>
      </trkpt>
      <trkpt lat="53.494228" lon="10.012179">
        <ele>2.500126</ele>
        <time>2026-08-27T18:15:20.565Z</time>
      </trkpt>
      <trkpt lat="53.494103" lon="10.011853">
        <ele>2.596765</ele>
        <time>2026-08-27T18:15:25.579Z</time>
      </trkpt>
      <trkpt lat="53.493746" lon="10.010859">
        <ele>2.693407</ele>
        <time>2026-08-27T18:15:40.361Z</time>
      </trkpt>
      <trkpt lat="53.493462" lon="10.010041">
        <ele>2.708699</ele>
        <time>2026-08-27T18:15:52.174Z</time>
      </trkpt>
      <trkpt lat="53.493337" lon="10.009683">
        <ele>2.715401</ele>
        <time>2026-08-27T18:15:57.318Z</time>
      </trkpt>
      <trkpt lat="53.493280" lon="10.009589">
        <ele>2.717568</ele>
        <time>2026-08-27T18:15:58.974Z</time>
      </trkpt>
      <trkpt lat="53.493211" lon="10.009549">
        <ele>2.719549</ele>
        <time>2026-08-27T18:16:00.484Z</time>
      </trkpt>
      <trkpt lat="53.491832" lon="10.009375">
        <ele>2.701343</ele>
        <time>2026-08-27T18:16:29.533Z</time>
      </trkpt>
      <trkpt lat="53.490565" lon="10.009199">
        <ele>2.569603</ele>
        <time>2026-08-27T18:16:56.315Z</time>
      </trkpt>
      <trkpt lat="53.490361" lon="10.009135">
        <ele>2.524361</ele>
        <time>2026-08-27T18:17:00.605Z</time>
      </trkpt>
      <trkpt lat="53.490027" lon="10.009969">
        <ele>2.393960</ele>
        <time>2026-08-27T18:17:12.873Z</time>
      </trkpt>
      <trkpt lat="53.488996" lon="10.008824">
        <ele>2.178432</ele>
        <time>2026-08-27T18:17:38.284Z</time>
      </trkpt>
      <trkpt lat="53.488659" lon="10.008656">
        <ele>2.126890</ele>
        <time>2026-08-27T18:17:45.644Z</time>
      </trkpt>
      <trkpt lat="53.488170" lon="10.008491">
        <ele>2.053758</ele>
        <time>2026-08-27T18:17:56.058Z</time>
      </trkpt>
      <trkpt lat="53.488139" lon="10.008651">
        <ele>2.039077</ele>
        <time>2026-08-27T18:17:58.161Z</time>
      </trkpt>
      <trkpt lat="53.487909" lon="10.008658">
        <ele>2.031209</ele>
        <time>2026-08-27T18:18:06.121Z</time>
      </trkpt>
      <trkpt lat="53.487693" lon="10.008736">
        <ele>2.040650</ele>
        <time>2026-08-27T18:18:13.752Z</time>
      </trkpt>
      <trkpt lat="53.487550" lon="10.008730">
        <ele>2.046763</ele>
        <time>2026-08-27T18:18:16.759Z</time>
      </trkpt>
      <trkpt lat="53.487421" lon="10.008696">
        <ele>2.052344</ele>
        <time>2026-08-27T18:18:19.503Z</time>
      </trkpt>
      <trkpt lat="53.487387" lon="10.008675">
        <ele>2.053892</ele>
        <time>2026-08-27T18:18:20.280Z</time>
      </trkpt>
      <trkpt lat="53.486967" lon="10.008421">
        <ele>2.072967</ele>
        <time>2026-08-27T18:18:29.654Z</time>
      </trkpt>
      <trkpt lat="53.485669" lon="10.007680">
        <ele>2.172359</ele>
        <time>2026-08-27T18:18:58.920Z</time>
      </trkpt>
      <trkpt lat="53.485146" lon="10.007381">
        <ele>2.228835</ele>
        <time>2026-08-27T18:19:10.744Z</time>
      </trkpt>
      <trkpt lat="53.485022" lon="10.007435">
        <ele>2.241930</ele>
        <time>2026-08-27T18:19:13.471Z</time>
      </trkpt>
      <trkpt lat="53.484974" lon="10.007456">
        <ele>2.247001</ele>
        <time>2026-08-27T18:19:14.518Z</time>
      </trkpt>
      <trkpt lat="53.484785" lon="10.007548">
        <ele>2.267116</ele>
        <time>2026-08-27T18:19:18.706Z</time>
      </trkpt>
      <trkpt lat="53.484401" lon="10.007735">
        <ele>2.267741</ele>
        <time>2026-08-27T18:19:27.199Z</time>
      </trkpt>
      <trkpt lat="53.484182" lon="10.007841">
        <ele>2.248169</ele>
        <time>2026-08-27T18:19:32.006Z</time>
      </trkpt>
      <trkpt lat="53.484064" lon="10.007853">
        <ele>2.238017</ele>
        <time>2026-08-27T18:19:34.463Z</time>
      </trkpt>
      <trkpt lat="53.483280" lon="10.007692">
        <ele>2.170187</ele>
        <time>2026-08-27T18:19:50.767Z</time>
      </trkpt>
      <trkpt lat="53.483089" lon="10.007709">
        <ele>2.153761</ele>
        <time>2026-08-27T18:19:54.750Z</time>
      </trkpt>
      <trkpt lat="53.482727" lon="10.007942">
        <ele>2.169902</ele>
        <time>2026-08-27T18:20:02.912Z</time>
      </trkpt>
      <trkpt lat="53.482623" lon="10.008100">
        <ele>2.211100</ele>
        <time>2026-08-27T18:20:05.876Z</time>
      </trkpt>
      <trkpt lat="53.482044" lon="10.007668">
        <ele>2.397260</ele>
        <time>2026-08-27T18:20:19.390Z</time>
      </trkpt>
      <trkpt lat="53.481453" lon="10.007296">
        <ele>2.582713</ele>
        <time>2026-08-27T18:20:33.207Z</time>
      </trkpt>
      <trkpt lat="53.481419" lon="10.007301">
        <ele>2.592742</ele>
        <time>2026-08-27T18:20:33.961Z</time>
      </trkpt>
      <trkpt lat="53.481347" lon="10.007219">
        <ele>2.618301</ele>
        <time>2026-08-27T18:20:35.873Z</time>
      </trkpt>
      <trkpt lat="53.481102" lon="10.007086">
        <ele>2.712638</ele>
        <time>2026-08-27T18:20:41.550Z</time>
      </trkpt>
      <trkpt lat="53.480941" lon="10.007001">
        <ele>2.789662</ele>
        <time>2026-08-27T18:20:45.272Z</time>
      </trkpt>
      <trkpt lat="53.480888" lon="10.006743">
        <ele>2.863795</ele>
        <time>2026-08-27T18:20:49.803Z</time>
      </trkpt>
      <trkpt lat="53.480824" lon="10.006705">
        <ele>2.894775</ele>
        <time>2026-08-27T18:20:51.288Z</time>
      </trkpt>
      <trkpt lat="53.480815" lon="10.006700">
        <ele>2.899102</ele>
        <time>2026-08-27T18:20:51.543Z</time>
      </trkpt>
      <trkpt lat="53.480787" lon="10.006685">
        <ele>2.912515</ele>
        <time>2026-08-27T18:20:52.350Z</time>
      </trkpt>
      <trkpt lat="53.480760" lon="10.006671">
        <ele>2.925411</ele>
        <time>2026-08-27T18:20:53.152Z</time>
      </trkpt>
      <trkpt lat="53.480719" lon="10.006651">
        <ele>2.944897</ele>
        <time>2026-08-27T18:20:54.339Z</time>
      </trkpt>
      <trkpt lat="53.480848" lon="10.006013">
        <ele>3.127913</ele>
        <time>2026-08-27T18:21:03.393Z</time>
      </trkpt>
      <trkpt lat="53.480879" lon="10.005811">
        <ele>3.184573</ele>
        <time>2026-08-27T18:21:06.208Z</time>
      </trkpt>
      <trkpt lat="53.480946" lon="10.005373">
        <ele>3.307405</ele>
        <time>2026-08-27T18:21:12.283Z</time>
      </trkpt>
      <trkpt lat="53.481101" lon="10.004497">
        <ele>3.520879</ele>
        <time>2026-08-27T18:21:24.545Z</time>
      </trkpt>
      <trkpt lat="53.481070" lon="10.004484">
        <ele>3.528661</ele>
        <time>2026-08-27T18:21:25.249Z</time>
      </trkpt>
      <trkpt lat="53.480341" lon="10.004157">
        <ele>3.712427</ele>
        <time>2026-08-27T18:21:41.597Z</time>
      </trkpt>
      <trkpt lat="53.480263" lon="10.004069">
        <ele>3.735309</ele>
        <time>2026-08-27T18:21:43.622Z</time>
      </trkpt>
      <trkpt lat="53.480238" lon="10.004002">
        <ele>3.746771</ele>
        <time>2026-08-27T18:21:44.633Z</time>
      </trkpt>
      <trkpt lat="53.480128" lon="10.003160">
        <ele>3.871715</ele>
        <time>2026-08-27T18:21:55.696Z</time>
      </trkpt>
      <trkpt lat="53.480038" lon="10.002945">
        <ele>3.909814</ele>
        <time>2026-08-27T18:21:58.995Z</time>
      </trkpt>
      <trkpt lat="53.479956" lon="10.002900">
        <ele>3.911460</ele>
        <time>2026-08-27T18:22:00.817Z</time>
      </trkpt>
      <trkpt lat="53.479087" lon="10.002907">
        <ele>3.770961</ele>
        <time>2026-08-27T18:22:18.722Z</time>
      </trkpt>
      <trkpt lat="53.478759" lon="10.002821">
        <ele>3.717289</ele>
        <time>2026-08-27T18:22:25.506Z</time>
      </trkpt>
      <trkpt lat="53.478540" lon="10.002715">
        <ele>3.680442</ele>
        <time>2026-08-27T18:22:30.178Z</time>
      </trkpt>
      <trkpt lat="53.478247" lon="10.002503">
        <ele>3.628865</ele>
        <time>2026-08-27T18:22:36.766Z</time>
      </trkpt>
      <trkpt lat="53.477461" lon="10.001830">
        <ele>4.182887</ele>
        <time>2026-08-27T18:22:55.780Z</time>
      </trkpt>
      <trkpt lat="53.477180" lon="10.001678">
        <ele>4.369068</ele>
        <time>2026-08-27T18:23:02.441Z</time>
      </trkpt>
      <trkpt lat="53.476689" lon="10.001412">
        <ele>4.694434</ele>
        <time>2026-08-27T18:23:14.219Z</time>
      </trkpt>
      <trkpt lat="53.476510" lon="10.001276">
        <ele>4.818215</ele>
        <time>2026-08-27T18:23:18.657Z</time>
      </trkpt>
      <trkpt lat="53.476155" lon="10.000929">
        <ele>5.076693</ele>
        <time>2026-08-27T18:23:27.784Z</time>
      </trkpt>
      <trkpt lat="53.476103" lon="10.000879">
        <ele>5.114400</ele>
        <time>2026-08-27T18:23:29.099Z</time>
      </trkpt>
      <trkpt lat="53.476209" lon="10.000573">
        <ele>5.247019</ele>
        <time>2026-08-27T18:23:33.749Z</time>
      </trkpt>
      <trkpt lat="53.476564" lon="9.999521">
        <ele>5.699996</ele>
        <time>2026-08-27T18:23:49.650Z</time>
      </trkpt>
      <trkpt lat="53.476548" lon="9.999414">
        <ele>5.741320</ele>
        <time>2026-08-27T18:23:51.134Z</time>
      </trkpt>
      <trkpt lat="53.476579" lon="9.999304">
        <ele>5.786908</ele>
        <time>2026-08-27T18:23:52.754Z</time>
      </trkpt>
      <trkpt lat="53.476741" lon="9.998926">
        <ele>5.927721</ele>
        <time>2026-08-27T18:23:58.884Z</time>
      </trkpt>
      <trkpt lat="53.477083" lon="9.998306">
        <ele>6.084370</ele>
        <time>2026-08-27T18:24:09.998Z</time>
      </trkpt>
      <trkpt lat="53.477395" lon="9.997732">
        <ele>6.228420</ele>
        <time>2026-08-27T18:24:20.413Z</time>
      </trkpt>
      <trkpt lat="53.477630" lon="9.997203">
        <ele>6.350743</ele>
        <time>2026-08-27T18:24:29.321Z</time>
      </trkpt>
      <trkpt lat="53.477741" lon="9.996834">
        <ele>6.427358</ele>
        <time>2026-08-27T18:24:34.862Z</time>
      </trkpt>
      <trkpt lat="53.477701" lon="9.996616">
        <ele>6.420366</ele>
        <time>2026-08-27T18:24:38.627Z</time>
      </trkpt>
      <trkpt lat="53.477612" lon="9.996502">
        <ele>6.339530</ele>
        <time>2026-08-27T18:24:41.725Z</time>
      </trkpt>
      <trkpt lat="53.477486" lon="9.996397">
        <ele>6.237938</ele>
        <time>2026-08-27T18:24:45.637Z</time>
      </trkpt>
      <trkpt lat="53.477290" lon="9.996267">
        <ele>6.085731</ele>
        <time>2026-08-27T18:24:51.482Z</time>
      </trkpt>
      <trkpt lat="53.476910" lon="9.996268">
        <ele>5.811246</ele>
        <time>2026-08-27T18:25:02.026Z</time>
      </trkpt>
      <trkpt lat="53.476272" lon="9.996334">
        <ele>5.349528</ele>
        <time>2026-08-27T18:25:19.019Z</time>
      </trkpt>
      <trkpt lat="53.476107" lon="9.996350">
        <ele>5.230146</ele>
        <time>2026-08-27T18:25:22.894Z</time>
      </trkpt>
      <trkpt lat="53.476105" lon="9.996227">
        <ele>5.177249</ele>
        <time>2026-08-27T18:25:24.516Z</time>
      </trkpt>
      <trkpt lat="53.475870" lon="9.996204">
        <ele>4.880376</ele>
        <time>2026-08-27T18:25:28.366Z</time>
      </trkpt>
      <trkpt lat="53.475578" lon="9.996080">
        <ele>4.476841</ele>
        <time>2026-08-27T18:25:33.317Z</time>
      </trkpt>
      <trkpt lat="53.475539" lon="9.996060">
        <ele>4.422208</ele>
        <time>2026-08-27T18:25:33.967Z</time>
      </trkpt>
      <trkpt lat="53.475009" lon="9.995786">
        <ele>3.679239</ele>
        <time>2026-08-27T18:25:43.179Z</time>
      </trkpt>
      <trkpt lat="53.474978" lon="9.995771">
        <ele>3.636016</ele>
        <time>2026-08-27T18:25:43.696Z</time>
      </trkpt>
      <trkpt lat="53.471479" lon="9.993961">
        <ele>5.083662</ele>
        <time>2026-08-27T18:27:05.756Z</time>
      </trkpt>
      <trkpt lat="53.471449" lon="9.993944">
        <ele>5.103839</ele>
        <time>2026-08-27T18:27:06.445Z</time>
      </trkpt>
      <trkpt lat="53.471098" lon="9.993765">
        <ele>5.337611</ele>
        <time>2026-08-27T18:27:16.636Z</time>
      </trkpt>
      <trkpt lat="53.470985" lon="9.993699">
        <ele>5.413855</ele>
        <time>2026-08-27T18:27:19.947Z</time>
      </trkpt>
      <trkpt lat="53.470625" lon="9.993491">
        <ele>5.388339</ele>
        <time>2026-08-27T18:27:28.050Z</time>
      </trkpt>
      <trkpt lat="53.470392" lon="9.993685">
        <ele>5.320168</ele>
        <time>2026-08-27T18:27:33.496Z</time>
      </trkpt>
      <trkpt lat="53.470365" lon="9.993707">
        <ele>5.312302</ele>
        <time>2026-08-27T18:27:34.124Z</time>
      </trkpt>
      <trkpt lat="53.470289" lon="9.993708">
        <ele>5.292378</ele>
        <time>2026-08-27T18:27:35.710Z</time>
      </trkpt>
      <trkpt lat="53.470243" lon="9.993643">
        <ele>5.276620</ele>
        <time>2026-08-27T18:27:36.935Z</time>
      </trkpt>
      <trkpt lat="53.470174" lon="9.993611">
        <ele>5.257855</ele>
        <time>2026-08-27T18:27:38.421Z</time>
      </trkpt>
      <trkpt lat="53.470103" lon="9.993634">
        <ele>5.238900</ele>
        <time>2026-08-27T18:27:39.886Z</time>
      </trkpt>
      <trkpt lat="53.470051" lon="9.993698">
        <ele>5.222001</ele>
        <time>2026-08-27T18:27:41.208Z</time>
      </trkpt>
      <trkpt lat="53.470019" lon="9.993788">
        <ele>5.205643</ele>
        <time>2026-08-27T18:27:42.478Z</time>
      </trkpt>
      <trkpt lat="53.470012" lon="9.993901">
        <ele>5.187915</ele>
        <time>2026-08-27T18:27:43.873Z</time>
      </trkpt>
      <trkpt lat="53.470033" lon="9.994010">
        <ele>5.170037</ele>
        <time>2026-08-27T18:27:45.262Z</time>
      </trkpt>
      <trkpt lat="53.470097" lon="9.994109">
        <ele>5.147231</ele>
        <time>2026-08-27T18:27:47.042Z</time>
      </trkpt>
      <trkpt lat="53.470111" lon="9.994266">
        <ele>5.122459</ele>
        <time>2026-08-27T18:27:48.946Z</time>
      </trkpt>
      <trkpt lat="53.470117" lon="9.994532">
        <ele>5.080922</ele>
        <time>2026-08-27T18:27:52.065Z</time>
      </trkpt>
      <trkpt lat="53.470082" lon="9.994803">
        <ele>5.037650</ele>
        <time>2026-08-27T18:27:55.345Z</time>
      </trkpt>
      <trkpt lat="53.470063" lon="9.995209">
        <ele>4.929888</ele>
        <time>2026-08-27T18:28:00.264Z</time>
      </trkpt>
      <trkpt lat="53.470097" lon="9.995983">
        <ele>4.552253</ele>
        <time>2026-08-27T18:28:09.537Z</time>
      </trkpt>
      <trkpt lat="53.470082" lon="9.996339">
        <ele>4.378598</ele>
        <time>2026-08-27T18:28:13.707Z</time>
      </trkpt>
      <trkpt lat="53.469760" lon="9.998218">
        <ele>3.475484</ele>
        <time>2026-08-27T18:28:36.227Z</time>
      </trkpt>
      <trkpt lat="53.469548" lon="9.999334">
        <ele>3.187869</ele>
        <time>2026-08-27T18:28:50.294Z</time>
      </trkpt>
      <trkpt lat="53.469440" lon="9.999728">
        <ele>3.081370</ele>
        <time>2026-08-27T18:28:55.539Z</time>
      </trkpt>
      <trkpt lat="53.469249" lon="10.000216">
        <ele>2.937975</ele>
        <time>2026-08-27T18:29:02.709Z</time>
      </trkpt>
      <trkpt lat="53.469141" lon="10.000516">
        <ele>2.851896</ele>
        <time>2026-08-27T18:29:07.060Z</time>
      </trkpt>
      <trkpt lat="53.469058" lon="10.000846">
        <ele>2.763660</ele>
        <time>2026-08-27T18:29:11.529Z</time>
      </trkpt>
      <trkpt lat="53.468976" lon="10.001446">
        <ele>2.610289</ele>
        <time>2026-08-27T18:29:19.268Z</time>
      </trkpt>
      <trkpt lat="53.468958" lon="10.001807">
        <ele>2.520036</ele>
        <time>2026-08-27T18:29:23.757Z</time>
      </trkpt>
      <trkpt lat="53.468980" lon="10.002065">
        <ele>2.455102</ele>
        <time>2026-08-27T18:29:26.934Z</time>
      </trkpt>
      <trkpt lat="53.468857" lon="10.002170">
        <ele>2.397357</ele>
        <time>2026-08-27T18:29:29.731Z</time>
      </trkpt>
      <trkpt lat="53.468702" lon="10.002519">
        <ele>2.288874</ele>
        <time>2026-08-27T18:29:34.938Z</time>
      </trkpt>
      <trkpt lat="53.468614" lon="10.002640">
        <ele>2.241279</ele>
        <time>2026-08-27T18:29:37.213Z</time>
      </trkpt>
      <trkpt lat="53.468471" lon="10.002807">
        <ele>2.168388</ele>
        <time>2026-08-27T18:29:40.670Z</time>
      </trkpt>
      <trkpt lat="53.468282" lon="10.003092">
        <ele>2.062091</ele>
        <time>2026-08-27T18:29:45.665Z</time>
      </trkpt>
      <trkpt lat="53.468165" lon="10.003458">
        <ele>1.972192</ele>
        <time>2026-08-27T18:29:50.470Z</time>
      </trkpt>
      <trkpt lat="53.468126" lon="10.003886">
        <ele>1.884864</ele>
        <time>2026-08-27T18:29:55.598Z</time>
      </trkpt>
      <trkpt lat="53.468157" lon="10.005085">
        <ele>1.642813</ele>
        <time>2026-08-27T18:30:10.133Z</time>
      </trkpt>
      <trkpt lat="53.468165" lon="10.006082">
        <ele>1.441712</ele>
        <time>2026-08-27T18:30:22.802Z</time>
      </trkpt>
      <trkpt lat="53.468160" lon="10.006293">
        <ele>1.391625</ele>
        <time>2026-08-27T18:30:25.462Z</time>
      </trkpt>
      <trkpt lat="53.468140" lon="10.006896">
        <ele>1.227290</ele>
        <time>2026-08-27T18:30:32.958Z</time>
      </trkpt>
      <trkpt lat="53.468079" lon="10.006892">
        <ele>1.199384</ele>
        <time>2026-08-27T18:30:35.077Z</time>
      </trkpt>
      <trkpt lat="53.468032" lon="10.007353">
        <ele>1.072116</ele>
        <time>2026-08-27T18:30:44.727Z</time>
      </trkpt>
      <trkpt lat="53.468018" lon="10.007355">
        <ele>1.065693</ele>
        <time>2026-08-27T18:30:45.236Z</time>
      </trkpt>
      <trkpt lat="53.468013" lon="10.007211">
        <ele>1.026443</ele>
        <time>2026-08-27T18:30:48.210Z</time>
      </trkpt>
      <trkpt lat="53.467979" lon="10.007201">
        <ele>1.010665</ele>
        <time>2026-08-27T18:30:52.445Z</time>
      </trkpt>
      <trkpt lat="53.467906" lon="10.007182">
        <ele>0.976897</ele>
        <time>2026-08-27T18:30:54.990Z</time>
      </trkpt>
      <trkpt lat="53.467861" lon="10.007176">
        <ele>0.956262</ele>
        <time>2026-08-27T18:30:56.535Z</time>
      </trkpt>
      <trkpt lat="53.467079" lon="10.006510">
        <ele>0.578864</ele>
        <time>2026-08-27T18:31:26.767Z</time>
      </trkpt>
      <trkpt lat="53.467129" lon="10.006347">
        <ele>0.556145</ele>
        <time>2026-08-27T18:31:30.531Z</time>
      </trkpt>
      <trkpt lat="53.466361" lon="10.005686">
        <ele>0.376544</ele>
        <time>2026-08-27T18:31:48.153Z</time>
      </trkpt>
      <trkpt lat="53.466463" lon="10.005349">
        <ele>0.329704</ele>
        <time>2026-08-27T18:31:52.948Z</time>
      </trkpt>
      <trkpt lat="53.466456" lon="10.005273">
        <ele>0.320176</ele>
        <time>2026-08-27T18:31:53.923Z</time>
      </trkpt>
      <trkpt lat="53.466185" lon="10.004976">
        <ele>0.252831</ele>
        <time>2026-08-27T18:32:00.799Z</time>
      </trkpt>
      <trkpt lat="53.466116" lon="10.004848">
        <ele>0.231436</ele>
        <time>2026-08-27T18:32:02.990Z</time>
      </trkpt>
      <trkpt lat="53.464949" lon="10.003824">
        <ele>0.504593</ele>
        <time>2026-08-27T18:32:31.181Z</time>
      </trkpt>
      <trkpt lat="53.464438" lon="10.003376">
        <ele>0.639102</ele>
        <time>2026-08-27T18:32:43.678Z</time>
      </trkpt>
      <trkpt lat="53.463734" lon="10.002758">
        <ele>0.924821</ele>
        <time>2026-08-27T18:33:01.025Z</time>
      </trkpt>
      <trkpt lat="53.463638" lon="10.002711">
        <ele>0.960788</ele>
        <time>2026-08-27T18:33:03.209Z</time>
      </trkpt>
      <trkpt lat="53.463587" lon="10.003087">
        <ele>1.043368</ele>
        <time>2026-08-27T18:33:08.209Z</time>
      </trkpt>
      <trkpt lat="53.463527" lon="10.003201">
        <ele>1.075951</ele>
        <time>2026-08-27T18:33:10.174Z</time>
      </trkpt>
      <trkpt lat="53.463115" lon="10.002874">
        <ele>1.239856</ele>
        <time>2026-08-27T18:33:19.975Z</time>
      </trkpt>
      <trkpt lat="53.463104" lon="10.002932">
        <ele>1.252891</ele>
        <time>2026-08-27T18:33:22.480Z</time>
      </trkpt>
      <trkpt lat="53.463077" lon="10.003102">
        <ele>1.251743</ele>
        <time>2026-08-27T18:33:29.772Z</time>
      </trkpt>
      <trkpt lat="53.462995" lon="10.003917">
        <ele>1.161440</ele>
        <time>2026-08-27T18:34:03.950Z</time>
      </trkpt>
      <trkpt lat="53.462990" lon="10.003993">
        <ele>1.153086</ele>
        <time>2026-08-27T18:34:07.125Z</time>
      </trkpt>
      <trkpt lat="53.462954" lon="10.004609">
        <ele>1.085463</ele>
        <time>2026-08-27T18:34:32.718Z</time>
      </trkpt>
      <trkpt lat="53.462864" lon="10.004588">
        <ele>1.068789</ele>
        <time>2026-08-27T18:34:34.553Z</time>
      </trkpt>
      <trkpt lat="53.462848" lon="10.004830">
        <ele>1.042187</ele>
        <time>2026-08-27T18:34:37.496Z</time>
      </trkpt>
      <trkpt lat="53.462837" lon="10.005136">
        <ele>1.008695</ele>
        <time>2026-08-27T18:34:41.197Z</time>
      </trkpt>
      <trkpt lat="53.462917" lon="10.005147">
        <ele>0.993965</ele>
        <time>2026-08-27T18:34:42.840Z</time>
      </trkpt>
      <trkpt lat="53.463363" lon="10.005601">
        <ele>0.903777</ele>
        <time>2026-08-27T18:34:53.502Z</time>
      </trkpt>
      <trkpt lat="53.463399" lon="10.005815">
        <ele>0.883151</ele>
        <time>2026-08-27T18:34:56.231Z</time>
      </trkpt>
      <trkpt lat="53.463397" lon="10.005961">
        <ele>0.869605</ele>
        <time>2026-08-27T18:34:58.013Z</time>
      </trkpt>
      <trkpt lat="53.463419" lon="10.006756">
        <ele>0.795786</ele>
        <time>2026-08-27T18:35:07.697Z</time>
      </trkpt>
      <trkpt lat="53.463450" lon="10.007357">
        <ele>0.739831</ele>
        <time>2026-08-27T18:35:15.167Z</time>
      </trkpt>
      <trkpt lat="53.463470" lon="10.007727">
        <ele>0.705371</ele>
        <time>2026-08-27T18:35:19.867Z</time>
      </trkpt>
      <trkpt lat="53.463540" lon="10.008539">
        <ele>0.656178</ele>
        <time>2026-08-27T18:35:30.269Z</time>
      </trkpt>
      <trkpt lat="53.463602" lon="10.009256">
        <ele>0.660490</ele>
        <time>2026-08-27T18:35:39.402Z</time>
      </trkpt>
      <trkpt lat="53.463656" lon="10.009937">
        <ele>0.664579</ele>
        <time>2026-08-27T18:35:48.075Z</time>
      </trkpt>
      <trkpt lat="53.463687" lon="10.010329">
        <ele>0.666933</ele>
        <time>2026-08-27T18:35:53.031Z</time>
      </trkpt>
      <trkpt lat="53.463749" lon="10.011103">
        <ele>0.671581</ele>
        <time>2026-08-27T18:36:02.780Z</time>
      </trkpt>
      <trkpt lat="53.463879" lon="10.012772">
        <ele>0.596039</ele>
        <time>2026-08-27T18:36:23.691Z</time>
      </trkpt>
      <trkpt lat="53.464023" lon="10.014632">
        <ele>0.518590</ele>
        <time>2026-08-27T18:36:47.041Z</time>
      </trkpt>
      <trkpt lat="53.464028" lon="10.014835">
        <ele>0.517431</ele>
        <time>2026-08-27T18:36:49.580Z</time>
      </trkpt>
      <trkpt lat="53.464065" lon="10.016173">
        <ele>0.509793</ele>
        <time>2026-08-27T18:37:06.285Z</time>
      </trkpt>
      <trkpt lat="53.464028" lon="10.017143">
        <ele>0.504249</ele>
        <time>2026-08-27T18:37:18.541Z</time>
      </trkpt>
      <trkpt lat="53.463916" lon="10.018455">
        <ele>0.798708</ele>
        <time>2026-08-27T18:37:35.650Z</time>
      </trkpt>
      <trkpt lat="53.463879" lon="10.018573">
        <ele>0.831634</ele>
        <time>2026-08-27T18:37:37.386Z</time>
      </trkpt>
      <trkpt lat="53.463820" lon="10.018618">
        <ele>0.858505</ele>
        <time>2026-08-27T18:37:38.804Z</time>
      </trkpt>
      <trkpt lat="53.463527" lon="10.018391">
        <ele>0.992312</ele>
        <time>2026-08-27T18:37:45.890Z</time>
      </trkpt>
      <trkpt lat="53.463407" lon="10.018786">
        <ele>1.101794</ele>
        <time>2026-08-27T18:38:04.221Z</time>
      </trkpt>
      <trkpt lat="53.463377" lon="10.018785">
        <ele>1.114237</ele>
        <time>2026-08-27T18:38:06.307Z</time>
      </trkpt>
      <trkpt lat="53.463316" lon="10.018786">
        <ele>1.139535</ele>
        <time>2026-08-27T18:38:10.560Z</time>
      </trkpt>
      <trkpt lat="53.463289" lon="10.018785">
        <ele>1.150734</ele>
        <time>2026-08-27T18:38:12.429Z</time>
      </trkpt>
      <trkpt lat="53.463260" lon="10.018785">
        <ele>1.162760</ele>
        <time>2026-08-27T18:38:14.459Z</time>
      </trkpt>
      <trkpt lat="53.463224" lon="10.018782">
        <ele>1.177708</ele>
        <time>2026-08-27T18:38:16.956Z</time>
      </trkpt>
      <trkpt lat="53.463190" lon="10.018776">
        <ele>1.191885</ele>
        <time>2026-08-27T18:38:19.302Z</time>
      </trkpt>
      <trkpt lat="53.463223" lon="10.018291">
        <ele>1.313734</ele>
        <time>2026-08-27T18:38:25.684Z</time>
      </trkpt>
      <trkpt lat="53.463239" lon="10.018061">
        <ele>1.372110</ele>
        <time>2026-08-27T18:38:28.713Z</time>
      </trkpt>
      <trkpt lat="53.463284" lon="10.017735">
        <ele>1.456474</ele>
        <time>2026-08-27T18:38:33.053Z</time>
      </trkpt>
      <trkpt lat="53.463299" lon="10.017072">
        <ele>1.623734</ele>
        <time>2026-08-27T18:38:41.587Z</time>
      </trkpt>
      <trkpt lat="53.463274" lon="10.017067">
        <ele>1.634395</ele>
        <time>2026-08-27T18:38:42.130Z</time>
      </trkpt>
      <trkpt lat="53.463209" lon="10.017057">
        <ele>1.662034</ele>
        <time>2026-08-27T18:38:43.541Z</time>
      </trkpt>
      <trkpt lat="53.462741" lon="10.016939">
        <ele>1.862429</ele>
        <time>2026-08-27T18:38:59.862Z</time>
      </trkpt>
      <trkpt lat="53.462352" lon="10.016728">
        <ele>2.041567</ele>
        <time>2026-08-27T18:39:13.905Z</time>
      </trkpt>
      <trkpt lat="53.462302" lon="10.016953">
        <ele>2.117043</ele>
        <time>2026-08-27T18:39:18.813Z</time>
      </trkpt>
      <trkpt lat="53.462188" lon="10.016903">
        <ele>2.179238</ele>
        <time>2026-08-27T18:39:22.859Z</time>
      </trkpt>
      <trkpt lat="53.462154" lon="10.016884">
        <ele>2.198153</ele>
        <time>2026-08-27T18:39:24.080Z</time>
      </trkpt>
      <trkpt lat="53.462143" lon="10.016570">
        <ele>2.297005</ele>
        <time>2026-08-27T18:39:30.519Z</time>
      </trkpt>
      <trkpt lat="53.461911" lon="10.016391">
        <ele>2.431773</ele>
        <time>2026-08-27T18:39:36.148Z</time>
      </trkpt>
      <trkpt lat="53.461562" lon="10.016297">
        <ele>2.618354</ele>
        <time>2026-08-27T18:39:44.005Z</time>
      </trkpt>
      <trkpt lat="53.460623" lon="10.015754">
        <ele>2.848618</ele>
        <time>2026-08-27T18:40:05.803Z</time>
      </trkpt>
      <trkpt lat="53.460499" lon="10.015630">
        <ele>2.801817</ele>
        <time>2026-08-27T18:40:08.813Z</time>
      </trkpt>
      <trkpt lat="53.460329" lon="10.015194">
        <ele>2.701188</ele>
        <time>2026-08-27T18:40:15.173Z</time>
      </trkpt>
      <trkpt lat="53.460239" lon="10.015098">
        <ele>2.666613</ele>
        <time>2026-08-27T18:40:17.332Z</time>
      </trkpt>
      <trkpt lat="53.459949" lon="10.014920">
        <ele>2.566483</ele>
        <time>2026-08-27T18:40:23.512Z</time>
      </trkpt>
      <trkpt lat="53.459412" lon="10.014448">
        <ele>2.371132</ele>
        <time>2026-08-27T18:40:35.378Z</time>
      </trkpt>
      <trkpt lat="53.459005" lon="10.013860">
        <ele>2.225881</ele>
        <time>2026-08-27T18:40:46.023Z</time>
      </trkpt>
      <trkpt lat="53.458968" lon="10.013823">
        <ele>2.214230</ele>
        <time>2026-08-27T18:40:46.899Z</time>
      </trkpt>
      <trkpt lat="53.458942" lon="10.013803">
        <ele>2.206493</ele>
        <time>2026-08-27T18:40:47.462Z</time>
      </trkpt>
      <trkpt lat="53.458863" lon="10.013749">
        <ele>2.183416</ele>
        <time>2026-08-27T18:40:49.208Z</time>
      </trkpt>
      <trkpt lat="53.458559" lon="10.013540">
        <ele>2.094542</ele>
        <time>2026-08-27T18:40:56.006Z</time>
      </trkpt>
      <trkpt lat="53.458238" lon="10.013460">
        <ele>2.006742</ele>
        <time>2026-08-27T18:41:02.856Z</time>
      </trkpt>
      <trkpt lat="53.458001" lon="10.013202">
        <ele>1.930328</ele>
        <time>2026-08-27T18:41:08.885Z</time>
      </trkpt>
      <trkpt lat="53.457788" lon="10.013048">
        <ele>1.867001</ele>
        <time>2026-08-27T18:41:13.874Z</time>
      </trkpt>
      <trkpt lat="53.457721" lon="10.012941">
        <ele>1.841350</ele>
        <time>2026-08-27T18:41:15.859Z</time>
      </trkpt>
      <trkpt lat="53.457344" lon="10.012677">
        <ele>1.728027</ele>
        <time>2026-08-27T18:41:24.622Z</time>
      </trkpt>
      <trkpt lat="53.456893" lon="10.012637">
        <ele>1.602726</ele>
        <time>2026-08-27T18:41:33.953Z</time>
      </trkpt>
      <trkpt lat="53.456657" lon="10.012295">
        <ele>1.516244</ele>
        <time>2026-08-27T18:41:40.211Z</time>
      </trkpt>
      <trkpt lat="53.456373" lon="10.012103">
        <ele>1.431306</ele>
        <time>2026-08-27T18:41:46.281Z</time>
      </trkpt>
      <trkpt lat="53.456237" lon="10.011949">
        <ele>1.382141</ele>
        <time>2026-08-27T18:41:49.493Z</time>
      </trkpt>
      <trkpt lat="53.455330" lon="10.010901">
        <ele>0.881732</ele>
        <time>2026-08-27T18:42:11.413Z</time>
      </trkpt>
      <trkpt lat="53.454957" lon="10.010539">
        <ele>0.685918</ele>
        <time>2026-08-27T18:42:20.341Z</time>
      </trkpt>
      <trkpt lat="53.454610" lon="10.010100">
        <ele>0.650194</ele>
        <time>2026-08-27T18:42:29.453Z</time>
      </trkpt>
      <trkpt lat="53.454529" lon="10.010056">
        <ele>0.684666</ele>
        <time>2026-08-27T18:42:31.248Z</time>
      </trkpt>
      <trkpt lat="53.454386" lon="10.010011">
        <ele>0.743578</ele>
        <time>2026-08-27T18:42:34.322Z</time>
      </trkpt>
      <trkpt lat="53.454333" lon="10.009952">
        <ele>0.769326</ele>
        <time>2026-08-27T18:42:35.665Z</time>
      </trkpt>
      <trkpt lat="53.454144" lon="10.009624">
        <ele>0.879379</ele>
        <time>2026-08-27T18:42:41.433Z</time>
      </trkpt>
      <trkpt lat="53.453960" lon="10.009406">
        <ele>0.970561</ele>
        <time>2026-08-27T18:42:46.281Z</time>
      </trkpt>
      <trkpt lat="53.453833" lon="10.009209">
        <ele>1.040567</ele>
        <time>2026-08-27T18:42:49.995Z</time>
      </trkpt>
      <trkpt lat="53.453426" lon="10.008718">
        <ele>1.243488</ele>
        <time>2026-08-27T18:43:01.151Z</time>
      </trkpt>
      <trkpt lat="53.453020" lon="10.008114">
        <ele>1.576741</ele>
        <time>2026-08-27T18:43:13.517Z</time>
      </trkpt>
      <trkpt lat="53.452716" lon="10.007763">
        <ele>1.831674</ele>
        <time>2026-08-27T18:43:21.906Z</time>
      </trkpt>
      <trkpt lat="53.452535" lon="10.007505">
        <ele>1.995732</ele>
        <time>2026-08-27T18:43:27.309Z</time>
      </trkpt>
      <trkpt lat="53.452422" lon="10.007454">
        <ele>2.076588</ele>
        <time>2026-08-27T18:43:29.967Z</time>
      </trkpt>
      <trkpt lat="53.451527" lon="10.009604">
        <ele>2.331467</ele>
        <time>2026-08-27T18:44:02.414Z</time>
      </trkpt>
      <trkpt lat="53.451466" lon="10.009750">
        <ele>2.305787</ele>
        <time>2026-08-27T18:44:04.534Z</time>
      </trkpt>
      <trkpt lat="53.451128" lon="10.010568">
        <ele>2.162428</ele>
        <time>2026-08-27T18:44:16.562Z</time>
      </trkpt>
      <trkpt lat="53.451093" lon="10.010524">
        <ele>2.151857</ele>
        <time>2026-08-27T18:44:17.476Z</time>
      </trkpt>
      <trkpt lat="53.451054" lon="10.010479">
        <ele>2.140415</ele>
        <time>2026-08-27T18:44:18.431Z</time>
      </trkpt>
      <trkpt lat="53.451039" lon="10.010460">
        <ele>2.135872</ele>
        <time>2026-08-27T18:44:18.870Z</time>
      </trkpt>
      <trkpt lat="53.451139" lon="10.010224">
        <ele>2.123338</ele>
        <time>2026-08-27T18:44:24.853Z</time>
      </trkpt>
      <trkpt lat="53.451160" lon="10.010177">
        <ele>2.130168</ele>
        <time>2026-08-27T18:44:25.564Z</time>
      </trkpt>
      <trkpt lat="53.451290" lon="10.009879">
        <ele>2.173105</ele>
        <time>2026-08-27T18:44:33.204Z</time>
      </trkpt>
      <trkpt lat="53.451291" lon="10.009787">
        <ele>2.183800</ele>
        <time>2026-08-27T18:44:35.087Z</time>
      </trkpt>
      <trkpt lat="53.451265" lon="10.009723">
        <ele>2.192805</ele>
        <time>2026-08-27T18:44:36.693Z</time>
      </trkpt>
      <trkpt lat="53.447763" lon="10.004487">
        <ele>3.156370</ele>
        <time>2026-08-27T18:47:18.507Z</time>
      </trkpt>
      <trkpt lat="53.447752" lon="10.004461">
        <ele>3.160684</ele>
        <time>2026-08-27T18:47:19.144Z</time>
      </trkpt>
      <trkpt lat="53.447727" lon="10.004395">
        <ele>3.171263</ele>
        <time>2026-08-27T18:47:20.160Z</time>
      </trkpt>
      <trkpt lat="53.447701" lon="10.004330">
        <ele>3.181854</ele>
        <time>2026-08-27T18:47:21.261Z</time>
      </trkpt>
      <trkpt lat="53.447265" lon="10.005108">
        <ele>3.288414</ele>
        <time>2026-08-27T18:47:34.831Z</time>
      </trkpt>
      <trkpt lat="53.446037" lon="10.007241">
        <ele>3.692312</ele>
        <time>2026-08-27T18:48:12.577Z</time>
      </trkpt>
      <trkpt lat="53.445892" lon="10.007054">
        <ele>3.781049</ele>
        <time>2026-08-27T18:48:16.587Z</time>
      </trkpt>
      <trkpt lat="53.445561" lon="10.006716">
        <ele>3.969073</ele>
        <time>2026-08-27T18:48:25.114Z</time>
      </trkpt>
      <trkpt lat="53.445285" lon="10.006316">
        <ele>4.146027</ele>
        <time>2026-08-27T18:48:33.179Z</time>
      </trkpt>
      <trkpt lat="53.444388" lon="10.007597">
        <ele>4.587881</ele>
        <time>2026-08-27T18:48:59.089Z</time>
      </trkpt>
      <trkpt lat="53.442296" lon="10.010534">
        <ele>5.070181</ele>
        <time>2026-08-27T18:49:57.287Z</time>
      </trkpt>
      <trkpt lat="53.441336" lon="10.011318">
        <ele>5.163458</ele>
        <time>2026-08-27T18:50:19.793Z</time>
      </trkpt>
      <trkpt lat="53.441125" lon="10.011538">
        <ele>5.185002</ele>
        <time>2026-08-27T18:50:24.984Z</time>
      </trkpt>
      <trkpt lat="53.440603" lon="10.012170">
        <ele>5.251672</ele>
        <time>2026-08-27T18:50:38.776Z</time>
      </trkpt>
      <trkpt lat="53.440447" lon="10.012284">
        <ele>5.316536</ele>
        <time>2026-08-27T18:50:42.443Z</time>
      </trkpt>
      <trkpt lat="53.440381" lon="10.012326">
        <ele>5.343445</ele>
        <time>2026-08-27T18:50:43.972Z</time>
      </trkpt>
      <trkpt lat="53.439991" lon="10.012565">
        <ele>5.501728</ele>
        <time>2026-08-27T18:50:52.948Z</time>
      </trkpt>
      <trkpt lat="53.438674" lon="10.013770">
        <ele>6.025298</ele>
        <time>2026-08-27T18:51:25.726Z</time>
      </trkpt>
      <trkpt lat="53.438381" lon="10.014038">
        <ele>6.111634</ele>
        <time>2026-08-27T18:51:32.997Z</time>
      </trkpt>
      <trkpt lat="53.438137" lon="10.014336">
        <ele>6.189709</ele>
        <time>2026-08-27T18:51:39.597Z</time>
      </trkpt>
      <trkpt lat="53.437319" lon="10.015332">
        <ele>6.285904</ele>
        <time>2026-08-27T18:52:01.055Z</time>
      </trkpt>
      <trkpt lat="53.437234" lon="10.015509">
        <ele>6.228168</ele>
        <time>2026-08-27T18:52:03.869Z</time>
      </trkpt>
      <trkpt lat="53.434872" lon="10.019353">
        <ele>4.669597</ele>
        <time>2026-08-27T18:53:09.876Z</time>
      </trkpt>
      <trkpt lat="53.434843" lon="10.019398">
        <ele>4.658597</ele>
        <time>2026-08-27T18:53:10.684Z</time>
      </trkpt>
      <trkpt lat="53.434547" lon="10.019836">
        <ele>4.548693</ele>
        <time>2026-08-27T18:53:18.847Z</time>
      </trkpt>
      <trkpt lat="53.433808" lon="10.020958">
        <ele>4.271156</ele>
        <time>2026-08-27T18:53:39.517Z</time>
      </trkpt>
      <trkpt lat="53.433459" lon="10.021442">
        <ele>4.130828</ele>
        <time>2026-08-27T18:53:48.854Z</time>
      </trkpt>
      <trkpt lat="53.432849" lon="10.022286">
        <ele>3.837478</ele>
        <time>2026-08-27T18:54:04.849Z</time>
      </trkpt>
      <trkpt lat="53.432424" lon="10.023022">
        <ele>3.610877</ele>
        <time>2026-08-27T18:54:17.241Z</time>
      </trkpt>
      <trkpt lat="53.431949" lon="10.023637">
        <ele>3.542259</ele>
        <time>2026-08-27T18:54:29.632Z</time>
      </trkpt>
      <trkpt lat="53.428041" lon="10.028195">
        <ele>3.864285</ele>
        <time>2026-08-27T18:56:10.824Z</time>
      </trkpt>
      <trkpt lat="53.427600" lon="10.028666">
        <ele>3.882272</ele>
        <time>2026-08-27T18:56:21.894Z</time>
      </trkpt>
      <trkpt lat="53.427408" lon="10.028967">
        <ele>3.876946</ele>
        <time>2026-08-27T18:56:27.437Z</time>
      </trkpt>
      <trkpt lat="53.425567" lon="10.032109">
        <ele>4.221125</ele>
        <time>2026-08-27T18:57:39.680Z</time>
      </trkpt>
      <trkpt lat="53.424523" lon="10.033473">
        <ele>4.866496</ele>
        <time>2026-08-27T18:58:16.744Z</time>
      </trkpt>
      <trkpt lat="53.424436" lon="10.033557">
        <ele>4.926929</ele>
        <time>2026-08-27T18:58:19.544Z</time>
      </trkpt>
      <trkpt lat="53.423875" lon="10.034092">
        <ele>5.315437</ele>
        <time>2026-08-27T18:58:34.064Z</time>
      </trkpt>
      <trkpt lat="53.423425" lon="10.034552">
        <ele>5.411964</ele>
        <time>2026-08-27T18:58:48.556Z</time>
      </trkpt>
      <trkpt lat="53.423242" lon="10.034700">
        <ele>5.398439</ele>
        <time>2026-08-27T18:58:52.736Z</time>
      </trkpt>
      <trkpt lat="53.423053" lon="10.034794">
        <ele>5.385314</ele>
        <time>2026-08-27T18:58:56.747Z</time>
      </trkpt>
      <trkpt lat="53.422856" lon="10.034817">
        <ele>5.372166</ele>
        <time>2026-08-27T18:59:00.674Z</time>
      </trkpt>
      <trkpt lat="53.421604" lon="10.034881">
        <ele>5.406730</ele>
        <time>2026-08-27T18:59:27.235Z</time>
      </trkpt>
      <trkpt lat="53.421309" lon="10.034752">
        <ele>5.480626</ele>
        <time>2026-08-27T18:59:33.975Z</time>
      </trkpt>
      <trkpt lat="53.421232" lon="10.034760">
        <ele>5.499326</ele>
        <time>2026-08-27T18:59:35.674Z</time>
      </trkpt>
      <trkpt lat="53.421167" lon="10.034881">
        <ele>5.522858</ele>
        <time>2026-08-27T18:59:37.776Z</time>
      </trkpt>
      <trkpt lat="53.420496" lon="10.036060">
        <ele>5.750743</ele>
        <time>2026-08-27T18:59:58.572Z</time>
      </trkpt>
      <trkpt lat="53.420472" lon="10.036235">
        <ele>5.752536</ele>
        <time>2026-08-27T19:00:00.848Z</time>
      </trkpt>
      <trkpt lat="53.420362" lon="10.036448">
        <ele>5.755350</ele>
        <time>2026-08-27T19:00:04.444Z</time>
      </trkpt>
      <trkpt lat="53.419509" lon="10.037869">
        <ele>5.775488</ele>
        <time>2026-08-27T19:00:29.826Z</time>
      </trkpt>
      <trkpt lat="53.418257" lon="10.040465">
        <ele>5.680823</ele>
        <time>2026-08-27T19:01:11.495Z</time>
      </trkpt>
      <trkpt lat="53.417268" lon="10.042639">
        <ele>5.495026</ele>
        <time>2026-08-27T19:01:45.591Z</time>
      </trkpt>
      <trkpt lat="53.416919" lon="10.043491">
        <ele>5.287334</ele>
        <time>2026-08-27T19:01:58.512Z</time>
      </trkpt>
      <trkpt lat="53.416330" lon="10.044859">
        <ele>4.781607</ele>
        <time>2026-08-27T19:02:18.615Z</time>
      </trkpt>
      <trkpt lat="53.416382" lon="10.045169">
        <ele>4.685100</ele>
        <time>2026-08-27T19:02:22.865Z</time>
      </trkpt>
      <trkpt lat="53.416514" lon="10.045553">
        <ele>4.558005</ele>
        <time>2026-08-27T19:02:28.702Z</time>
      </trkpt>
      <trkpt lat="53.416973" lon="10.045972">
        <ele>4.502860</ele>
        <time>2026-08-27T19:02:40.364Z</time>
      </trkpt>
      <trkpt lat="53.417118" lon="10.046139">
        <ele>4.484299</ele>
        <time>2026-08-27T19:02:44.336Z</time>
      </trkpt>
      <trkpt lat="53.417257" lon="10.046423">
        <ele>4.461185</ele>
        <time>2026-08-27T19:02:49.355Z</time>
      </trkpt>
      <trkpt lat="53.417277" lon="10.046513">
        <ele>4.455144</ele>
        <time>2026-08-27T19:02:50.685Z</time>
      </trkpt>
      <trkpt lat="53.417369" lon="10.046936">
        <ele>4.426822</ele>
        <time>2026-08-27T19:02:57.063Z</time>
      </trkpt>
      <trkpt lat="53.417469" lon="10.047727">
        <ele>4.375964</ele>
        <time>2026-08-27T19:03:08.694Z</time>
      </trkpt>
      <trkpt lat="53.417487" lon="10.048435">
        <ele>4.390484</ele>
        <time>2026-08-27T19:03:18.810Z</time>
      </trkpt>
      <trkpt lat="53.417547" lon="10.048954">
        <ele>4.408507</ele>
        <time>2026-08-27T19:03:26.243Z</time>
      </trkpt>
      <trkpt lat="53.417800" lon="10.050902">
        <ele>4.458833</ele>
        <time>2026-08-27T19:03:51.015Z</time>
      </trkpt>
      <trkpt lat="53.416715" lon="10.051638">
        <ele>4.220958</ele>
        <time>2026-08-27T19:04:15.243Z</time>
      </trkpt>
      <trkpt lat="53.416331" lon="10.051889">
        <ele>4.137194</ele>
        <time>2026-08-27T19:04:23.801Z</time>
      </trkpt>
      <trkpt lat="53.415699" lon="10.052294">
        <ele>4.049501</ele>
        <time>2026-08-27T19:04:37.672Z</time>
      </trkpt>
      <trkpt lat="53.415380" lon="10.052499">
        <ele>4.012295</ele>
        <time>2026-08-27T19:04:44.643Z</time>
      </trkpt>
      <trkpt lat="53.414526" lon="10.053050">
        <ele>3.912638</ele>
        <time>2026-08-27T19:05:04.026Z</time>
      </trkpt>
      <trkpt lat="53.414189" lon="10.053142">
        <ele>4.058684</ele>
        <time>2026-08-27T19:05:11.339Z</time>
      </trkpt>
      <trkpt lat="53.413702" lon="10.053455">
        <ele>4.293745</ele>
        <time>2026-08-27T19:05:22.603Z</time>
      </trkpt>
      <trkpt lat="53.413498" lon="10.053586">
        <ele>4.392200</ele>
        <time>2026-08-27T19:05:27.378Z</time>
      </trkpt>
      <trkpt lat="53.413159" lon="10.053783">
        <ele>4.553904</ele>
        <time>2026-08-27T19:05:35.341Z</time>
      </trkpt>
      <trkpt lat="53.412789" lon="10.053896">
        <ele>4.723615</ele>
        <time>2026-08-27T19:05:43.718Z</time>
      </trkpt>
      <trkpt lat="53.412762" lon="10.053904">
        <ele>4.737509</ele>
        <time>2026-08-27T19:05:44.319Z</time>
      </trkpt>
      <trkpt lat="53.412667" lon="10.053880">
        <ele>4.786197</ele>
        <time>2026-08-27T19:05:46.476Z</time>
      </trkpt>
      <trkpt lat="53.412687" lon="10.053776">
        <ele>4.819206</ele>
        <time>2026-08-27T19:05:47.918Z</time>
      </trkpt>
      <trkpt lat="53.412659" lon="10.053287">
        <ele>4.967597</ele>
        <time>2026-08-27T19:05:54.427Z</time>
      </trkpt>
      <trkpt lat="53.412545" lon="10.052780">
        <ele>5.131280</ele>
        <time>2026-08-27T19:06:01.593Z</time>
      </trkpt>
      <trkpt lat="53.412458" lon="10.052758">
        <ele>5.175868</ele>
        <time>2026-08-27T19:06:03.537Z</time>
      </trkpt>
      <trkpt lat="53.412360" lon="10.052803">
        <ele>5.227360</ele>
        <time>2026-08-27T19:06:05.776Z</time>
      </trkpt>
      <trkpt lat="53.412243" lon="10.052926">
        <ele>5.297333</ele>
        <time>2026-08-27T19:06:08.812Z</time>
      </trkpt>
      <trkpt lat="53.412011" lon="10.053270">
        <ele>5.454245</ele>
        <time>2026-08-27T19:06:15.532Z</time>
      </trkpt>
      <trkpt lat="53.411870" lon="10.053482">
        <ele>5.550198</ele>
        <time>2026-08-27T19:06:19.596Z</time>
      </trkpt>
      <trkpt lat="53.411548" lon="10.054102">
        <ele>5.642251</ele>
        <time>2026-08-27T19:06:29.988Z</time>
      </trkpt>
      <trkpt lat="53.411432" lon="10.054341">
        <ele>5.647271</ele>
        <time>2026-08-27T19:06:33.849Z</time>
      </trkpt>
      <trkpt lat="53.410842" lon="10.055298">
        <ele>5.669695</ele>
        <time>2026-08-27T19:06:51.135Z</time>
      </trkpt>
      <trkpt lat="53.406480" lon="10.062054">
        <ele>5.517619</ele>
        <time>2026-08-27T19:08:55.921Z</time>
      </trkpt>
      <trkpt lat="53.406414" lon="10.062233">
        <ele>5.516603</ele>
        <time>2026-08-27T19:08:58.555Z</time>
      </trkpt>
      <trkpt lat="53.406385" lon="10.062524">
        <ele>5.515180</ele>
        <time>2026-08-27T19:09:02.265Z</time>
      </trkpt>
      <trkpt lat="53.406113" lon="10.062770">
        <ele>5.512679</ele>
        <time>2026-08-27T19:09:08.855Z</time>
      </trkpt>
      <trkpt lat="53.406040" lon="10.062874">
        <ele>5.511904</ele>
        <time>2026-08-27T19:09:10.909Z</time>
      </trkpt>
      <trkpt lat="53.406057" lon="10.062932">
        <ele>5.511592</ele>
        <time>2026-08-27T19:09:12.242Z</time>
      </trkpt>
      <trkpt lat="53.405879" lon="10.063255">
        <ele>5.509470</ele>
        <time>2026-08-27T19:09:17.789Z</time>
      </trkpt>
      <trkpt lat="53.405425" lon="10.064325">
        <ele>5.484070</ele>
        <time>2026-08-27T19:09:34.189Z</time>
      </trkpt>
      <trkpt lat="53.405538" lon="10.064490">
        <ele>5.438191</ele>
        <time>2026-08-27T19:09:37.318Z</time>
      </trkpt>
      <trkpt lat="53.405552" lon="10.064604">
        <ele>5.416942</ele>
        <time>2026-08-27T19:09:38.761Z</time>
      </trkpt>
      <trkpt lat="53.405529" lon="10.064721">
        <ele>5.394450</ele>
        <time>2026-08-27T19:09:40.286Z</time>
      </trkpt>
      <trkpt lat="53.405317" lon="10.064946">
        <ele>5.317624</ele>
        <time>2026-08-27T19:09:45.451Z</time>
      </trkpt>
      <trkpt lat="53.405257" lon="10.065058">
        <ele>5.290133</ele>
        <time>2026-08-27T19:09:47.295Z</time>
      </trkpt>
      <trkpt lat="53.404465" lon="10.066953">
        <ele>4.895449</ele>
        <time>2026-08-27T19:10:15.395Z</time>
      </trkpt>
      <trkpt lat="53.404087" lon="10.067989">
        <ele>4.746117</ele>
        <time>2026-08-27T19:10:30.447Z</time>
      </trkpt>
      <trkpt lat="53.403915" lon="10.068390">
        <ele>4.685381</ele>
        <time>2026-08-27T19:10:36.546Z</time>
      </trkpt>
      <trkpt lat="53.403735" lon="10.068668">
        <ele>4.634922</ele>
        <time>2026-08-27T19:10:41.616Z</time>
      </trkpt>
      <trkpt lat="53.403577" lon="10.068855">
        <ele>4.595043</ele>
        <time>2026-08-27T19:10:45.618Z</time>
      </trkpt>
      <trkpt lat="53.403378" lon="10.069015">
        <ele>4.588624</ele>
        <time>2026-08-27T19:10:50.223Z</time>
      </trkpt>
      <trkpt lat="53.403162" lon="10.069137">
        <ele>4.598376</ele>
        <time>2026-08-27T19:10:54.983Z</time>
      </trkpt>
      <trkpt lat="53.402962" lon="10.069176">
        <ele>4.606991</ele>
        <time>2026-08-27T19:10:59.222Z</time>
      </trkpt>
      <trkpt lat="53.402777" lon="10.069169">
        <ele>4.614909</ele>
        <time>2026-08-27T19:11:03.136Z</time>
      </trkpt>
      <trkpt lat="53.402418" lon="10.069073">
        <ele>4.630465</ele>
        <time>2026-08-27T19:11:10.838Z</time>
      </trkpt>
      <trkpt lat="53.402255" lon="10.069086">
        <ele>4.637447</ele>
        <time>2026-08-27T19:11:14.276Z</time>
      </trkpt>
      <trkpt lat="53.402093" lon="10.069162">
        <ele>4.644645</ele>
        <time>2026-08-27T19:11:17.833Z</time>
      </trkpt>
      <trkpt lat="53.401931" lon="10.069313">
        <ele>4.652575</ele>
        <time>2026-08-27T19:11:21.769Z</time>
      </trkpt>
      <trkpt lat="53.401780" lon="10.069539">
        <ele>4.679863</ele>
        <time>2026-08-27T19:11:26.105Z</time>
      </trkpt>
      <trkpt lat="53.401086" lon="10.070828">
        <ele>5.073019</ele>
        <time>2026-08-27T19:11:48.620Z</time>
      </trkpt>
      <trkpt lat="53.400317" lon="10.072340">
        <ele>5.457653</ele>
        <time>2026-08-27T19:12:14.590Z</time>
      </trkpt>
      <trkpt lat="53.399456" lon="10.074134">
        <ele>5.779457</ele>
        <time>2026-08-27T19:12:43.992Z</time>
      </trkpt>
      <trkpt lat="53.398672" lon="10.075892">
        <ele>5.799779</ele>
        <time>2026-08-27T19:13:11.647Z</time>
      </trkpt>
      <trkpt lat="53.397722" lon="10.078212">
        <ele>5.633542</ele>
        <time>2026-08-27T19:13:46.599Z</time>
      </trkpt>
      <trkpt lat="53.397064" lon="10.079932">
        <ele>5.449815</ele>
        <time>2026-08-27T19:14:11.957Z</time>
      </trkpt>
      <trkpt lat="53.396516" lon="10.081456">
        <ele>5.279728</ele>
        <time>2026-08-27T19:14:34.069Z</time>
      </trkpt>
      <trkpt lat="53.396127" lon="10.082622">
        <ele>5.039173</ele>
        <time>2026-08-27T19:14:50.430Z</time>
      </trkpt>
      <trkpt lat="53.396031" lon="10.082993">
        <ele>4.962667</ele>
        <time>2026-08-27T19:14:55.332Z</time>
      </trkpt>
      <trkpt lat="53.395871" lon="10.084553">
        <ele>4.690811</ele>
        <time>2026-08-27T19:15:14.553Z</time>
      </trkpt>
      <trkpt lat="53.395785" lon="10.084983">
        <ele>4.675819</ele>
        <time>2026-08-27T19:15:20.136Z</time>
      </trkpt>
      <trkpt lat="53.395680" lon="10.085357">
        <ele>4.662155</ele>
        <time>2026-08-27T19:15:25.250Z</time>
      </trkpt>
      <trkpt lat="53.395258" lon="10.086463">
        <ele>4.618751</ele>
        <time>2026-08-27T19:15:41.692Z</time>
      </trkpt>
      <trkpt lat="53.394445" lon="10.089374">
        <ele>4.863164</ele>
        <time>2026-08-27T19:16:22.771Z</time>
      </trkpt>
      <trkpt lat="53.394314" lon="10.089843">
        <ele>4.917501</ele>
        <time>2026-08-27T19:16:29.392Z</time>
      </trkpt>
      <trkpt lat="53.394246" lon="10.090088">
        <ele>4.947427</ele>
        <time>2026-08-27T19:16:32.832Z</time>
      </trkpt>
      <trkpt lat="53.393726" lon="10.091944">
        <ele>5.174516</ele>
        <time>2026-08-27T19:16:59.144Z</time>
      </trkpt>
      <trkpt lat="53.393650" lon="10.092257">
        <ele>5.211941</ele>
        <time>2026-08-27T19:17:03.476Z</time>
      </trkpt>
      <trkpt lat="53.393659" lon="10.092736">
        <ele>5.246665</ele>
        <time>2026-08-27T19:17:09.498Z</time>
      </trkpt>
      <trkpt lat="53.393625" lon="10.093838">
        <ele>5.255178</ele>
        <time>2026-08-27T19:17:23.356Z</time>
      </trkpt>
      <trkpt lat="53.393571" lon="10.094258">
        <ele>5.258493</ele>
        <time>2026-08-27T19:17:28.703Z</time>
      </trkpt>
      <trkpt lat="53.393345" lon="10.095532">
        <ele>5.275395</ele>
        <time>2026-08-27T19:17:45.353Z</time>
      </trkpt>
      <trkpt lat="53.393259" lon="10.095914">
        <ele>5.391046</ele>
        <time>2026-08-27T19:17:50.542Z</time>
      </trkpt>
      <trkpt lat="53.393003" lon="10.096667">
        <ele>5.636550</ele>
        <time>2026-08-27T19:18:01.847Z</time>
      </trkpt>
      <trkpt lat="53.392830" lon="10.097035">
        <ele>5.769277</ele>
        <time>2026-08-27T19:18:08.030Z</time>
      </trkpt>
      <trkpt lat="53.392634" lon="10.097349">
        <ele>5.898027</ele>
        <time>2026-08-27T19:18:14.050Z</time>
      </trkpt>
      <trkpt lat="53.392150" lon="10.097876">
        <ele>6.152712</ele>
        <time>2026-08-27T19:18:26.781Z</time>
      </trkpt>
      <trkpt lat="53.391989" lon="10.098115">
        <ele>6.214588</ele>
        <time>2026-08-27T19:18:31.493Z</time>
      </trkpt>
      <trkpt lat="53.391810" lon="10.098814">
        <ele>6.345132</ele>
        <time>2026-08-27T19:18:41.363Z</time>
      </trkpt>
      <trkpt lat="53.391725" lon="10.099291">
        <ele>6.430564</ele>
        <time>2026-08-27T19:18:47.752Z</time>
      </trkpt>
      <trkpt lat="53.391584" lon="10.099780">
        <ele>6.523774</ele>
        <time>2026-08-27T19:18:54.649Z</time>
      </trkpt>
      <trkpt lat="53.391191" lon="10.101191">
        <ele>6.624139</ele>
        <time>2026-08-27T19:19:14.318Z</time>
      </trkpt>
      <trkpt lat="53.390113" lon="10.104418">
        <ele>6.404323</ele>
        <time>2026-08-27T19:20:00.544Z</time>
      </trkpt>
      <trkpt lat="53.389063" lon="10.107225">
        <ele>6.100068</ele>
        <time>2026-08-27T19:20:41.091Z</time>
      </trkpt>
      <trkpt lat="53.388706" lon="10.108009">
        <ele>6.027721</ele>
        <time>2026-08-27T19:20:53.606Z</time>
      </trkpt>
      <trkpt lat="53.388350" lon="10.108792">
        <ele>6.026146</ele>
        <time>2026-08-27T19:21:06.134Z</time>
      </trkpt>
      <trkpt lat="53.388008" lon="10.109436">
        <ele>6.037864</ele>
        <time>2026-08-27T19:21:17.095Z</time>
      </trkpt>
      <trkpt lat="53.388115" lon="10.109580">
        <ele>6.040990</ele>
        <time>2026-08-27T19:21:19.992Z</time>
      </trkpt>
      <trkpt lat="53.388008" lon="10.109436">
        <ele>6.044116</ele>
        <time>2026-08-27T19:21:22.906Z</time>
      </trkpt>
      <trkpt lat="53.387821" lon="10.109798">
        <ele>6.050624</ele>
        <time>2026-08-27T19:21:28.914Z</time>
      </trkpt>
      <trkpt lat="53.387347" lon="10.110658">
        <ele>6.006654</ele>
        <time>2026-08-27T19:21:43.453Z</time>
      </trkpt>
      <trkpt lat="53.386567" lon="10.111930">
        <ele>5.889385</ele>
        <time>2026-08-27T19:22:06.369Z</time>
      </trkpt>
      <trkpt lat="53.386215" lon="10.112489">
        <ele>5.679644</ele>
        <time>2026-08-27T19:22:16.293Z</time>
      </trkpt>
      <trkpt lat="53.385901" lon="10.113022">
        <ele>5.329366</ele>
        <time>2026-08-27T19:22:25.208Z</time>
      </trkpt>
      <trkpt lat="53.385760" lon="10.113262">
        <ele>5.171856</ele>
        <time>2026-08-27T19:22:29.159Z</time>
      </trkpt>
      <trkpt lat="53.385150" lon="10.114439">
        <ele>4.444838</ele>
        <time>2026-08-27T19:22:47.037Z</time>
      </trkpt>
      <trkpt lat="53.384365" lon="10.115770">
        <ele>3.758673</ele>
        <time>2026-08-27T19:23:08.819Z</time>
      </trkpt>
      <trkpt lat="53.382813" lon="10.118056">
        <ele>3.439250</ele>
        <time>2026-08-27T19:23:52.078Z</time>
      </trkpt>
      <trkpt lat="53.381282" lon="10.120213">
        <ele>4.438854</ele>
        <time>2026-08-27T19:24:35.936Z</time>
      </trkpt>
      <trkpt lat="53.381202" lon="10.120327">
        <ele>4.502823</ele>
        <time>2026-08-27T19:24:38.308Z</time>
      </trkpt>
      <trkpt lat="53.380986" lon="10.120556">
        <ele>4.729190</ele>
        <time>2026-08-27T19:24:44.069Z</time>
      </trkpt>
      <trkpt lat="53.380636" lon="10.120874">
        <ele>5.148882</ele>
        <time>2026-08-27T19:24:53.046Z</time>
      </trkpt>
      <trkpt lat="53.380373" lon="10.121173">
        <ele>5.483893</ele>
        <time>2026-08-27T19:25:00.226Z</time>
      </trkpt>
      <trkpt lat="53.379016" lon="10.123014">
        <ele>7.145244</ele>
        <time>2026-08-27T19:25:39.737Z</time>
      </trkpt>
      <trkpt lat="53.378266" lon="10.124135">
        <ele>7.950402</ele>
        <time>2026-08-27T19:26:02.173Z</time>
      </trkpt>
      <trkpt lat="53.378112" lon="10.124470">
        <ele>7.842616</ele>
        <time>2026-08-27T19:26:07.576Z</time>
      </trkpt>
      <trkpt lat="53.377401" lon="10.126333">
        <ele>7.278969</ele>
        <time>2026-08-27T19:26:33.622Z</time>
      </trkpt>
      <trkpt lat="53.376756" lon="10.127869">
        <ele>7.087720</ele>
        <time>2026-08-27T19:26:56.517Z</time>
      </trkpt>
      <trkpt lat="53.376182" lon="10.128934">
        <ele>6.989061</ele>
        <time>2026-08-27T19:27:14.899Z</time>
      </trkpt>
      <trkpt lat="53.375271" lon="10.130453">
        <ele>7.106799</ele>
        <time>2026-08-27T19:27:42.354Z</time>
      </trkpt>
      <trkpt lat="53.374815" lon="10.131491">
        <ele>7.016451</ele>
        <time>2026-08-27T19:27:58.498Z</time>
      </trkpt>
      <trkpt lat="53.374610" lon="10.132015">
        <ele>6.791202</ele>
        <time>2026-08-27T19:28:06.208Z</time>
      </trkpt>
      <trkpt lat="53.374421" lon="10.132736">
        <ele>6.508110</ele>
        <time>2026-08-27T19:28:15.771Z</time>
      </trkpt>
      <trkpt lat="53.374088" lon="10.134452">
        <ele>5.655302</ele>
        <time>2026-08-27T19:28:36.465Z</time>
      </trkpt>
      <trkpt lat="53.373959" lon="10.135576">
        <ele>4.852115</ele>
        <time>2026-08-27T19:28:49.060Z</time>
      </trkpt>
      <trkpt lat="53.373911" lon="10.135946">
        <ele>4.586413</ele>
        <time>2026-08-27T19:28:53.299Z</time>
      </trkpt>
      <trkpt lat="53.373903" lon="10.136372">
        <ele>4.287335</ele>
        <time>2026-08-27T19:28:58.113Z</time>
      </trkpt>
      <trkpt lat="53.373987" lon="10.136918">
        <ele>3.934121</ele>
        <time>2026-08-27T19:29:04.591Z</time>
      </trkpt>
      <trkpt lat="53.373908" lon="10.137145">
        <ele>3.867223</ele>
        <time>2026-08-27T19:29:07.686Z</time>
      </trkpt>
      <trkpt lat="53.373817" lon="10.137208">
        <ele>3.825213</ele>
        <time>2026-08-27T19:29:09.635Z</time>
      </trkpt>
      <trkpt lat="53.373668" lon="10.137207">
        <ele>3.761636</ele>
        <time>2026-08-27T19:29:12.616Z</time>
      </trkpt>
      <trkpt lat="53.373417" lon="10.139393">
        <ele>3.194958</ele>
        <time>2026-08-27T19:29:40.059Z</time>
      </trkpt>
      <trkpt lat="53.373176" lon="10.141313">
        <ele>2.835778</ele>
        <time>2026-08-27T19:30:04.101Z</time>
      </trkpt>
      <trkpt lat="53.373108" lon="10.141718">
        <ele>2.759006</ele>
        <time>2026-08-27T19:30:09.197Z</time>
      </trkpt>
      <trkpt lat="53.372955" lon="10.142379">
        <ele>2.638009</ele>
        <time>2026-08-27T19:30:17.830Z</time>
      </trkpt>
      <trkpt lat="53.372734" lon="10.143121">
        <ele>2.601025</ele>
        <time>2026-08-27T19:30:27.963Z</time>
      </trkpt>
      <trkpt lat="53.371904" lon="10.145528">
        <ele>2.651043</ele>
        <time>2026-08-27T19:31:03.103Z</time>
      </trkpt>
      <trkpt lat="53.370855" lon="10.148580">
        <ele>3.568295</ele>
        <time>2026-08-27T19:31:49.087Z</time>
      </trkpt>
      <trkpt lat="53.370112" lon="10.150430">
        <ele>4.298747</ele>
        <time>2026-08-27T19:32:18.470Z</time>
      </trkpt>
      <trkpt lat="53.370100" lon="10.150415">
        <ele>4.305359</ele>
        <time>2026-08-27T19:32:19.000Z</time>
      </trkpt>
      <trkpt lat="53.370056" lon="10.150364">
        <ele>4.328990</ele>
        <time>2026-08-27T19:32:20.843Z</time>
      </trkpt>
      <trkpt lat="53.370012" lon="10.150318">
        <ele>4.351897</ele>
        <time>2026-08-27T19:32:22.606Z</time>
      </trkpt>
      <trkpt lat="53.369993" lon="10.150280">
        <ele>4.364963</ele>
        <time>2026-08-27T19:32:23.621Z</time>
      </trkpt>
      <trkpt lat="53.369985" lon="10.150257">
        <ele>4.371980</ele>
        <time>2026-08-27T19:32:24.176Z</time>
      </trkpt>
      <trkpt lat="53.369971" lon="10.150217">
        <ele>4.384202</ele>
        <time>2026-08-27T19:32:25.121Z</time>
      </trkpt>
      <trkpt lat="53.369939" lon="10.150123">
        <ele>4.412724</ele>
        <time>2026-08-27T19:32:27.364Z</time>
      </trkpt>
      <trkpt lat="53.369790" lon="10.150097">
        <ele>4.478897</ele>
        <time>2026-08-27T19:32:32.524Z</time>
      </trkpt>
      <trkpt lat="53.369617" lon="10.149978">
        <ele>4.561500</ele>
        <time>2026-08-27T19:32:38.958Z</time>
      </trkpt>
      <trkpt lat="53.369350" lon="10.149719">
        <ele>4.697769</ele>
        <time>2026-08-27T19:32:49.617Z</time>
      </trkpt>
      <trkpt lat="53.369083" lon="10.149399">
        <ele>4.842761</ele>
        <time>2026-08-27T19:33:00.922Z</time>
      </trkpt>
      <trkpt lat="53.369139" lon="10.149206">
        <ele>4.899323</ele>
        <time>2026-08-27T19:33:03.715Z</time>
      </trkpt>
      <trkpt lat="53.369140" lon="10.149042">
        <ele>4.942548</ele>
        <time>2026-08-27T19:33:05.839Z</time>
      </trkpt>
      <trkpt lat="53.369102" lon="10.148906">
        <ele>4.982127</ele>
        <time>2026-08-27T19:33:07.828Z</time>
      </trkpt>
      <trkpt lat="53.368967" lon="10.148639">
        <ele>5.033532</ele>
        <time>2026-08-27T19:33:12.457Z</time>
      </trkpt>
      <trkpt lat="53.368815" lon="10.148692">
        <ele>5.067471</ele>
        <time>2026-08-27T19:33:15.910Z</time>
      </trkpt>
      <trkpt lat="53.368710" lon="10.148625">
        <ele>5.092032</ele>
        <time>2026-08-27T19:33:18.438Z</time>
      </trkpt>
      <trkpt lat="53.368573" lon="10.148511">
        <ele>5.125468</ele>
        <time>2026-08-27T19:33:21.815Z</time>
      </trkpt>
      <trkpt lat="53.368513" lon="10.148403">
        <ele>5.144716</ele>
        <time>2026-08-27T19:33:23.756Z</time>
      </trkpt>
      <trkpt lat="53.368470" lon="10.148193">
        <ele>5.173675</ele>
        <time>2026-08-27T19:33:26.650Z</time>
      </trkpt>
      <trkpt lat="53.368431" lon="10.147998">
        <ele>5.200500</ele>
        <time>2026-08-27T19:33:29.300Z</time>
      </trkpt>
      <trkpt lat="53.368360" lon="10.148066">
        <ele>5.218376</ele>
        <time>2026-08-27T19:33:31.095Z</time>
      </trkpt>
      <trkpt lat="53.368337" lon="10.148092">
        <ele>5.224441</ele>
        <time>2026-08-27T19:33:31.699Z</time>
      </trkpt>
      <trkpt lat="53.368232" lon="10.148267">
        <ele>5.256811</ele>
        <time>2026-08-27T19:33:34.906Z</time>
      </trkpt>
      <trkpt lat="53.368123" lon="10.148365">
        <ele>5.283851</ele>
        <time>2026-08-27T19:33:37.606Z</time>
      </trkpt>
      <trkpt lat="53.368060" lon="10.148544">
        <ele>5.310958</ele>
        <time>2026-08-27T19:33:40.260Z</time>
      </trkpt>
      <trkpt lat="53.367246" lon="10.152055">
        <ele>4.345049</ele>
        <time>2026-08-27T19:34:25.080Z</time>
      </trkpt>
      <trkpt lat="53.365730" lon="10.158819">
        <ele>3.684325</ele>
        <time>2026-08-27T19:35:54.921Z</time>
      </trkpt>
      <trkpt lat="53.365353" lon="10.160407">
        <ele>3.551899</ele>
        <time>2026-08-27T19:36:16.020Z</time>
      </trkpt>
      <trkpt lat="53.363507" lon="10.168759">
        <ele>3.694087</ele>
        <time>2026-08-27T19:38:08.227Z</time>
      </trkpt>
      <trkpt lat="53.362304" lon="10.173690">
        <ele>4.682012</ele>
        <time>2026-08-27T19:39:17.504Z</time>
      </trkpt>
      <trkpt lat="53.361612" lon="10.176600">
        <ele>4.519144</ele>
        <time>2026-08-27T19:39:56.341Z</time>
      </trkpt>
      <trkpt lat="53.361398" lon="10.177871">
        <ele>4.344386</ele>
        <time>2026-08-27T19:40:12.516Z</time>
      </trkpt>
      <trkpt lat="53.361561" lon="10.179034">
        <ele>4.168498</ele>
        <time>2026-08-27T19:40:27.152Z</time>
      </trkpt>
      <trkpt lat="53.362238" lon="10.183368">
        <ele>3.810477</ele>
        <time>2026-08-27T19:41:22.629Z</time>
      </trkpt>
      <trkpt lat="53.360446" lon="10.184166">
        <ele>4.164536</ele>
        <time>2026-08-27T19:42:02.551Z</time>
      </trkpt>
      <trkpt lat="53.360096" lon="10.184282">
        <ele>4.290868</ele>
        <time>2026-08-27T19:42:10.328Z</time>
      </trkpt>
      <trkpt lat="53.360056" lon="10.184496">
        <ele>4.338255</ele>
        <time>2026-08-27T19:42:13.239Z</time>
      </trkpt>
      <trkpt lat="53.360393" lon="10.184898">
        <ele>4.484732</ele>
        <time>2026-08-27T19:42:22.257Z</time>
      </trkpt>
      <trkpt lat="53.360548" lon="10.185299">
        <ele>4.585690</ele>
        <time>2026-08-27T19:42:28.452Z</time>
      </trkpt>
      <trkpt lat="53.360741" lon="10.187845">
        <ele>4.811328</ele>
        <time>2026-08-27T19:43:01.649Z</time>
      </trkpt>
      <trkpt lat="53.360715" lon="10.188139">
        <ele>4.825873</ele>
        <time>2026-08-27T19:43:05.351Z</time>
      </trkpt>
      <trkpt lat="53.360605" lon="10.188291">
        <ele>4.837565</ele>
        <time>2026-08-27T19:43:08.301Z</time>
      </trkpt>
      <trkpt lat="53.360774" lon="10.188849">
        <ele>4.851181</ele>
        <time>2026-08-27T19:43:15.927Z</time>
      </trkpt>
      <trkpt lat="53.360818" lon="10.189084">
        <ele>4.820611</ele>
        <time>2026-08-27T19:43:18.900Z</time>
      </trkpt>
      <trkpt lat="53.360928" lon="10.190292">
        <ele>4.668943</ele>
        <time>2026-08-27T19:43:33.529Z</time>
      </trkpt>
      <trkpt lat="53.361033" lon="10.191449">
        <ele>4.523689</ele>
        <time>2026-08-27T19:43:47.984Z</time>
      </trkpt>
      <trkpt lat="53.361168" lon="10.193018">
        <ele>4.975654</ele>
        <time>2026-08-27T19:44:09.559Z</time>
      </trkpt>
      <trkpt lat="53.361215" lon="10.193205">
        <ele>5.051095</ele>
        <time>2026-08-27T19:44:12.358Z</time>
      </trkpt>
      <trkpt lat="53.361185" lon="10.193257">
        <ele>5.077985</ele>
        <time>2026-08-27T19:44:13.313Z</time>
      </trkpt>
      <trkpt lat="53.361171" lon="10.193391">
        <ele>5.128564</ele>
        <time>2026-08-27T19:44:15.142Z</time>
      </trkpt>
      <trkpt lat="53.361063" lon="10.193624">
        <ele>5.238254</ele>
        <time>2026-08-27T19:44:19.105Z</time>
      </trkpt>
      <trkpt lat="53.361121" lon="10.193715">
        <ele>5.287756</ele>
        <time>2026-08-27T19:44:20.882Z</time>
      </trkpt>
      <trkpt lat="53.361191" lon="10.193820">
        <ele>5.346288</ele>
        <time>2026-08-27T19:44:22.996Z</time>
      </trkpt>
      <trkpt lat="53.360992" lon="10.194186">
        <ele>5.530376</ele>
        <time>2026-08-27T19:44:29.607Z</time>
      </trkpt>
      <trkpt lat="53.360823" lon="10.194471">
        <ele>5.608323</ele>
        <time>2026-08-27T19:44:34.925Z</time>
      </trkpt>
      <trkpt lat="53.360978" lon="10.194423">
        <ele>5.606131</ele>
        <time>2026-08-27T19:44:39.317Z</time>
      </trkpt>
      <trkpt lat="53.361059" lon="10.194469">
        <ele>5.604942</ele>
        <time>2026-08-27T19:44:41.688Z</time>
      </trkpt>
      <trkpt lat="53.361476" lon="10.195301">
        <ele>5.595929</ele>
        <time>2026-08-27T19:44:59.543Z</time>
      </trkpt>
      <trkpt lat="53.361762" lon="10.195898">
        <ele>5.589578</ele>
        <time>2026-08-27T19:45:11.954Z</time>
      </trkpt>
      <trkpt lat="53.361934" lon="10.196044">
        <ele>5.586897</ele>
        <time>2026-08-27T19:45:17.127Z</time>
      </trkpt>
      <trkpt lat="53.362180" lon="10.196576">
        <ele>5.553721</ele>
        <time>2026-08-27T19:45:27.943Z</time>
      </trkpt>
      <trkpt lat="53.362006" lon="10.196819">
        <ele>5.526191</ele>
        <time>2026-08-27T19:45:34.066Z</time>
      </trkpt>
      <trkpt lat="53.361994" lon="10.196876">
        <ele>5.521808</ele>
        <time>2026-08-27T19:45:35.051Z</time>
      </trkpt>
      <trkpt lat="53.361869" lon="10.197476">
        <ele>5.475714</ele>
        <time>2026-08-27T19:45:45.438Z</time>
      </trkpt>
      <trkpt lat="53.361831" lon="10.197650">
        <ele>5.462275</ele>
        <time>2026-08-27T19:45:48.478Z</time>
      </trkpt>
      <trkpt lat="53.361818" lon="10.197710">
        <ele>5.457645</ele>
        <time>2026-08-27T19:45:49.537Z</time>
      </trkpt>
      <trkpt lat="53.361537" lon="10.198908">
        <ele>5.362110</ele>
        <time>2026-08-27T19:46:06.604Z</time>
      </trkpt>
      <trkpt lat="53.361211" lon="10.199879">
        <ele>5.192988</ele>
        <time>2026-08-27T19:46:21.301Z</time>
      </trkpt>
      <trkpt lat="53.360877" lon="10.200781">
        <ele>5.031847</ele>
        <time>2026-08-27T19:46:34.731Z</time>
      </trkpt>
      <trkpt lat="53.361057" lon="10.201029">
        <ele>4.972571</ele>
        <time>2026-08-27T19:46:39.382Z</time>
      </trkpt>
      <trkpt lat="53.360807" lon="10.201241">
        <ele>4.916161</ele>
        <time>2026-08-27T19:46:45.652Z</time>
      </trkpt>
      <trkpt lat="53.361080" lon="10.201571">
        <ele>5.001345</ele>
        <time>2026-08-27T19:46:54.763Z</time>
      </trkpt>
      <trkpt lat="53.361594" lon="10.201930">
        <ele>5.142263</ele>
        <time>2026-08-27T19:47:10.043Z</time>
      </trkpt>
      <trkpt lat="53.362240" lon="10.202419">
        <ele>5.321643</ele>
        <time>2026-08-27T19:47:29.834Z</time>
      </trkpt>
      <trkpt lat="53.362222" lon="10.202443">
        <ele>5.327464</ele>
        <time>2026-08-27T19:47:30.487Z</time>
      </trkpt>
      <trkpt lat="53.362021" lon="10.203213">
        <ele>5.363909</ele>
        <time>2026-08-27T19:47:44.553Z</time>
      </trkpt>
      <trkpt lat="53.362009" lon="10.203268">
        <ele>5.363909</ele>
        <time>2026-08-27T19:47:45.526Z</time>
      </trkpt>
      <trkpt lat="53.362003" lon="10.203298">
        <ele>5.363909</ele>
        <time>2026-08-27T19:47:46.055Z</time>
      </trkpt>
      <trkpt lat="53.361923" lon="10.203594">
        <ele>5.363909</ele>
        <time>2026-08-27T19:47:51.486Z</time>
      </trkpt>
      <trkpt lat="53.361898" lon="10.203682">
        <ele>5.363909</ele>
        <time>2026-08-27T19:47:53.124Z</time>
      </trkpt>
      <trkpt lat="53.361800" lon="10.204104">
        <ele>5.363909</ele>
        <time>2026-08-27T19:48:00.704Z</time>
      </trkpt>
      <trkpt lat="53.361763" lon="10.204422">
        <ele>5.363909</ele>
        <time>2026-08-27T19:48:06.138Z</time>
      </trkpt>
      <trkpt lat="53.361842" lon="10.204463">
        <ele>5.363909</ele>
        <time>2026-08-27T19:48:08.024Z</time>
      </trkpt>
      <trkpt lat="53.361995" lon="10.204792">
        <ele>5.363909</ele>
        <time>2026-08-27T19:48:13.731Z</time>
      </trkpt>
      <trkpt lat="53.362131" lon="10.205224">
        <ele>5.363909</ele>
        <time>2026-08-27T19:48:20.368Z</time>
      </trkpt>
      <trkpt lat="53.362240" lon="10.205407">
        <ele>5.363909</ele>
        <time>2026-08-27T19:48:23.823Z</time>
      </trkpt>
      <trkpt lat="53.362364" lon="10.205529">
        <ele>5.363909</ele>
        <time>2026-08-27T19:48:27.032Z</time>
      </trkpt>
      <trkpt lat="53.362402" lon="10.205610">
        <ele>5.363909</ele>
        <time>2026-08-27T19:48:28.392Z</time>
      </trkpt>
      <trkpt lat="53.362422" lon="10.205849">
        <ele>5.363909</ele>
        <time>2026-08-27T19:48:31.694Z</time>
      </trkpt>
      <trkpt lat="53.362461" lon="10.206298">
        <ele>5.363909</ele>
        <time>2026-08-27T19:48:39.247Z</time>
      </trkpt>
      <trkpt lat="53.362472" lon="10.206385">
        <ele>5.363909</ele>
        <time>2026-08-27T19:48:40.730Z</time>
      </trkpt>
    </trkseg>
  </trk>
</gpx>